Provisional Data: Canacadea Creek near Almond, NY


Please select a monitoring station.
Please select start date.
Please select start date.
Historical Station - Data Range: 12/17/2010 - 05/16/2014

Toggle Unit: C/F Toggle Unit: C/F
Sample Time Temperature (C) Temperature (F) Specific Conductivity (mS/cm) pH   Turbidity (NTU+) DO (mg/L)
5/1/2014 10:20:00 AM 8.74 47.732 0.237 8.08 13 12.36
5/1/2014 10:25:00 AM 8.78 47.804 0.237 8.1 12.8 12.44
5/1/2014 10:30:00 AM 8.83 47.894 0.238 8.13 12.7 12.51
5/1/2014 10:35:00 AM 8.88 47.984 0.238 8.16 10.7 12.55
5/1/2014 10:40:00 AM 8.96 48.128 0.238 8.2 11.7 12.61
5/1/2014 10:45:00 AM 9.01 48.218 0.238 8.22 11 12.63
5/1/2014 10:50:00 AM 9.08 48.344 0.239 8.25 11.4 12.68
5/1/2014 10:55:00 AM 9.16 48.488 0.239 8.27 11 12.71
5/1/2014 11:00:00 AM 9.26 48.668 0.239 8.32 11.4 12.76
5/1/2014 11:05:00 AM 9.28 48.704 0.24 8.34 12.6 12.78
5/1/2014 11:10:00 AM 9.32 48.776 0.239 8.35 10.7 12.81
5/1/2014 11:15:00 AM 9.34 48.812 0.24 8.36 10.7 12.8
5/1/2014 11:20:00 AM 9.35 48.83 0.24 8.37 11.5 12.79
5/1/2014 11:25:00 AM 9.39 48.902 0.24 8.38 11.2 12.8
5/1/2014 11:30:00 AM 9.48 49.064 0.241 8.41 10.2 12.79
5/1/2014 11:35:00 AM 9.52 49.136 0.241 8.41 10.4 12.83
5/1/2014 11:40:00 AM 9.56 49.208 0.241 8.42 10.3 12.86
5/1/2014 11:45:00 AM 9.63 49.334 0.242 8.45 10 12.88
5/1/2014 11:50:00 AM 9.68 49.424 0.242 8.46 10.1 12.89
5/1/2014 11:55:00 AM 9.7 49.46 0.242 8.47 9.3 12.91
5/1/2014 12:00:00 PM 9.72 49.496 0.243 8.48 10.6 12.9
5/1/2014 12:05:00 PM 9.76 49.568 0.243 8.49 10.2 12.91
5/1/2014 12:10:00 PM 9.78 49.604 0.243 8.49 8.9 12.9
5/1/2014 12:15:00 PM 9.81 49.658 0.244 8.5 10.5 12.86
5/1/2014 12:20:00 PM 9.85 49.73 0.244 8.5 8.6 12.82
5/1/2014 12:25:00 PM 9.88 49.784 0.244 8.51 8.8 12.78
5/1/2014 12:30:00 PM 9.9 49.82 0.245 8.51 9 12.7
5/1/2014 12:35:00 PM 9.92 49.856 0.245 8.51 8.9 12.65
5/1/2014 12:40:00 PM 9.92 49.856 0.245 8.49 9.9 12.59
5/1/2014 12:45:00 PM 9.93 49.874 0.246 8.5 11.3 12.52
5/1/2014 12:50:00 PM 9.94 49.892 0.246 8.49 8 12.52
5/1/2014 12:55:00 PM 9.96 49.928 0.246 8.48 9 12.49
5/1/2014 1:00:00 PM 9.99 49.982 0.247 8.49 8.6 12.5
5/1/2014 1:05:00 PM 10.06 50.108 0.247 8.49 8.3 12.51
5/1/2014 1:10:00 PM 10.13 50.234 0.247 8.5 8 12.54
5/1/2014 1:15:00 PM 10.16 50.288 0.248 8.49 9.3 12.56
5/1/2014 1:20:00 PM 10.21 50.378 0.248 8.49 8.5 12.59
5/1/2014 1:25:00 PM 10.26 50.468 0.248 8.52 9 12.63
5/1/2014 1:30:00 PM 10.32 50.576 0.248 8.54 9.3 12.67
5/1/2014 1:35:00 PM 10.35 50.63 0.249 8.55 8 12.7
5/1/2014 1:40:00 PM 10.42 50.756 0.249 8.57 7.6 12.76
5/1/2014 1:45:00 PM 10.51 50.918 0.249 8.57 7.8 12.79
5/1/2014 1:50:00 PM 10.59 51.062 0.25 8.59 7.2 12.82
5/1/2014 1:55:00 PM 10.62 51.116 0.25 8.62 6.7 12.85
5/1/2014 2:00:00 PM 10.64 51.152 0.25 8.64 7.8 12.81
5/1/2014 2:05:00 PM 10.67 51.206 0.25 8.63 7.6 12.8
5/1/2014 2:10:00 PM 10.68 51.224 0.251 8.63 7.1 12.75
5/1/2014 2:15:00 PM 10.69 51.242 0.251 8.63 6.9 12.67
5/1/2014 2:20:00 PM 10.73 51.314 0.252 8.63 7.2 12.65
5/1/2014 2:25:00 PM 10.77 51.386 0.252 8.63 8.1 12.63
5/1/2014 2:30:00 PM 10.8 51.44 0.252 8.63 6.6 12.61
5/1/2014 2:35:00 PM 10.82 51.476 0.252 8.63 6 12.6
5/1/2014 2:40:00 PM 10.82 51.476 0.253 8.62 6.8 12.57
5/1/2014 2:45:00 PM 10.82 51.476 0.253 8.61 7.2 12.55
5/1/2014 2:50:00 PM 10.82 51.476 0.253 8.62 6.8 12.52
5/1/2014 2:55:00 PM 10.79 51.422 0.254 8.6 7 12.46
5/1/2014 3:00:00 PM 10.78 51.404 0.254 8.58 7 12.39
5/1/2014 3:05:00 PM 10.81 51.458 0.255 8.58 7.1 12.42
5/1/2014 3:10:00 PM 10.82 51.476 0.255 8.58 6.8 12.44
5/1/2014 3:15:00 PM 10.81 51.458 0.256 8.57 6.7 12.38
5/1/2014 3:20:00 PM 10.82 51.476 0.256 8.57 6.1 12.42
5/1/2014 3:25:00 PM 10.81 51.458 0.256 8.57 7 12.39
5/1/2014 3:30:00 PM 10.79 51.422 0.257 8.55 6 12.33
5/1/2014 3:35:00 PM 10.77 51.386 0.257 8.55 6.7 12.3
5/1/2014 3:40:00 PM 10.75 51.35 0.258 8.53 5.7 12.29
5/1/2014 3:45:00 PM 10.75 51.35 0.258 8.54 6.4 12.28
5/1/2014 3:50:00 PM 10.75 51.35 0.258 8.53 7.7 12.27
5/1/2014 3:55:00 PM 10.76 51.368 0.258 8.54 6 12.3
5/1/2014 4:00:00 PM 10.79 51.422 0.258 8.56 6.4 12.35
5/1/2014 4:05:00 PM 10.81 51.458 0.259 8.57 6.4 12.38
5/1/2014 4:10:00 PM 10.81 51.458 0.259 8.57 5.6 12.4
5/1/2014 4:15:00 PM 10.83 51.494 0.259 8.58 5.8 12.41
5/1/2014 4:20:00 PM 10.84 51.512 0.259 8.58 6.6 12.43
5/1/2014 4:25:00 PM 10.86 51.548 0.26 8.58 5.9 12.47
5/1/2014 4:30:00 PM 10.88 51.584 0.26 8.59 5.5 12.47
5/1/2014 4:35:00 PM 10.87 51.566 0.26 8.57 5.8 12.5
5/1/2014 4:40:00 PM 10.9 51.62 0.26 8.57 5.3 12.49
5/1/2014 4:45:00 PM 10.94 51.692 0.26 8.58 5 12.52
5/1/2014 4:50:00 PM 10.96 51.728 0.261 8.59 5.2 12.52
5/1/2014 4:55:00 PM 10.95 51.71 0.261 8.59 5.9 12.47
5/1/2014 5:00:00 PM 10.96 51.728 0.261 8.59 6.2 12.46
5/1/2014 5:05:00 PM 10.95 51.71 0.261 8.58 6.2 12.41
5/1/2014 5:10:00 PM 10.93 51.674 0.261 8.58 6 12.38
5/1/2014 5:15:00 PM 10.91 51.638 0.261 8.57 5.5 12.35
5/1/2014 5:20:00 PM 10.91 51.638 0.261 8.57 5.1 12.32
5/1/2014 5:25:00 PM 10.9 51.62 0.262 8.56 5.9 12.3
5/1/2014 5:30:00 PM 10.88 51.584 0.262 8.54 5.2 12.27
5/1/2014 5:35:00 PM 10.86 51.548 0.262 8.55 6.1 12.24
5/1/2014 5:40:00 PM 10.83 51.494 0.262 8.53 5 12.2
5/1/2014 5:45:00 PM 10.81 51.458 0.262 8.53 5.7 12.13
5/1/2014 5:50:00 PM 10.81 51.458 0.263 8.51 5.3 12.13
5/1/2014 5:55:00 PM 10.79 51.422 0.263 8.49 5.8 12.09
5/1/2014 6:00:00 PM 10.77 51.386 0.263 8.47 4.2 12.03
5/1/2014 6:05:00 PM 10.74 51.332 0.264 8.46 5.3 11.99
5/1/2014 6:10:00 PM 10.71 51.278 0.264 8.44 4.5 11.94
5/1/2014 6:15:00 PM 10.67 51.206 0.264 8.42 5.3 11.87
5/1/2014 6:20:00 PM 10.63 51.134 0.265 8.41 4.7 11.8
5/1/2014 6:25:00 PM 10.6 51.08 0.265 8.38 6.1 11.74
5/1/2014 6:30:00 PM 10.55 50.99 0.265 8.36 5.4 11.67
5/1/2014 6:35:00 PM 10.52 50.936 0.265 8.32 5 11.61
5/1/2014 6:40:00 PM 10.48 50.864 0.266 8.29 5.4 11.54
5/1/2014 6:45:00 PM 10.44 50.792 0.266 8.26 5.2 11.47
5/1/2014 6:50:00 PM 10.41 50.738 0.266 8.24 4.8 11.42
5/1/2014 6:55:00 PM 10.37 50.666 0.267 8.2 4.9 11.33
5/1/2014 7:00:00 PM 10.33 50.594 0.267 8.17 5.1 11.27
5/1/2014 7:05:00 PM 10.3 50.54 0.267 8.14 5.3 11.23
5/1/2014 7:10:00 PM 10.27 50.486 0.267 8.12 5.2 11.19
5/1/2014 7:15:00 PM 10.22 50.396 0.268 8.08 4.8 11.13
5/1/2014 7:20:00 PM 10.19 50.342 0.268 8.04 5.4 11.08
5/1/2014 7:25:00 PM 10.15 50.27 0.268 8.01 4.7 11.04
5/1/2014 7:30:00 PM 10.1 50.18 0.269 7.99 6.2 11
5/1/2014 7:35:00 PM 10.05 50.09 0.269 7.97 4 10.96
5/1/2014 7:40:00 PM 10.02 50.036 0.27 7.94 4.5 10.93
5/1/2014 7:45:00 PM 9.97 49.946 0.27 7.91 4.5 10.89
5/1/2014 7:50:00 PM 9.93 49.874 0.27 7.88 4.5 10.88
5/1/2014 7:55:00 PM 9.88 49.784 0.271 7.87 4.5 10.84
5/1/2014 8:00:00 PM 9.83 49.694 0.271 7.85 4.9 10.81
5/1/2014 8:05:00 PM 9.79 49.622 0.272 7.82 5.1 10.8
5/1/2014 8:10:00 PM 9.74 49.532 0.272 7.8 5.1 10.79
5/1/2014 8:15:00 PM 9.7 49.46 0.272 7.79 4.6 10.76
5/1/2014 8:20:00 PM 9.67 49.406 0.272 7.78 4.9 10.77
5/1/2014 8:25:00 PM 9.63 49.334 0.273 7.76 4.6 10.75
5/1/2014 8:30:00 PM 9.59 49.262 0.273 7.75 5 10.75
5/1/2014 8:35:00 PM 9.56 49.208 0.273 7.73 4.2 10.75
5/1/2014 8:40:00 PM 9.51 49.118 0.274 7.73 5.2 10.75
5/1/2014 8:45:00 PM 9.48 49.064 0.274 7.73 5.6 10.75
5/1/2014 8:50:00 PM 9.44 48.992 0.274 7.72 5.5 10.77
5/1/2014 8:55:00 PM 9.4 48.92 0.274 7.72 5.1 10.77
5/1/2014 9:00:00 PM 9.37 48.866 0.274 7.7 4.5 10.77
5/1/2014 9:05:00 PM 9.33 48.794 0.275 7.7 4.6 10.78
5/1/2014 9:10:00 PM 9.29 48.722 0.275 7.7 5.5 10.79
5/1/2014 9:15:00 PM 9.26 48.668 0.275 7.68 5.1 10.8
5/1/2014 9:20:00 PM 9.23 48.614 0.275 7.69 4.7 10.81
5/1/2014 9:25:00 PM 9.19 48.542 0.275 7.69 4.9 10.8
5/1/2014 9:30:00 PM 9.15 48.47 0.275 7.7 5 10.79
5/1/2014 9:35:00 PM 9.12 48.416 0.275 7.67 4.8 10.83
5/1/2014 9:40:00 PM 9.08 48.344 0.275 7.67 4.3 10.84
5/1/2014 9:45:00 PM 9.06 48.308 0.276 7.67 4.3 10.84
5/1/2014 9:50:00 PM 9.02 48.236 0.276 7.68 4.6 10.86
5/1/2014 9:55:00 PM 8.99 48.182 0.276 7.68 4.4 10.87
5/1/2014 10:00:00 PM 8.96 48.128 0.277 7.68 4.9 10.88
5/1/2014 10:05:00 PM 8.94 48.092 0.277 7.67 4.6 10.87
5/1/2014 10:10:00 PM 8.9 48.02 0.277 7.65 4.6 10.88
5/1/2014 10:15:00 PM 8.88 47.984 0.278 7.65 4.9 10.9
5/1/2014 10:20:00 PM 8.85 47.93 0.278 7.66 5.6 10.9
5/1/2014 10:25:00 PM 8.82 47.876 0.278 7.66 3.9 10.91
5/1/2014 10:30:00 PM 8.79 47.822 0.279 7.66 4.4 10.9
5/1/2014 10:35:00 PM 8.77 47.786 0.279 7.65 3.7 10.91
5/1/2014 10:40:00 PM 8.74 47.732 0.279 7.65 4.6 10.92
5/1/2014 10:45:00 PM 8.71 47.678 0.28 7.67 4.2 10.91
5/1/2014 10:50:00 PM 8.7 47.66 0.28 7.66 4.8 10.93
5/1/2014 10:55:00 PM 8.67 47.606 0.28 7.66 3.6 10.94
5/1/2014 11:00:00 PM 8.65 47.57 0.281 7.65 4.6 10.95
5/1/2014 11:05:00 PM 8.62 47.516 0.281 7.65 4.3 10.95
5/1/2014 11:10:00 PM 8.6 47.48 0.281 7.65 5.9 10.95
5/1/2014 11:15:00 PM 8.58 47.444 0.281 7.65 4.6 10.96
5/1/2014 11:20:00 PM 8.55 47.39 0.281 7.65 3.8 10.97
5/1/2014 11:25:00 PM 8.53 47.354 0.282 7.65 4.4 10.97
5/1/2014 11:30:00 PM 8.52 47.336 0.282 7.66 4.8 10.98
5/1/2014 11:35:00 PM 8.49 47.282 0.282 7.66 4 10.98
5/1/2014 11:40:00 PM 8.47 47.246 0.282 7.66 4.1 10.99
5/1/2014 11:45:00 PM 8.45 47.21 0.282 7.66 4.9 10.98
5/1/2014 11:50:00 PM 8.43 47.174 0.283 7.66 4.2 10.99
5/1/2014 11:55:00 PM 8.41 47.138 0.283 7.66 4.1 11
5/2/2014 12:00:00 AM 8.39 47.102 0.283 7.68 3.9 10.97
5/2/2014 12:05:00 AM 8.37 47.066 0.283 7.65 4 11
5/2/2014 12:10:00 AM 8.35 47.03 0.283 7.66 4.5 11.01
5/2/2014 12:15:00 AM 8.33 46.994 0.284 7.65 4.9 11.02
5/2/2014 12:20:00 AM 8.32 46.976 0.284 7.65 4.2 11.02
5/2/2014 12:25:00 AM 8.3 46.94 0.284 7.65 3.6 11.02
5/2/2014 12:30:00 AM 8.28 46.904 0.284 7.66 3.6 11.04
5/2/2014 12:35:00 AM 8.26 46.868 0.285 7.66 3.6 11.06
5/2/2014 12:40:00 AM 8.24 46.832 0.285 7.66 4.2 11.05
5/2/2014 12:45:00 AM 8.23 46.814 0.285 7.66 4.1 11.04
5/2/2014 12:50:00 AM 8.21 46.778 0.285 7.66 4.7 11.04
5/2/2014 12:55:00 AM 8.2 46.76 0.285 7.66 3.5 11.05
5/2/2014 1:00:00 AM 8.17 46.706 0.285 7.65 3.5 11.06
5/2/2014 1:05:00 AM 8.16 46.688 0.286 7.65 3.9 11.06
5/2/2014 1:10:00 AM 8.14 46.652 0.286 7.66 4.2 11.09
5/2/2014 1:15:00 AM 8.13 46.634 0.286 7.67 3.9 11.07
5/2/2014 1:20:00 AM 8.11 46.598 0.286 7.67 3.8 11.08
5/2/2014 1:25:00 AM 8.1 46.58 0.286 7.67 5.5 11.06
5/2/2014 1:30:00 AM 8.09 46.562 0.286 7.66 3.4 11.06
5/2/2014 1:35:00 AM 8.07 46.526 0.287 7.66 3.5 11.09
5/2/2014 1:40:00 AM 8.05 46.49 0.287 7.67 3.5 11.09
5/2/2014 1:45:00 AM 8.04 46.472 0.287 7.66 3.5 11.09
5/2/2014 1:50:00 AM 8.02 46.436 0.287 7.66 3.3 11.1
5/2/2014 1:55:00 AM 8.01 46.418 0.287 7.66 3.2 11.08
5/2/2014 2:00:00 AM 7.99 46.382 0.287 7.66 3.3 11.09
5/2/2014 2:05:00 AM 7.98 46.364 0.287 7.66 3.4 11.09
5/2/2014 2:10:00 AM 7.97 46.346 0.287 7.66 3.4 11.1
5/2/2014 2:15:00 AM 7.95 46.31 0.287 7.67 3.8 11.1
5/2/2014 2:20:00 AM 7.94 46.292 0.287 7.66 3.7 11.12
5/2/2014 2:25:00 AM 7.93 46.274 0.287 7.67 4.2 11.1
5/2/2014 2:30:00 AM 7.91 46.238 0.288 7.68 3.2 11.11
5/2/2014 2:35:00 AM 7.9 46.22 0.288 7.67 3.7 11.12
5/2/2014 2:40:00 AM 7.89 46.202 0.288 7.67 3.2 11.12
5/2/2014 2:45:00 AM 7.87 46.166 0.288 7.66 3.3 11.13
5/2/2014 2:50:00 AM 7.86 46.148 0.289 7.66 2.8 11.13
5/2/2014 2:55:00 AM 7.85 46.13 0.289 7.66 3.3 11.14
5/2/2014 3:00:00 AM 7.84 46.112 0.289 7.66 4.1 11.13
5/2/2014 3:05:00 AM 7.82 46.076 0.29 7.67 3.2 11.14
5/2/2014 3:10:00 AM 7.81 46.058 0.29 7.66 3 11.14
5/2/2014 3:15:00 AM 7.8 46.04 0.29 7.66 3.3 11.14
5/2/2014 3:20:00 AM 7.79 46.022 0.291 7.66 3.3 11.13
5/2/2014 3:25:00 AM 7.78 46.004 0.291 7.67 4 11.14
5/2/2014 3:30:00 AM 7.76 45.968 0.291 7.67 3.6 11.15
5/2/2014 3:35:00 AM 7.76 45.968 0.291 7.66 3.4 11.15
5/2/2014 3:40:00 AM 7.75 45.95 0.292 7.67 3.2 11.15
5/2/2014 3:45:00 AM 7.73 45.914 0.292 7.69 3 11.11
5/2/2014 3:50:00 AM 7.72 45.896 0.292 7.67 3.1 11.16
5/2/2014 3:55:00 AM 7.71 45.878 0.292 7.67 2.8 11.17
5/2/2014 4:00:00 AM 7.7 45.86 0.293 7.67 3 11.17
5/2/2014 4:05:00 AM 7.69 45.842 0.293 7.66 3 11.17
5/2/2014 4:10:00 AM 7.68 45.824 0.293 7.67 4.6 11.19
5/2/2014 4:15:00 AM 7.67 45.806 0.293 7.66 3.5 11.17
5/2/2014 4:20:00 AM 7.66 45.788 0.293 7.66 2.6 11.18
5/2/2014 4:25:00 AM 7.65 45.77 0.293 7.67 4 11.17
5/2/2014 4:30:00 AM 7.64 45.752 0.293 7.67 3.3 11.18
5/2/2014 4:35:00 AM 7.63 45.734 0.294 7.67 3.6 11.18
5/2/2014 4:40:00 AM 7.62 45.716 0.294 7.67 2.8 11.18
5/2/2014 4:45:00 AM 7.61 45.698 0.294 7.67 2.8 11.19
5/2/2014 4:50:00 AM 7.6 45.68 0.294 7.68 2.6 11.18
5/2/2014 4:55:00 AM 7.59 45.662 0.294 7.67 2.5 11.19
5/2/2014 5:00:00 AM 7.58 45.644 0.294 7.69 2.8 11.16
5/2/2014 5:05:00 AM 7.57 45.626 0.294 7.68 2.7 11.22
5/2/2014 5:10:00 AM 7.55 45.59 0.295 7.68 2.7 11.22
5/2/2014 5:15:00 AM 7.55 45.59 0.295 7.69 2.7 11.22
5/2/2014 5:20:00 AM 7.53 45.554 0.295 7.67 3.6 11.24
5/2/2014 5:25:00 AM 7.53 45.554 0.295 7.69 2.9 11.24
5/2/2014 5:30:00 AM 7.52 45.536 0.295 7.68 3 11.25
5/2/2014 5:35:00 AM 7.51 45.518 0.295 7.68 2.5 11.27
5/2/2014 5:40:00 AM 7.5 45.5 0.295 7.69 2.9 11.3
5/2/2014 5:45:00 AM 7.49 45.482 0.295 7.7 3.5 11.32
5/2/2014 5:50:00 AM 7.48 45.464 0.295 7.7 2.4 11.37
5/2/2014 5:55:00 AM 7.48 45.464 0.295 7.71 2.9 11.4
5/2/2014 6:00:00 AM 7.47 45.446 0.295 7.72 3.3 11.46
5/2/2014 6:05:00 AM 7.47 45.446 0.295 7.72 2.7 11.52
5/2/2014 6:10:00 AM 7.47 45.446 0.295 7.73 2.5 11.57
5/2/2014 6:15:00 AM 7.46 45.428 0.296 7.75 2.5 11.63
5/2/2014 6:20:00 AM 7.46 45.428 0.296 7.76 3 11.69
5/2/2014 6:25:00 AM 7.46 45.428 0.296 7.78 1.9 11.74
5/2/2014 6:30:00 AM 7.46 45.428 0.296 7.79 2.6 11.79
5/2/2014 6:35:00 AM 7.47 45.446 0.296 7.79 2.7 11.88
5/2/2014 6:40:00 AM 7.47 45.446 0.297 7.8 2.3 11.95
5/2/2014 6:45:00 AM 7.48 45.464 0.297 7.83 2.2 12.01
5/2/2014 6:50:00 AM 7.48 45.464 0.297 7.84 1.8 12.09
5/2/2014 6:55:00 AM 7.48 45.464 0.297 7.86 2.5 12.15
5/2/2014 7:00:00 AM 7.48 45.464 0.297 7.87 2.2 12.17
5/2/2014 7:05:00 AM 7.49 45.482 0.297 7.88 2.1 12.21
5/2/2014 7:10:00 AM 7.49 45.482 0.297 7.89 2.1 12.21
5/2/2014 7:15:00 AM 7.49 45.482 0.297 7.9 2 12.23
5/2/2014 7:20:00 AM 7.49 45.482 0.297 7.92 2.2 12.21
5/2/2014 7:25:00 AM 7.49 45.482 0.298 7.92 2.1 12.23
5/2/2014 7:30:00 AM 7.49 45.482 0.298 7.95 1.8 12.2
5/2/2014 7:35:00 AM 7.5 45.5 0.298 7.94 2.2 12.32
5/2/2014 7:40:00 AM 7.5 45.5 0.297 7.96 2 12.34
5/2/2014 7:45:00 AM 7.51 45.518 0.297 7.97 1.6 12.37
5/2/2014 7:50:00 AM 7.52 45.536 0.297 7.99 2 12.43
5/2/2014 7:55:00 AM 7.53 45.554 0.297 7.99 1.8 12.48
5/2/2014 8:00:00 AM 7.55 45.59 0.297 8.02 1.8 12.56
5/2/2014 8:05:00 AM 7.57 45.626 0.297 8.04 2 12.65
5/2/2014 8:10:00 AM 7.58 45.644 0.297 8.06 1.8 12.7
5/2/2014 8:15:00 AM 7.6 45.68 0.297 8.08 1.8 12.79
5/2/2014 8:20:00 AM 7.62 45.716 0.297 8.11 1.9 12.88
5/2/2014 8:25:00 AM 7.63 45.734 0.297 8.13 1.8 12.92
5/2/2014 8:30:00 AM 7.63 45.734 0.297 8.15 1.6 12.92
5/2/2014 8:35:00 AM 7.65 45.77 0.296 8.16 1.7 12.96
5/2/2014 8:40:00 AM 7.68 45.824 0.296 8.18 1.6 13.06
5/2/2014 8:45:00 AM 7.77 45.986 0.296 8.22 2 13.08
5/2/2014 8:50:00 AM 7.82 46.076 0.296 8.24 1.5 13.22
5/2/2014 8:55:00 AM 7.86 46.148 0.296 8.27 1.4 13.31
5/2/2014 9:00:00 AM 7.9 46.22 0.296 8.31 1.6 13.4
5/2/2014 9:05:00 AM 7.92 46.256 0.296 8.34 1.4 13.47
5/2/2014 9:10:00 AM 7.94 46.292 0.296 8.35 1.7 13.51
5/2/2014 9:15:00 AM 7.98 46.364 0.296 8.37 1.4 13.57
5/2/2014 9:20:00 AM 8.01 46.418 0.296 8.41 1.7 13.62
5/2/2014 9:25:00 AM 8.05 46.49 0.297 8.43 1.4 13.67
5/2/2014 9:30:00 AM 8.09 46.562 0.298 8.45 1.4 13.75
5/2/2014 9:35:00 AM 8.13 46.634 0.298 8.46 1.6 13.78
5/2/2014 9:40:00 AM 8.18 46.724 0.298 8.49 1.6 13.83
5/2/2014 9:45:00 AM 8.23 46.814 0.298 8.51 1.9 13.88
5/2/2014 9:50:00 AM 8.24 46.832 0.299 8.54 1.5 13.89
5/2/2014 9:55:00 AM 8.28 46.904 0.299 8.56 1.5 13.91
5/2/2014 10:00:00 AM 8.33 46.994 0.299 8.59 1.4 13.88
5/2/2014 10:05:00 AM 8.37 47.066 0.299 8.6 2.3 13.99
5/2/2014 10:10:00 AM 8.43 47.174 0.299 8.61 1.9 14.03
5/2/2014 10:15:00 AM 8.49 47.282 0.298 8.63 1.6 14.08
5/2/2014 10:20:00 AM 8.53 47.354 0.298 8.66 1.3 14.09
5/2/2014 10:25:00 AM 8.58 47.444 0.297 8.66 2 14.09
5/2/2014 10:30:00 AM 8.61 47.498 0.297 8.68 1.6 14.04
5/2/2014 10:35:00 AM 8.63 47.534 0.297 8.69 1.6 14.05
5/2/2014 10:40:00 AM 8.67 47.606 0.296 8.7 1.6 14.04
5/2/2014 10:45:00 AM 8.71 47.678 0.296 8.71 1.6 14.06
5/2/2014 10:50:00 AM 8.77 47.786 0.295 8.73 1.6 14.04
5/2/2014 10:55:00 AM 8.81 47.858 0.295 8.74 1.6 14.05
5/2/2014 11:00:00 AM 8.85 47.93 0.295 8.74 1.7 14.06
5/2/2014 11:05:00 AM 8.91 48.038 0.294 8.75 1.8 14.06
5/2/2014 11:10:00 AM 8.98 48.164 0.294 8.77 2.4 14.11
5/2/2014 11:15:00 AM 9.01 48.218 0.293 8.79 1.8 14
5/2/2014 11:20:00 AM 9.03 48.254 0.293 8.78 1.5 14.02
5/2/2014 11:25:00 AM 9.06 48.308 0.293 8.78 1.5 13.96
5/2/2014 11:30:00 AM 9.1 48.38 0.293 8.79 1.4 13.96
5/2/2014 11:35:00 AM 9.15 48.47 0.293 8.8 1.5 13.94
5/2/2014 11:40:00 AM 9.21 48.578 0.292 8.8 1.6 13.93
5/2/2014 11:45:00 AM 9.27 48.686 0.292 8.81 1.3 13.91
5/2/2014 11:50:00 AM 9.39 48.902 0.292 8.83 1.7 13.95
5/2/2014 11:55:00 AM 9.48 49.064 0.292 8.83 2 13.98
5/2/2014 12:00:00 PM 9.5 49.1 0.291 8.84 2.2 13.92
5/2/2014 12:05:00 PM 9.5 49.1 0.291 8.85 1.9 13.87
5/2/2014 12:10:00 PM 9.52 49.136 0.291 8.85 2.4 13.87
5/2/2014 12:15:00 PM 9.53 49.154 0.291 8.85 1.4 13.85
5/2/2014 12:20:00 PM 9.53 49.154 0.291 8.85 2 13.81
5/2/2014 12:25:00 PM 9.55 49.19 0.291 8.84 1.4 13.78
5/2/2014 12:30:00 PM 9.64 49.352 0.291 8.85 1.4 13.83
5/2/2014 12:35:00 PM 9.76 49.568 0.291 8.86 1.6 13.88
5/2/2014 12:40:00 PM 9.81 49.658 0.291 8.87 1.1 13.92
5/2/2014 12:45:00 PM 9.84 49.712 0.291 8.87 1.9 13.88
5/2/2014 12:50:00 PM 9.93 49.874 0.291 8.88 1.6 13.89
5/2/2014 12:55:00 PM 10.02 50.036 0.291 8.89 1.4 13.94
5/2/2014 1:00:00 PM 10.06 50.108 0.291 8.9 1.2 13.98
5/2/2014 1:05:00 PM 10.08 50.144 0.291 8.9 1.3 13.97
5/2/2014 1:10:00 PM 10.11 50.198 0.291 8.9 1 13.99
5/2/2014 1:15:00 PM 10.14 50.252 0.291 8.91 1.3 13.99
5/2/2014 1:20:00 PM 10.2 50.36 0.291 8.92 1.6 14.04
5/2/2014 1:25:00 PM 10.25 50.45 0.291 8.92 1.3 14.08
5/2/2014 1:30:00 PM 10.26 50.468 0.291 8.93 1.4 14.08
5/2/2014 1:35:00 PM 10.28 50.504 0.291 8.93 1.2 14.01
5/2/2014 1:40:00 PM 10.31 50.558 0.291 8.93 1.5 13.95
5/2/2014 1:45:00 PM 10.34 50.612 0.291 8.95 1.5 13.84
5/2/2014 1:50:00 PM 10.35 50.63 0.291 8.93 1.9 13.86
5/2/2014 1:55:00 PM 10.37 50.666 0.291 8.93 1 13.81
5/2/2014 2:00:00 PM 10.37 50.666 0.291 8.93 1.3 13.77
5/2/2014 2:05:00 PM 10.38 50.684 0.291 8.94 1.4 13.75
5/2/2014 2:10:00 PM 10.44 50.792 0.291 8.93 1.1 13.77
5/2/2014 2:15:00 PM 10.48 50.864 0.29 8.94 1 13.78
5/2/2014 2:20:00 PM 10.5 50.9 0.291 8.94 2 13.82
5/2/2014 2:25:00 PM 10.51 50.918 0.291 8.95 1.3 13.8
5/2/2014 2:30:00 PM 10.55 50.99 0.291 8.96 1.2 13.81
5/2/2014 2:35:00 PM 10.58 51.044 0.291 8.96 1.1 13.85
5/2/2014 2:40:00 PM 10.6 51.08 0.291 8.95 1.1 13.83
5/2/2014 2:45:00 PM 10.61 51.098 0.291 8.95 1.1 13.83
5/2/2014 2:50:00 PM 10.6 51.08 0.291 8.94 1 13.77
5/2/2014 2:55:00 PM 10.6 51.08 0.291 8.95 1.3 13.71
5/2/2014 3:00:00 PM 10.62 51.116 0.292 8.95 1.4 13.57
5/2/2014 3:05:00 PM 10.63 51.134 0.292 8.93 1.1 13.58
5/2/2014 3:10:00 PM 10.65 51.17 0.292 8.93 1.1 13.53
5/2/2014 3:15:00 PM 10.66 51.188 0.292 8.93 1 13.49
5/2/2014 3:20:00 PM 10.67 51.206 0.292 8.93 0.9 13.46
5/2/2014 3:25:00 PM 10.67 51.206 0.293 8.92 2.3 13.41
5/2/2014 3:30:00 PM 10.67 51.206 0.293 8.91 1.1 13.37
5/2/2014 3:35:00 PM 10.66 51.188 0.293 8.92 0.9 13.32
5/2/2014 3:40:00 PM 10.64 51.152 0.293 8.9 0.9 13.27
5/2/2014 3:45:00 PM 10.63 51.134 0.293 8.9 1.2 13.2
5/2/2014 3:50:00 PM 10.61 51.098 0.293 8.89 1 13.15
5/2/2014 3:55:00 PM 10.59 51.062 0.294 8.88 1.2 13.06
5/2/2014 4:00:00 PM 10.58 51.044 0.294 8.88 1.1 13.03
5/2/2014 4:05:00 PM 10.57 51.026 0.294 8.86 1 13
5/2/2014 4:10:00 PM 10.56 51.008 0.294 8.86 1.2 12.95
5/2/2014 4:15:00 PM 10.54 50.972 0.294 8.85 1.1 12.88
5/2/2014 4:20:00 PM 10.53 50.954 0.295 8.83 1 12.92
5/2/2014 4:25:00 PM 10.52 50.936 0.295 8.83 1.3 12.91
5/2/2014 4:30:00 PM 10.52 50.936 0.295 8.82 1.2 12.9
5/2/2014 4:35:00 PM 10.51 50.918 0.295 8.81 1.1 12.89
5/2/2014 4:40:00 PM 10.49 50.882 0.296 8.81 1.4 12.88
5/2/2014 4:45:00 PM 10.47 50.846 0.296 8.8 1.3 12.83
5/2/2014 4:50:00 PM 10.46 50.828 0.296 8.79 1.3 12.8
5/2/2014 4:55:00 PM 10.43 50.774 0.296 8.78 1.3 12.77
5/2/2014 5:00:00 PM 10.41 50.738 0.296 8.76 1.8 12.7
5/2/2014 5:05:00 PM 10.38 50.684 0.297 8.75 2 12.64
5/2/2014 5:10:00 PM 10.36 50.648 0.297 8.74 1.2 12.59
5/2/2014 5:15:00 PM 10.34 50.612 0.297 8.73 1.2 12.54
5/2/2014 5:20:00 PM 10.31 50.558 0.298 8.72 1.1 12.48
5/2/2014 5:25:00 PM 10.28 50.504 0.298 8.7 1.2 12.41
5/2/2014 5:30:00 PM 10.25 50.45 0.298 8.69 1.3 12.31
5/2/2014 5:35:00 PM 10.22 50.396 0.298 8.67 1.1 12.28
5/2/2014 5:40:00 PM 10.2 50.36 0.299 8.66 1 12.23
5/2/2014 5:45:00 PM 10.17 50.306 0.299 8.65 1.6 12.2
5/2/2014 5:50:00 PM 10.14 50.252 0.299 8.64 1.4 12.14
5/2/2014 5:55:00 PM 10.11 50.198 0.299 8.61 1.3 12.09
5/2/2014 6:00:00 PM 10.08 50.144 0.299 8.6 1.8 12.05
5/2/2014 6:05:00 PM 10.05 50.09 0.3 8.58 1.3 11.97
5/2/2014 6:10:00 PM 10.04 50.072 0.3 8.55 1.1 11.93
5/2/2014 6:15:00 PM 10 50 0.3 8.54 0.9 11.89
5/2/2014 6:20:00 PM 9.97 49.946 0.3 8.51 1.5 11.83
5/2/2014 6:25:00 PM 9.94 49.892 0.301 8.48 1.4 11.77
5/2/2014 6:30:00 PM 9.91 49.838 0.301 8.45 1.3 11.72
5/2/2014 6:35:00 PM 9.89 49.802 0.301 8.43 1.2 11.68
5/2/2014 6:40:00 PM 9.86 49.748 0.301 8.41 1.4 11.62
5/2/2014 6:45:00 PM 9.83 49.694 0.302 8.39 1.2 11.57
5/2/2014 6:50:00 PM 9.8 49.64 0.302 8.35 1.3 11.52
5/2/2014 6:55:00 PM 9.77 49.586 0.302 8.32 1.3 11.47
5/2/2014 7:00:00 PM 9.74 49.532 0.302 8.29 1.2 11.42
5/2/2014 7:05:00 PM 9.71 49.478 0.302 8.26 1 11.37
5/2/2014 7:10:00 PM 9.68 49.424 0.303 8.24 1.5 11.3
5/2/2014 7:15:00 PM 9.65 49.37 0.303 8.21 1.4 11.25
5/2/2014 7:20:00 PM 9.62 49.316 0.302 8.18 1.5 11.2
5/2/2014 7:25:00 PM 9.58 49.244 0.303 8.16 1.6 11.14
5/2/2014 7:30:00 PM 9.55 49.19 0.303 8.13 1.4 11.1
5/2/2014 7:35:00 PM 9.52 49.136 0.303 8.1 1.5 11.06
5/2/2014 7:40:00 PM 9.5 49.1 0.303 8.07 1.4 11
5/2/2014 7:45:00 PM 9.47 49.046 0.304 8.03 1.3 10.97
5/2/2014 7:50:00 PM 9.44 48.992 0.304 8 1.5 10.92
5/2/2014 7:55:00 PM 9.41 48.938 0.303 7.98 1.3 10.9
5/2/2014 8:00:00 PM 9.38 48.884 0.304 7.97 1.5 10.85
5/2/2014 8:05:00 PM 9.36 48.848 0.304 7.94 1.1 10.84
5/2/2014 8:10:00 PM 9.33 48.794 0.304 7.91 1 10.81
5/2/2014 8:15:00 PM 9.3 48.74 0.304 7.89 1.5 10.78
5/2/2014 8:20:00 PM 9.28 48.704 0.304 7.88 1.5 10.76
5/2/2014 8:25:00 PM 9.26 48.668 0.304 7.85 1.8 10.75
5/2/2014 8:30:00 PM 9.23 48.614 0.304 7.84 1.2 10.72
5/2/2014 8:35:00 PM 9.2 48.56 0.304 7.83 1.4 10.72
5/2/2014 8:40:00 PM 9.19 48.542 0.304 7.82 1.1 10.73
5/2/2014 8:45:00 PM 9.17 48.506 0.304 7.8 1.4 10.71
5/2/2014 8:50:00 PM 9.14 48.452 0.305 7.78 1.3 10.71
5/2/2014 8:55:00 PM 9.11 48.398 0.305 7.78 1.2 10.72
5/2/2014 9:00:00 PM 9.1 48.38 0.305 7.77 1.2 10.7
5/2/2014 9:05:00 PM 9.07 48.326 0.305 7.76 1.4 10.71
5/2/2014 9:10:00 PM 9.04 48.272 0.305 7.75 1.3 10.7
5/2/2014 9:15:00 PM 9.02 48.236 0.305 7.76 1.3 10.69
5/2/2014 9:20:00 PM 9 48.2 0.306 7.74 1.5 10.7
5/2/2014 9:25:00 PM 8.98 48.164 0.306 7.74 1.2 10.72
5/2/2014 9:30:00 PM 8.96 48.128 0.306 7.73 1.6 10.72
5/2/2014 9:35:00 PM 8.94 48.092 0.306 7.73 1.1 10.71
5/2/2014 9:40:00 PM 8.92 48.056 0.306 7.73 1.5 10.7
5/2/2014 9:45:00 PM 8.9 48.02 0.306 7.73 1.4 10.72
5/2/2014 9:50:00 PM 8.88 47.984 0.307 7.71 1.2 10.73
5/2/2014 9:55:00 PM 8.85 47.93 0.307 7.72 1.5 10.73
5/2/2014 10:00:00 PM 8.83 47.894 0.307 7.71 1.3 10.74
5/2/2014 10:05:00 PM 8.81 47.858 0.307 7.71 1.5 10.74
5/2/2014 10:10:00 PM 8.8 47.84 0.307 7.7 1.1 10.74
5/2/2014 10:15:00 PM 8.77 47.786 0.307 7.7 1.6 10.76
5/2/2014 10:20:00 PM 8.75 47.75 0.308 7.71 1.5 10.75
5/2/2014 10:25:00 PM 8.74 47.732 0.307 7.7 1.3 10.76
5/2/2014 10:30:00 PM 8.72 47.696 0.308 7.71 1.5 10.75
5/2/2014 10:35:00 PM 8.7 47.66 0.308 7.7 1.4 10.77
5/2/2014 10:40:00 PM 8.68 47.624 0.308 7.7 1.7 10.77
5/2/2014 10:45:00 PM 8.65 47.57 0.308 7.7 1.6 10.78
5/2/2014 10:50:00 PM 8.63 47.534 0.308 7.69 1.4 10.77
5/2/2014 10:55:00 PM 8.61 47.498 0.308 7.68 1.1 10.8
5/2/2014 11:00:00 PM 8.6 47.48 0.308 7.7 1.3 10.8
5/2/2014 11:05:00 PM 8.58 47.444 0.308 7.69 1.3 10.79
5/2/2014 11:10:00 PM 8.56 47.408 0.308 7.7 1 10.79
5/2/2014 11:15:00 PM 8.55 47.39 0.309 7.69 1.4 10.8
5/2/2014 11:20:00 PM 8.53 47.354 0.309 7.69 1.3 10.79
5/2/2014 11:25:00 PM 8.52 47.336 0.31 7.69 1.3 10.81
5/2/2014 11:30:00 PM 8.49 47.282 0.31 7.68 1.2 10.81
5/2/2014 11:35:00 PM 8.47 47.246 0.31 7.67 1.2 10.82
5/2/2014 11:40:00 PM 8.45 47.21 0.31 7.68 1.7 10.83
5/2/2014 11:45:00 PM 8.44 47.192 0.31 7.69 1.1 10.82
5/2/2014 11:50:00 PM 8.41 47.138 0.311 7.68 1.2 10.84
5/2/2014 11:55:00 PM 8.4 47.12 0.311 7.68 1.2 10.83
5/3/2014 12:00:00 AM 8.39 47.102 0.311 7.68 1.4 10.85
5/3/2014 12:05:00 AM 8.36 47.048 0.311 7.69 1.7 10.84
5/3/2014 12:10:00 AM 8.35 47.03 0.311 7.68 1.3 10.86
5/3/2014 12:15:00 AM 8.34 47.012 0.312 7.68 1.2 10.85
5/3/2014 12:20:00 AM 8.32 46.976 0.312 7.68 1.1 10.86
5/3/2014 12:25:00 AM 8.3 46.94 0.312 7.69 1.2 10.88
5/3/2014 12:30:00 AM 8.29 46.922 0.312 7.68 1.4 10.86
5/3/2014 12:35:00 AM 8.27 46.886 0.312 7.68 1.5 10.88
5/3/2014 12:40:00 AM 8.25 46.85 0.312 7.69 1.6 10.87
5/3/2014 12:45:00 AM 8.24 46.832 0.313 7.68 1.8 10.88
5/3/2014 12:50:00 AM 8.22 46.796 0.313 7.68 1.6 10.88
5/3/2014 12:55:00 AM 8.2 46.76 0.313 7.68 1.3 10.88
5/3/2014 1:00:00 AM 8.19 46.742 0.313 7.69 1.3 10.82
5/3/2014 1:05:00 AM 8.18 46.724 0.313 7.67 1.4 10.89
5/3/2014 1:10:00 AM 8.16 46.688 0.313 7.67 1.3 10.91
5/3/2014 1:15:00 AM 8.15 46.67 0.314 7.68 1 10.89
5/3/2014 1:20:00 AM 8.13 46.634 0.314 7.67 0.9 10.91
5/3/2014 1:25:00 AM 8.11 46.598 0.314 7.67 1.4 10.9
5/3/2014 1:30:00 AM 8.1 46.58 0.314 7.68 1.2 10.91
5/3/2014 1:35:00 AM 8.09 46.562 0.314 7.68 1 10.92
5/3/2014 1:40:00 AM 8.07 46.526 0.315 7.68 1.1 10.92
5/3/2014 1:45:00 AM 8.06 46.508 0.315 7.68 1.6 10.92
5/3/2014 1:50:00 AM 8.04 46.472 0.315 7.68 1.2 10.93
5/3/2014 1:55:00 AM 8.03 46.454 0.315 7.67 1.7 10.93
5/3/2014 2:00:00 AM 8.02 46.436 0.315 7.67 0.9 10.93
5/3/2014 2:05:00 AM 8.01 46.418 0.315 7.68 0.8 10.93
5/3/2014 2:10:00 AM 7.99 46.382 0.315 7.68 0.9 10.95
5/3/2014 2:15:00 AM 7.98 46.364 0.316 7.69 1.5 10.87
5/3/2014 2:20:00 AM 7.97 46.346 0.316 7.68 1 10.94
5/3/2014 2:25:00 AM 7.96 46.328 0.316 7.66 1.2 10.94
5/3/2014 2:30:00 AM 7.94 46.292 0.316 7.68 1.1 10.96
5/3/2014 2:35:00 AM 7.93 46.274 0.316 7.68 1 10.94
5/3/2014 2:40:00 AM 7.92 46.256 0.316 7.67 1.2 10.95
5/3/2014 2:45:00 AM 7.91 46.238 0.316 7.67 1.2 10.97
5/3/2014 2:50:00 AM 7.9 46.22 0.317 7.67 1 10.95
5/3/2014 2:55:00 AM 7.88 46.184 0.317 7.67 2.5 10.99
5/3/2014 3:00:00 AM 7.87 46.166 0.317 7.67 1.1 10.96
5/3/2014 3:05:00 AM 7.86 46.148 0.317 7.68 1 10.98
5/3/2014 3:10:00 AM 7.85 46.13 0.317 7.68 1.3 10.97
5/3/2014 3:15:00 AM 7.84 46.112 0.317 7.68 1.3 10.98
5/3/2014 3:20:00 AM 7.82 46.076 0.317 7.68 1.3 10.99
5/3/2014 3:25:00 AM 7.82 46.076 0.317 7.68 0.8 10.98
5/3/2014 3:30:00 AM 7.8 46.04 0.317 7.69 1.2 10.92
5/3/2014 3:35:00 AM 7.79 46.022 0.317 7.67 0.8 10.98
5/3/2014 3:40:00 AM 7.78 46.004 0.317 7.68 1.2 11.01
5/3/2014 3:45:00 AM 7.77 45.986 0.317 7.69 0.9 11.02
5/3/2014 3:50:00 AM 7.77 45.986 0.317 7.68 1 11.02
5/3/2014 3:55:00 AM 7.76 45.968 0.317 7.69 1.3 11
5/3/2014 4:00:00 AM 7.75 45.95 0.318 7.69 1.1 11.01
5/3/2014 4:05:00 AM 7.74 45.932 0.318 7.68 1 11.01
5/3/2014 4:10:00 AM 7.73 45.914 0.318 7.69 1.1 11.01
5/3/2014 4:15:00 AM 7.72 45.896 0.318 7.68 1.1 11.01
5/3/2014 4:20:00 AM 7.71 45.878 0.318 7.68 1.2 11.01
5/3/2014 4:25:00 AM 7.7 45.86 0.319 7.69 1.4 11.02
5/3/2014 4:30:00 AM 7.69 45.842 0.319 7.68 1 11.02
5/3/2014 4:35:00 AM 7.68 45.824 0.319 7.69 2 11.03
5/3/2014 4:40:00 AM 7.67 45.806 0.319 7.68 1.1 11.02
5/3/2014 4:45:00 AM 7.67 45.806 0.32 7.7 0.9 10.96
5/3/2014 4:50:00 AM 7.65 45.77 0.32 7.68 1.1 11.03
5/3/2014 4:55:00 AM 7.65 45.77 0.32 7.69 1.2 11.03
5/3/2014 5:00:00 AM 7.64 45.752 0.32 7.69 0.7 11.03
5/3/2014 5:05:00 AM 7.63 45.734 0.32 7.69 1.1 11.05
5/3/2014 5:10:00 AM 7.63 45.734 0.32 7.68 0.8 11.06
5/3/2014 5:15:00 AM 7.61 45.698 0.32 7.68 0.8 11.07
5/3/2014 5:20:00 AM 7.6 45.68 0.32 7.69 0.7 11.07
5/3/2014 5:25:00 AM 7.59 45.662 0.32 7.68 0.7 11.11
5/3/2014 5:30:00 AM 7.58 45.644 0.321 7.68 0.5 11.14
5/3/2014 5:35:00 AM 7.57 45.626 0.321 7.69 0.6 11.15
5/3/2014 5:40:00 AM 7.55 45.59 0.321 7.7 0.6 11.18
5/3/2014 5:45:00 AM 7.53 45.554 0.321 7.7 0.6 11.22
5/3/2014 5:50:00 AM 7.53 45.554 0.321 7.7 0.7 11.25
5/3/2014 5:55:00 AM 7.51 45.518 0.321 7.71 0.8 11.3
5/3/2014 6:00:00 AM 7.49 45.482 0.321 7.73 0.5 11.3
5/3/2014 6:05:00 AM 7.48 45.464 0.321 7.72 0.5 11.41
5/3/2014 6:10:00 AM 7.47 45.446 0.321 7.73 0.5 11.49
5/3/2014 6:15:00 AM 7.47 45.446 0.321 7.74 0.6 11.58
5/3/2014 6:20:00 AM 7.47 45.446 0.321 7.75 0.7 11.67
5/3/2014 6:25:00 AM 7.47 45.446 0.321 7.77 0.9 11.76
5/3/2014 6:30:00 AM 7.46 45.428 0.321 7.79 0.5 11.81
5/3/2014 6:35:00 AM 7.46 45.428 0.321 7.79 0.6 11.85
5/3/2014 6:40:00 AM 7.45 45.41 0.321 7.8 0.4 11.91
5/3/2014 6:45:00 AM 7.45 45.41 0.32 7.81 0.4 11.95
5/3/2014 6:50:00 AM 7.45 45.41 0.32 7.83 0.4 12.02
5/3/2014 6:55:00 AM 7.45 45.41 0.32 7.84 0.2 12.1
5/3/2014 7:00:00 AM 7.45 45.41 0.32 7.86 0.3 12.18
5/3/2014 7:05:00 AM 7.45 45.41 0.32 7.88 0.6 12.24
5/3/2014 7:10:00 AM 7.46 45.428 0.32 7.9 0.3 12.32
5/3/2014 7:15:00 AM 7.47 45.446 0.32 7.93 0.3 12.43
5/3/2014 7:20:00 AM 7.48 45.464 0.32 7.94 0.4 12.54
5/3/2014 7:25:00 AM 7.49 45.482 0.32 7.96 0.4 12.62
5/3/2014 7:30:00 AM 7.5 45.5 0.32 7.98 0.3 12.67
5/3/2014 7:35:00 AM 7.5 45.5 0.32 8 0.3 12.73
5/3/2014 7:40:00 AM 7.52 45.536 0.32 8.01 0.4 12.78
5/3/2014 7:45:00 AM 7.53 45.554 0.32 8.04 0.4 12.88
5/3/2014 7:50:00 AM 7.54 45.572 0.32 8.07 0.2 12.99
5/3/2014 7:55:00 AM 7.56 45.608 0.32 8.09 0.4 13.08
5/3/2014 8:00:00 AM 7.58 45.644 0.32 8.11 0.4 13.19
5/3/2014 8:05:00 AM 7.6 45.68 0.32 8.15 0.2 13.28
5/3/2014 8:10:00 AM 7.63 45.734 0.32 8.17 0.2 13.4
5/3/2014 8:15:00 AM 7.66 45.788 0.32 8.2 0.3 13.54
5/3/2014 8:20:00 AM 7.69 45.842 0.32 8.23 0.2 13.66
5/3/2014 8:25:00 AM 7.72 45.896 0.319 8.27 0.6 13.78
5/3/2014 8:30:00 AM 7.77 45.986 0.319 8.32 0.4 13.8
5/3/2014 8:35:00 AM 7.81 46.058 0.319 8.34 0.2 13.98
5/3/2014 8:40:00 AM 7.87 46.166 0.318 8.37 0.1 14.1
5/3/2014 8:45:00 AM 7.9 46.22 0.318 8.39 0 14.19
5/3/2014 8:50:00 AM 7.95 46.31 0.318 8.42 0.2 14.33
5/3/2014 8:55:00 AM 7.98 46.364 0.318 8.46 0.2 14.39
5/3/2014 9:00:00 AM 8.05 46.49 0.317 8.49 0.4 14.5
5/3/2014 9:05:00 AM 8.13 46.634 0.317 8.52 0.2 14.57
5/3/2014 9:10:00 AM 8.2 46.76 0.317 8.56 0.5 14.66
5/3/2014 9:15:00 AM 8.26 46.868 0.317 8.58 0.2 14.74
5/3/2014 9:20:00 AM 8.32 46.976 0.316 8.62 0.2 14.81
5/3/2014 9:25:00 AM 8.36 47.048 0.316 8.64 0.4 14.83
5/3/2014 9:30:00 AM 8.4 47.12 0.317 8.66 0.3 14.87
5/3/2014 9:35:00 AM 8.46 47.228 0.316 8.68 0.3 14.88
5/3/2014 9:40:00 AM 8.51 47.318 0.316 8.7 0.4 14.89
5/3/2014 9:45:00 AM 8.55 47.39 0.315 8.74 0.3 14.94
5/3/2014 9:50:00 AM 8.58 47.444 0.315 8.74 0.2 14.92
5/3/2014 9:55:00 AM 8.63 47.534 0.315 8.76 0.3 14.9
5/3/2014 10:00:00 AM 8.69 47.642 0.315 8.79 0.2 14.93
5/3/2014 10:05:00 AM 8.74 47.732 0.315 8.8 0.1 14.94
5/3/2014 10:10:00 AM 8.83 47.894 0.314 8.82 0.3 14.96
5/3/2014 10:15:00 AM 8.89 48.002 0.314 8.83 0.6 14.95
5/3/2014 10:20:00 AM 8.95 48.11 0.314 8.85 0.1 14.97
5/3/2014 10:25:00 AM 9.01 48.218 0.314 8.86 0.2 14.96
5/3/2014 10:30:00 AM 9.1 48.38 0.314 8.88 0.1 14.98
5/3/2014 10:35:00 AM 9.17 48.506 0.314 8.89 0.2 15.04
5/3/2014 10:40:00 AM 9.27 48.686 0.314 8.91 0.4 15.07
5/3/2014 10:45:00 AM 9.38 48.884 0.313 8.93 0.2 15.09
5/3/2014 10:50:00 AM 9.42 48.956 0.313 8.94 0.1 15.06
5/3/2014 10:55:00 AM 9.45 49.01 0.313 8.94 0.1 15.01
5/3/2014 11:00:00 AM 9.49 49.082 0.313 8.96 0.2 14.88
5/3/2014 11:05:00 AM 9.54 49.172 0.313 8.96 0.2 15.01
5/3/2014 11:10:00 AM 9.63 49.334 0.313 8.97 0.2 15
5/3/2014 11:15:00 AM 9.67 49.406 0.313 8.98 0.4 15.03
5/3/2014 11:20:00 AM 9.74 49.532 0.312 8.99 0.2 15.05
5/3/2014 11:25:00 AM 9.83 49.694 0.312 8.99 0.2 15.05
5/3/2014 11:30:00 AM 9.89 49.802 0.312 9.01 0 15.05
5/3/2014 11:35:00 AM 10 50 0.312 9.02 0 15.11
5/3/2014 11:40:00 AM 10.08 50.144 0.312 9.03 0.2 15.12
5/3/2014 11:45:00 AM 10.15 50.27 0.312 9.04 0.2 15.12
5/3/2014 11:50:00 AM 10.21 50.378 0.311 9.05 0.1 15.11
5/3/2014 11:55:00 AM 10.28 50.504 0.311 9.05 0.1 15.1
5/3/2014 12:00:00 PM 10.32 50.576 0.311 9.06 0.2 15.12
5/3/2014 12:05:00 PM 10.36 50.648 0.311 9.07 0.2 15.13
5/3/2014 12:10:00 PM 10.39 50.702 0.311 9.06 0.3 15.09
5/3/2014 12:15:00 PM 10.44 50.792 0.311 9.09 0.3 15.04
5/3/2014 12:20:00 PM 10.46 50.828 0.311 9.08 0.3 15.04
5/3/2014 12:25:00 PM 10.48 50.864 0.311 9.08 0.1 14.99
5/3/2014 12:30:00 PM 10.48 50.864 0.311 9.08 -0.1 14.87
5/3/2014 12:35:00 PM 10.48 50.864 0.311 9.07 0.3 14.76
5/3/2014 12:40:00 PM 10.48 50.864 0.311 9.07 0.3 14.64
5/3/2014 12:45:00 PM 10.5 50.9 0.311 9.06 0.3 14.58
5/3/2014 12:50:00 PM 10.54 50.972 0.311 9.07 0.2 14.57
5/3/2014 12:55:00 PM 10.58 51.044 0.311 9.08 0.1 14.6
5/3/2014 1:00:00 PM 10.62 51.116 0.311 9.07 0.1 14.53
5/3/2014 1:05:00 PM 10.66 51.188 0.31 9.09 0.1 14.56
5/3/2014 1:10:00 PM 10.72 51.296 0.31 9.08 0.2 14.56
5/3/2014 1:15:00 PM 10.76 51.368 0.31 9.09 0.1 14.57
5/3/2014 1:20:00 PM 10.78 51.404 0.31 9.1 0.1 14.58
5/3/2014 1:25:00 PM 10.81 51.458 0.31 9.09 0.4 14.56
5/3/2014 1:30:00 PM 10.83 51.494 0.31 9.11 0.2 14.54
5/3/2014 1:35:00 PM 10.84 51.512 0.31 9.09 0 14.54
5/3/2014 1:40:00 PM 10.84 51.512 0.31 9.09 0 14.44
5/3/2014 1:45:00 PM 10.85 51.53 0.31 9.08 0.1 14.43
5/3/2014 1:50:00 PM 10.88 51.584 0.31 9.08 0.2 14.45
5/3/2014 1:55:00 PM 10.89 51.602 0.311 9.09 0.2 14.47
5/3/2014 2:00:00 PM 10.89 51.602 0.311 9.09 0.1 14.45
5/3/2014 2:05:00 PM 10.89 51.602 0.311 9.08 0.2 14.4
5/3/2014 2:10:00 PM 10.9 51.62 0.311 9.07 0 14.35
5/3/2014 2:15:00 PM 10.9 51.62 0.311 9.07 0.6 14.33
5/3/2014 2:20:00 PM 10.9 51.62 0.311 9.08 0.1 14.27
5/3/2014 2:25:00 PM 10.92 51.656 0.311 9.08 0.6 14.24
5/3/2014 2:30:00 PM 10.95 51.71 0.311 9.08 0.6 14.26
5/3/2014 2:35:00 PM 10.98 51.764 0.311 9.08 0.9 14.32
5/3/2014 2:40:00 PM 11.02 51.836 0.311 9.08 1.9 14.34
5/3/2014 2:45:00 PM 11.06 51.908 0.311 9.1 2.7 14.32
5/3/2014 2:50:00 PM 11.07 51.926 0.311 9.09 4.1 14.38
5/3/2014 2:55:00 PM 11.05 51.89 0.311 9.08 3.7 14.35
5/3/2014 3:00:00 PM 11.05 51.89 0.311 9.08 4.8 14.32
5/3/2014 3:05:00 PM 11.05 51.89 0.311 9.08 4.7 14.33
5/3/2014 3:10:00 PM 11.06 51.908 0.311 9.08 5.3 14.29
5/3/2014 3:15:00 PM 11.06 51.908 0.311 9.09 4.6 14.28
5/3/2014 3:20:00 PM 11.06 51.908 0.311 9.09 4.3 14.3
5/3/2014 3:25:00 PM 11.07 51.926 0.31 9.09 3.7 14.28
5/3/2014 3:30:00 PM 11.1 51.98 0.311 9.08 3.6 14.29
5/3/2014 3:35:00 PM 11.15 52.07 0.311 9.09 2.6 14.33
5/3/2014 3:40:00 PM 11.18 52.124 0.31 9.09 3 14.33
5/3/2014 3:45:00 PM 11.17 52.106 0.311 9.09 2.9 14.3
5/3/2014 3:50:00 PM 11.17 52.106 0.311 9.08 1.6 14.17
5/3/2014 3:55:00 PM 11.16 52.088 0.311 9.08 0.9 14.06
5/3/2014 4:00:00 PM 11.16 52.088 0.311 9.09 1 13.89
5/3/2014 4:05:00 PM 11.17 52.106 0.311 9.08 1 13.88
5/3/2014 4:10:00 PM 11.21 52.178 0.311 9.08 0.9 13.92
5/3/2014 4:15:00 PM 11.22 52.196 0.311 9.08 0.8 13.92
5/3/2014 4:20:00 PM 11.22 52.196 0.312 9.08 0.6 13.93
5/3/2014 4:25:00 PM 11.22 52.196 0.312 9.07 0.6 13.87
5/3/2014 4:30:00 PM 11.22 52.196 0.312 9.06 0.7 13.81
5/3/2014 4:35:00 PM 11.23 52.214 0.312 9.06 0.6 13.81
5/3/2014 4:40:00 PM 11.24 52.232 0.312 9.06 0.6 13.81
5/3/2014 4:45:00 PM 11.25 52.25 0.312 9.06 0.4 13.81
5/3/2014 4:50:00 PM 11.25 52.25 0.312 9.05 0.5 13.76
5/3/2014 4:55:00 PM 11.24 52.232 0.312 9.04 0.5 13.69
5/3/2014 5:00:00 PM 11.24 52.232 0.312 9.04 0.3 13.66
5/3/2014 5:05:00 PM 11.25 52.25 0.312 9.03 0.6 13.64
5/3/2014 5:10:00 PM 11.25 52.25 0.312 9.04 0.5 13.6
5/3/2014 5:15:00 PM 11.24 52.232 0.313 9.03 0.4 13.58
5/3/2014 5:20:00 PM 11.23 52.214 0.313 9.02 0.3 13.57
5/3/2014 5:25:00 PM 11.23 52.214 0.313 9.01 0.2 13.52
5/3/2014 5:30:00 PM 11.22 52.196 0.313 9.01 0.5 13.51
5/3/2014 5:35:00 PM 11.22 52.196 0.313 9.01 0.1 13.48
5/3/2014 5:40:00 PM 11.22 52.196 0.313 9.01 0.3 13.45
5/3/2014 5:45:00 PM 11.2 52.16 0.313 8.99 0.3 13.36
5/3/2014 5:50:00 PM 11.19 52.142 0.314 8.99 0 13.27
5/3/2014 5:55:00 PM 11.16 52.088 0.314 8.98 0.3 13.13
5/3/2014 6:00:00 PM 11.14 52.052 0.314 8.96 0.3 13.01
5/3/2014 6:05:00 PM 11.09 51.962 0.313 8.94 0.5 12.75
5/3/2014 6:10:00 PM 11.05 51.89 0.314 8.93 0.4 12.63
5/3/2014 6:15:00 PM 11 51.8 0.314 8.91 0.7 12.49
5/3/2014 6:20:00 PM 10.96 51.728 0.314 8.89 0.5 12.31
5/3/2014 6:25:00 PM 10.9 51.62 0.314 8.88 0.8 12.12
5/3/2014 6:30:00 PM 10.86 51.548 0.314 8.85 0.5 12
5/3/2014 6:35:00 PM 10.82 51.476 0.314 8.83 0.6 11.87
5/3/2014 6:40:00 PM 10.79 51.422 0.314 8.8 1 11.73
5/3/2014 6:45:00 PM 10.75 51.35 0.314 8.78 2 11.6
5/3/2014 6:50:00 PM 10.72 51.296 0.315 8.75 1.1 11.47
5/3/2014 6:55:00 PM 10.68 51.224 0.315 8.72 1 11.36
5/3/2014 7:00:00 PM 10.65 51.17 0.316 8.68 1 11.25
5/3/2014 7:05:00 PM 10.61 51.098 0.316 8.65 1.5 11.15
5/3/2014 7:10:00 PM 10.57 51.026 0.317 8.6 0.8 11.03
5/3/2014 7:15:00 PM 10.52 50.936 0.317 8.58 0.9 10.95
5/3/2014 7:20:00 PM 10.48 50.864 0.318 8.52 1 10.86
5/3/2014 7:25:00 PM 10.44 50.792 0.318 8.49 0.5 10.79
5/3/2014 7:30:00 PM 10.4 50.72 0.319 8.44 0.5 10.72
5/3/2014 7:35:00 PM 10.34 50.612 0.319 8.39 0.6 10.65
5/3/2014 7:40:00 PM 10.3 50.54 0.32 8.35 0.4 10.6
5/3/2014 7:45:00 PM 10.27 50.486 0.32 8.3 0.7 10.55
5/3/2014 7:50:00 PM 10.23 50.414 0.32 8.25 1 10.5
5/3/2014 7:55:00 PM 10.19 50.342 0.321 8.21 1.1 10.49
5/3/2014 8:00:00 PM 10.14 50.252 0.321 8.17 1.3 10.46
5/3/2014 8:05:00 PM 10.11 50.198 0.321 8.14 2.1 10.42
5/3/2014 8:10:00 PM 10.07 50.126 0.321 8.1 2.2 10.41
5/3/2014 8:15:00 PM 10.03 50.054 0.321 8.07 2.5 10.39
5/3/2014 8:20:00 PM 9.99 49.982 0.32 8.03 2.5 10.38
5/3/2014 8:25:00 PM 9.95 49.91 0.32 8.01 2.3 10.37
5/3/2014 8:30:00 PM 9.91 49.838 0.319 7.97 2.2 10.37
5/3/2014 8:35:00 PM 9.88 49.784 0.319 7.96 1.5 10.36
5/3/2014 8:40:00 PM 9.85 49.73 0.318 7.94 1.9 10.36
5/3/2014 8:45:00 PM 9.81 49.658 0.318 7.91 1.5 10.37
5/3/2014 8:50:00 PM 9.76 49.568 0.318 7.89 1.1 10.36
5/3/2014 8:55:00 PM 9.71 49.478 0.318 7.89 1.4 10.37
5/3/2014 9:00:00 PM 9.67 49.406 0.318 7.86 1.2 10.39
5/3/2014 9:05:00 PM 9.63 49.334 0.318 7.85 1.4 10.41
5/3/2014 9:10:00 PM 9.6 49.28 0.318 7.82 1.6 10.4
5/3/2014 9:15:00 PM 9.55 49.19 0.318 7.81 1.5 10.42
5/3/2014 9:20:00 PM 9.5 49.1 0.318 7.8 1.3 10.44
5/3/2014 9:25:00 PM 9.46 49.028 0.318 7.79 1.3 10.46
5/3/2014 9:30:00 PM 9.42 48.956 0.318 7.77 1.8 10.5
5/3/2014 9:35:00 PM 9.38 48.884 0.318 7.77 2 10.51
5/3/2014 9:40:00 PM 9.33 48.794 0.317 7.76 2.2 10.54
5/3/2014 9:45:00 PM 9.29 48.722 0.316 7.75 3 10.58
5/3/2014 9:50:00 PM 9.25 48.65 0.316 7.74 3.8 10.61
5/3/2014 9:55:00 PM 9.2 48.56 0.316 7.75 4.9 10.64
5/3/2014 10:00:00 PM 9.16 48.488 0.318 7.74 7.1 10.67
5/3/2014 10:05:00 PM 9.11 48.398 0.32 7.75 7.1 10.7
5/3/2014 10:10:00 PM 9.06 48.308 0.321 7.75 7.5 10.7
5/3/2014 10:15:00 PM 9.02 48.236 0.322 7.74 7.2 10.74
5/3/2014 10:20:00 PM 8.98 48.164 0.321 7.74 9.2 10.78
5/3/2014 10:25:00 PM 8.93 48.074 0.32 7.74 8.5 10.79
5/3/2014 10:30:00 PM 8.89 48.002 0.321 7.74 8 10.83
5/3/2014 10:35:00 PM 8.85 47.93 0.324 7.73 10.1 10.85
5/3/2014 10:40:00 PM 8.81 47.858 0.329 7.72 10.1 10.87
5/3/2014 10:45:00 PM 8.78 47.804 0.332 7.71 15 10.89
5/3/2014 10:50:00 PM 8.74 47.732 0.332 7.72 18.6 10.91
5/3/2014 10:55:00 PM 8.7 47.66 0.33 7.71 19.7 10.93
5/3/2014 11:00:00 PM 8.66 47.588 0.323 7.71 23.6 10.95
5/3/2014 11:05:00 PM 8.62 47.516 0.315 7.71 24.3 10.97
5/3/2014 11:10:00 PM 8.59 47.462 0.307 7.7 31.1 11
5/3/2014 11:15:00 PM 8.55 47.39 0.3 7.69 41.1 11.02
5/3/2014 11:20:00 PM 8.51 47.318 0.294 7.69 61.9 11.04
5/3/2014 11:25:00 PM 8.47 47.246 0.288 7.69 61.3 11.04
5/3/2014 11:30:00 PM 8.44 47.192 0.283 7.69 61.9 11.09
5/3/2014 11:35:00 PM 8.4 47.12 0.278 7.67 59 11.11
5/3/2014 11:40:00 PM 8.37 47.066 0.275 7.66 53.5 11.14
5/3/2014 11:45:00 PM 8.34 47.012 0.269 7.66 54.4 11.16
5/3/2014 11:50:00 PM 8.29 46.922 0.265 7.67 53.9 11.2
5/3/2014 11:55:00 PM 8.25 46.85 0.26 7.66 53.7 11.23
5/4/2014 12:00:00 AM 8.21 46.778 0.257 7.66 49.7 11.25
5/4/2014 12:05:00 AM 8.17 46.706 0.253 7.66 49 11.27
5/4/2014 12:10:00 AM 8.13 46.634 0.25 7.66 55.6 11.29
5/4/2014 12:15:00 AM 8.1 46.58 0.248 7.65 47.3 11.32
5/4/2014 12:20:00 AM 8.06 46.508 0.246 7.65 51.7 11.33
5/4/2014 12:25:00 AM 8.02 46.436 0.246 7.64 57.5 11.35
5/4/2014 12:30:00 AM 7.99 46.382 0.245 7.63 56 11.36
5/4/2014 12:35:00 AM 7.96 46.328 0.244 7.63 57.8 11.36
5/4/2014 12:40:00 AM 7.92 46.256 0.243 7.65 61.9 11.37
5/4/2014 12:45:00 AM 7.89 46.202 0.242 7.62 59.6 11.38
5/4/2014 12:50:00 AM 7.86 46.148 0.242 7.62 64.7 11.42
5/4/2014 12:55:00 AM 7.83 46.094 0.241 7.62 61.1 11.42
5/4/2014 1:00:00 AM 7.8 46.04 0.241 7.61 62.1 11.41
5/4/2014 1:05:00 AM 7.78 46.004 0.24 7.62 61 11.44
5/4/2014 1:10:00 AM 7.75 45.95 0.239 7.61 61.2 11.43
5/4/2014 1:15:00 AM 7.72 45.896 0.238 7.61 60.1 11.43
5/4/2014 1:20:00 AM 7.69 45.842 0.238 7.62 59.7 11.44
5/4/2014 1:25:00 AM 7.66 45.788 0.237 7.6 52.6 11.46
5/4/2014 1:30:00 AM 7.63 45.734 0.237 7.6 56 11.46
5/4/2014 1:35:00 AM 7.61 45.698 0.237 7.6 52 11.45
5/4/2014 1:40:00 AM 7.58 45.644 0.237 7.6 54.4 11.47
5/4/2014 1:45:00 AM 7.55 45.59 0.237 7.6 47.7 11.48
5/4/2014 1:50:00 AM 7.53 45.554 0.238 7.61 49.3 11.5
5/4/2014 1:55:00 AM 7.5 45.5 0.238 7.62 48.9 11.48
5/4/2014 2:00:00 AM 7.47 45.446 0.239 7.61 48.6 11.5
5/4/2014 2:05:00 AM 7.45 45.41 0.239 7.6 49.5 11.51
5/4/2014 3:15:00 AM 7.39 45.302 0.239 7.6 43.6 11.51
5/4/2014 3:20:00 AM 7.36 45.248 0.238 7.6 41.7 11.53
5/4/2014 3:25:00 AM 7.34 45.212 0.238 7.6 39.8 11.52
5/4/2014 3:30:00 AM 7.31 45.158 0.238 7.61 36.6 11.55
5/4/2014 3:35:00 AM 7.29 45.122 0.237 7.6 38.1 11.54
5/4/2014 3:40:00 AM 7.26 45.068 0.237 7.6 34.5 11.53
5/4/2014 3:45:00 AM 7.24 45.032 0.237 7.6 33.6 11.55
5/4/2014 3:50:00 AM 7.21 44.978 0.237 7.61 35.5 11.55
5/4/2014 3:55:00 AM 7.18 44.924 0.237 7.6 34.3 11.58
5/4/2014 4:00:00 AM 7.16 44.888 0.236 7.61 33.3 11.56
5/4/2014 4:05:00 AM 7.14 44.852 0.236 7.6 34.1 11.58
5/4/2014 4:10:00 AM 7.11 44.798 0.236 7.61 30 11.59
5/4/2014 4:15:00 AM 7.09 44.762 0.235 7.62 32 11.58
5/4/2014 4:20:00 AM 7.07 44.726 0.235 7.61 28 11.59
5/4/2014 4:25:00 AM 7.05 44.69 0.235 7.61 28 11.6
5/4/2014 4:30:00 AM 7.02 44.636 0.235 7.6 26.1 11.61
5/4/2014 4:35:00 AM 7 44.6 0.235 7.6 26.8 11.61
5/4/2014 4:40:00 AM 6.98 44.564 0.235 7.6 25.7 11.6
5/4/2014 4:45:00 AM 6.96 44.528 0.235 7.6 25.7 11.64
5/4/2014 4:50:00 AM 6.94 44.492 0.235 7.61 27 11.62
5/4/2014 4:55:00 AM 6.92 44.456 0.236 7.6 25.2 11.62
5/4/2014 5:00:00 AM 6.9 44.42 0.236 7.6 23.3 11.64
5/4/2014 5:05:00 AM 6.88 44.384 0.236 7.62 25.2 11.64
5/4/2014 5:10:00 AM 6.86 44.348 0.236 7.6 24.3 11.64
5/4/2014 5:15:00 AM 6.83 44.294 0.236 7.61 22.3 11.64
5/4/2014 5:20:00 AM 6.81 44.258 0.236 7.6 21.3 11.65
5/4/2014 5:25:00 AM 6.79 44.222 0.236 7.61 20.3 11.65
5/4/2014 5:30:00 AM 6.77 44.186 0.236 7.63 20.4 11.64
5/4/2014 5:35:00 AM 6.75 44.15 0.237 7.61 19.5 11.65
5/4/2014 5:40:00 AM 6.73 44.114 0.237 7.62 19.8 11.68
5/4/2014 5:45:00 AM 6.71 44.078 0.237 7.61 18.7 11.67
5/4/2014 5:50:00 AM 6.69 44.042 0.237 7.61 20.5 11.68
5/4/2014 5:55:00 AM 6.67 44.006 0.238 7.62 17.6 11.69
5/4/2014 6:00:00 AM 6.65 43.97 0.238 7.62 19 11.69
5/4/2014 6:05:00 AM 6.63 43.934 0.239 7.62 18.4 11.7
5/4/2014 6:10:00 AM 6.61 43.898 0.239 7.63 15.8 11.69
5/4/2014 6:15:00 AM 6.6 43.88 0.24 7.62 16.7 11.7
5/4/2014 6:20:00 AM 6.58 43.844 0.24 7.62 15 11.73
5/4/2014 6:25:00 AM 6.56 43.808 0.24 7.63 17 11.73
5/4/2014 6:30:00 AM 6.55 43.79 0.24 7.63 18 11.74
5/4/2014 6:35:00 AM 6.53 43.754 0.241 7.64 15.2 11.77
5/4/2014 6:40:00 AM 6.52 43.736 0.24 7.65 15.9 11.79
5/4/2014 6:45:00 AM 6.5 43.7 0.24 7.66 15 11.8
5/4/2014 6:50:00 AM 6.49 43.682 0.24 7.66 14.2 11.83
5/4/2014 6:55:00 AM 6.47 43.646 0.241 7.65 15.1 11.87
5/4/2014 7:00:00 AM 6.46 43.628 0.241 7.66 13.8 11.89
5/4/2014 7:05:00 AM 6.45 43.61 0.241 7.66 14.3 11.91
5/4/2014 7:10:00 AM 6.43 43.574 0.242 7.67 13.6 11.97
5/4/2014 7:15:00 AM 6.43 43.574 0.242 7.68 12 12.01
5/4/2014 7:20:00 AM 6.41 43.538 0.242 7.68 12.8 12.04
5/4/2014 7:25:00 AM 6.41 43.538 0.242 7.7 12.7 12.08
5/4/2014 7:30:00 AM 6.4 43.52 0.243 7.71 12.2 12.13
5/4/2014 7:35:00 AM 6.39 43.502 0.243 7.71 13.5 12.18
5/4/2014 7:40:00 AM 6.39 43.502 0.243 7.73 12.6 12.22
5/4/2014 7:45:00 AM 6.38 43.484 0.243 7.75 10.7 12.28
5/4/2014 7:50:00 AM 6.38 43.484 0.244 7.76 11 12.32
5/4/2014 7:55:00 AM 6.38 43.484 0.244 7.77 11 12.36
5/4/2014 8:00:00 AM 6.38 43.484 0.244 7.8 10.8 12.39
5/4/2014 8:05:00 AM 6.38 43.484 0.244 7.8 10.4 12.48
5/4/2014 8:10:00 AM 6.39 43.502 0.245 7.82 11 12.51
5/4/2014 8:15:00 AM 6.4 43.52 0.245 7.84 10.6 12.55
5/4/2014 8:20:00 AM 6.41 43.538 0.245 7.86 11.1 12.61
5/4/2014 8:25:00 AM 6.42 43.556 0.245 7.87 11.1 12.65
5/4/2014 8:30:00 AM 6.44 43.592 0.245 7.9 12.4 12.74
5/4/2014 8:35:00 AM 6.46 43.628 0.246 7.92 10.8 12.79
5/4/2014 8:40:00 AM 6.49 43.682 0.246 7.94 10.7 12.85
5/4/2014 8:45:00 AM 6.53 43.754 0.246 7.98 10.4 12.94
5/4/2014 8:50:00 AM 6.56 43.808 0.246 8 8.8 13
5/4/2014 8:55:00 AM 6.58 43.844 0.246 8.03 10.1 13.08
5/4/2014 9:00:00 AM 6.61 43.898 0.247 8.05 9.7 13.14
5/4/2014 9:05:00 AM 6.65 43.97 0.247 8.09 10.5 13.2
5/4/2014 9:10:00 AM 6.69 44.042 0.247 8.11 9.4 13.28
5/4/2014 9:15:00 AM 6.75 44.15 0.247 8.17 9.6 13.32
5/4/2014 9:20:00 AM 6.79 44.222 0.247 8.18 9.5 13.41
5/4/2014 9:25:00 AM 6.83 44.294 0.247 8.21 8.2 13.47
5/4/2014 9:30:00 AM 6.86 44.348 0.247 8.25 8.7 13.49
5/4/2014 9:35:00 AM 6.9 44.42 0.248 8.27 7.9 13.56
5/4/2014 9:40:00 AM 6.93 44.474 0.248 8.3 8 13.61
5/4/2014 9:45:00 AM 6.96 44.528 0.248 8.33 7.6 13.63
5/4/2014 9:50:00 AM 7 44.6 0.248 8.35 11.4 13.67
5/4/2014 9:55:00 AM 7.05 44.69 0.248 8.38 7.1 13.7
5/4/2014 10:00:00 AM 7.08 44.744 0.248 8.4 7.8 13.72
5/4/2014 10:05:00 AM 7.12 44.816 0.248 8.41 7.2 13.75
5/4/2014 10:10:00 AM 7.17 44.906 0.249 8.44 7.4 13.79
5/4/2014 10:15:00 AM 7.21 44.978 0.249 8.45 6.9 13.81
5/4/2014 10:20:00 AM 7.26 45.068 0.249 8.47 7 13.84
5/4/2014 10:25:00 AM 7.32 45.176 0.249 8.5 6.3 13.87
5/4/2014 10:30:00 AM 7.35 45.23 0.249 8.52 6.4 13.87
5/4/2014 10:35:00 AM 7.39 45.302 0.249 8.52 6.7 13.89
5/4/2014 10:40:00 AM 7.42 45.356 0.249 8.53 6.8 13.9
5/4/2014 10:45:00 AM 7.47 45.446 0.25 8.54 8.3 13.9
5/4/2014 10:50:00 AM 7.57 45.626 0.25 8.56 7.1 13.95
5/4/2014 10:55:00 AM 7.66 45.788 0.25 8.59 6.6 13.95
5/4/2014 11:00:00 AM 7.76 45.968 0.25 8.61 6.6 13.98
5/4/2014 11:05:00 AM 7.83 46.094 0.25 8.63 6 14
5/4/2014 11:10:00 AM 7.91 46.238 0.25 8.65 6.6 14.02
5/4/2014 11:15:00 AM 7.97 46.346 0.25 8.67 5.9 14.02
5/4/2014 11:20:00 AM 8.03 46.454 0.25 8.67 5.6 13.99
5/4/2014 11:25:00 AM 8.08 46.544 0.25 8.68 7.2 14.02
5/4/2014 11:30:00 AM 8.17 46.706 0.25 8.7 6 14.01
5/4/2014 11:35:00 AM 8.26 46.868 0.25 8.71 6.2 14.01
5/4/2014 11:40:00 AM 8.38 47.084 0.25 8.72 5.4 14.02
5/4/2014 11:45:00 AM 8.48 47.264 0.251 8.75 6.1 13.99
5/4/2014 11:50:00 AM 8.61 47.498 0.251 8.76 6.4 14.05
5/4/2014 11:55:00 AM 8.75 47.75 0.251 8.78 5.4 14.07
5/4/2014 12:00:00 PM 8.87 47.966 0.251 8.79 6.4 14.08
5/4/2014 12:05:00 PM 8.95 48.11 0.251 8.79 5.1 14.08
5/4/2014 12:10:00 PM 9.07 48.326 0.251 8.81 5.7 14.07
5/4/2014 12:15:00 PM 9.2 48.56 0.252 8.81 5.1 14.09
5/4/2014 12:20:00 PM 9.28 48.704 0.252 8.83 6.3 14.06
5/4/2014 12:25:00 PM 9.34 48.812 0.252 8.85 5.4 14.01
5/4/2014 12:30:00 PM 9.47 49.046 0.252 8.85 5.2 14.01
5/4/2014 12:35:00 PM 9.62 49.316 0.252 8.87 5.5 14.04
5/4/2014 12:40:00 PM 9.68 49.424 0.253 8.87 5.1 14.02
5/4/2014 12:45:00 PM 9.76 49.568 0.253 8.88 5.8 13.98
5/4/2014 12:50:00 PM 9.83 49.694 0.253 8.88 5.4 13.96
5/4/2014 12:55:00 PM 9.89 49.802 0.253 8.9 5.2 13.98
5/4/2014 1:00:00 PM 10.01 50.018 0.253 8.91 5 13.93
5/4/2014 1:05:00 PM 10.12 50.216 0.254 8.9 5.5 13.96
5/4/2014 1:10:00 PM 10.26 50.468 0.254 8.92 4.8 13.97
5/4/2014 1:15:00 PM 10.36 50.648 0.254 8.93 5.4 13.96
5/4/2014 1:20:00 PM 10.43 50.774 0.254 8.94 5.5 13.97
5/4/2014 1:25:00 PM 10.48 50.864 0.254 8.95 4.9 13.92
5/4/2014 1:30:00 PM 10.56 51.008 0.254 8.94 4.2 13.89
5/4/2014 1:35:00 PM 10.68 51.224 0.254 8.95 4.5 13.91
5/4/2014 1:40:00 PM 10.82 51.476 0.255 8.97 4.5 13.92
5/4/2014 1:45:00 PM 10.95 51.71 0.255 8.98 4 13.95
5/4/2014 1:50:00 PM 11.02 51.836 0.255 8.98 4.4 13.94
5/4/2014 1:55:00 PM 11.04 51.872 0.255 8.97 4.1 13.89
5/4/2014 2:00:00 PM 11.13 52.034 0.255 8.98 3.9 13.87
5/4/2014 2:05:00 PM 11.17 52.106 0.255 8.99 3.5 13.83
5/4/2014 2:10:00 PM 11.2 52.16 0.255 8.98 4.2 13.82
5/4/2014 2:15:00 PM 11.28 52.304 0.256 8.99 3.9 13.77
5/4/2014 2:20:00 PM 11.4 52.52 0.256 8.99 3.2 13.8
5/4/2014 2:25:00 PM 11.39 52.502 0.256 8.98 4.1 13.76
5/4/2014 2:30:00 PM 11.4 52.52 0.256 8.99 3.6 13.73
5/4/2014 2:35:00 PM 11.42 52.556 0.256 8.99 4.4 13.71
5/4/2014 2:40:00 PM 11.4 52.52 0.256 8.99 3.7 13.67
5/4/2014 2:45:00 PM 11.42 52.556 0.257 8.98 3.9 13.62
5/4/2014 2:50:00 PM 11.4 52.52 0.257 8.98 3.8 13.59
5/4/2014 2:55:00 PM 11.4 52.52 0.257 8.98 3.8 13.58
5/4/2014 3:00:00 PM 11.39 52.502 0.257 8.98 4.1 13.56
5/4/2014 3:05:00 PM 11.39 52.502 0.258 8.98 3.9 13.53
5/4/2014 3:10:00 PM 11.38 52.484 0.258 8.97 3.5 13.51
5/4/2014 3:15:00 PM 11.38 52.484 0.258 8.97 3.4 13.47
5/4/2014 3:20:00 PM 11.43 52.574 0.258 8.97 3.9 13.44
5/4/2014 3:25:00 PM 11.47 52.646 0.258 8.98 3.6 13.41
5/4/2014 3:30:00 PM 11.52 52.736 0.258 9 3.6 13.34
5/4/2014 3:35:00 PM 11.56 52.808 0.259 8.98 4 13.35
5/4/2014 3:40:00 PM 11.63 52.934 0.259 8.99 3.5 13.32
5/4/2014 3:45:00 PM 11.65 52.97 0.259 8.98 3.1 13.28
5/4/2014 3:50:00 PM 11.65 52.97 0.26 8.97 3.1 13.23
5/4/2014 3:55:00 PM 11.66 52.988 0.26 8.97 3.4 13.18
5/4/2014 4:00:00 PM 11.65 52.97 0.26 8.96 3 13.16
5/4/2014 4:05:00 PM 11.7 53.06 0.261 8.97 3.8 13.16
5/4/2014 4:10:00 PM 11.69 53.042 0.261 8.96 2.7 13.15
5/4/2014 4:15:00 PM 11.72 53.096 0.261 8.95 3.3 13.18
5/4/2014 4:20:00 PM 11.76 53.168 0.262 8.97 3 13.22
5/4/2014 4:25:00 PM 11.74 53.132 0.262 8.96 3 13.25
5/4/2014 4:30:00 PM 11.71 53.078 0.262 8.96 3.1 13.27
5/4/2014 4:35:00 PM 11.72 53.096 0.262 8.97 3.3 13.32
5/4/2014 4:40:00 PM 11.7 53.06 0.263 8.97 2.5 13.36
5/4/2014 4:45:00 PM 11.69 53.042 0.263 8.96 3.1 13.32
5/4/2014 4:50:00 PM 11.66 52.988 0.263 8.95 2.9 13.34
5/4/2014 4:55:00 PM 11.62 52.916 0.263 8.94 2.7 13.32
5/4/2014 5:00:00 PM 11.61 52.898 0.263 8.94 2.7 13.3
5/4/2014 5:05:00 PM 11.59 52.862 0.264 8.94 3.2 13.26
5/4/2014 5:10:00 PM 11.56 52.808 0.264 8.94 2.6 13.24
5/4/2014 5:15:00 PM 11.55 52.79 0.264 8.93 2.5 13.19
5/4/2014 5:20:00 PM 11.56 52.808 0.265 8.93 2.5 13.17
5/4/2014 5:25:00 PM 11.58 52.844 0.265 8.93 2.6 13.16
5/4/2014 5:30:00 PM 11.58 52.844 0.265 8.93 2.7 13.16
5/4/2014 5:35:00 PM 11.58 52.844 0.265 8.92 2.4 13.12
5/4/2014 5:40:00 PM 11.55 52.79 0.266 8.91 2.8 13.1
5/4/2014 5:45:00 PM 11.55 52.79 0.266 8.92 2.2 13.08
5/4/2014 5:50:00 PM 11.53 52.754 0.266 8.91 2.6 13.06
5/4/2014 5:55:00 PM 11.51 52.718 0.266 8.9 2.4 13.03
5/4/2014 6:00:00 PM 11.51 52.718 0.267 8.91 2.6 13.03
5/4/2014 6:05:00 PM 11.52 52.736 0.267 8.91 2.5 13.04
5/4/2014 6:10:00 PM 11.5 52.7 0.267 8.9 2.3 13
5/4/2014 6:15:00 PM 11.47 52.646 0.268 8.9 2.6 12.96
5/4/2014 6:20:00 PM 11.44 52.592 0.268 8.89 2.1 12.89
5/4/2014 6:25:00 PM 11.41 52.538 0.268 8.86 2.3 12.83
5/4/2014 6:30:00 PM 11.39 52.502 0.269 8.86 2.3 12.76
5/4/2014 6:35:00 PM 11.38 52.484 0.269 8.85 2.2 12.73
5/4/2014 6:40:00 PM 11.34 52.412 0.269 8.84 2 12.68
5/4/2014 6:45:00 PM 11.3 52.34 0.27 8.83 2.7 12.64
5/4/2014 6:50:00 PM 11.26 52.268 0.27 8.81 2.6 12.58
5/4/2014 6:55:00 PM 11.2 52.16 0.27 8.8 3 12.53
5/4/2014 7:00:00 PM 11.14 52.052 0.271 8.79 2.2 12.48
5/4/2014 7:05:00 PM 11.09 51.962 0.271 8.78 2.7 12.4
5/4/2014 7:10:00 PM 11.03 51.854 0.272 8.76 2.2 12.34
5/4/2014 7:15:00 PM 10.96 51.728 0.272 8.75 2.3 12.23
5/4/2014 7:20:00 PM 10.88 51.584 0.272 8.72 2.2 12.19
5/4/2014 7:25:00 PM 10.81 51.458 0.273 8.69 1.7 12.12
5/4/2014 7:30:00 PM 10.74 51.332 0.274 8.67 2.1 12.04
5/4/2014 7:35:00 PM 10.67 51.206 0.274 8.64 4.6 11.95
5/4/2014 7:40:00 PM 10.6 51.08 0.274 8.61 2 11.88
5/4/2014 7:45:00 PM 10.53 50.954 0.275 8.58 1.9 11.8
5/4/2014 7:50:00 PM 10.46 50.828 0.275 8.55 2.7 11.73
5/4/2014 7:55:00 PM 10.4 50.72 0.276 8.51 2.2 11.64
5/4/2014 8:00:00 PM 10.32 50.576 0.276 8.48 2.7 11.58
5/4/2014 8:05:00 PM 10.25 50.45 0.276 8.44 3.9 11.5
5/4/2014 8:10:00 PM 10.19 50.342 0.277 8.39 2.5 11.42
5/4/2014 8:15:00 PM 10.12 50.216 0.277 8.37 2.7 11.36
5/4/2014 8:20:00 PM 10.08 50.144 0.277 8.34 2.5 11.29
5/4/2014 8:25:00 PM 10.01 50.018 0.278 8.3 1.9 11.22
5/4/2014 8:30:00 PM 9.94 49.892 0.278 8.27 2.6 11.15
5/4/2014 8:35:00 PM 9.88 49.784 0.279 8.22 2.5 11.12
5/4/2014 8:40:00 PM 9.82 49.676 0.28 8.19 2.6 11.06
5/4/2014 8:45:00 PM 9.77 49.586 0.28 8.14 2.1 11.01
5/4/2014 8:50:00 PM 9.71 49.478 0.28 8.12 2.3 10.97
5/4/2014 8:55:00 PM 9.66 49.388 0.281 8.08 4.7 10.91
5/4/2014 9:00:00 PM 9.61 49.298 0.281 8.05 2.9 10.9
5/4/2014 9:05:00 PM 9.54 49.172 0.282 8 2.6 10.86
5/4/2014 9:10:00 PM 9.49 49.082 0.282 7.98 5.2 10.82
5/4/2014 9:15:00 PM 9.44 48.992 0.283 7.94 2.7 10.8
5/4/2014 9:20:00 PM 9.38 48.884 0.283 7.91 2.6 10.79
5/4/2014 9:25:00 PM 9.33 48.794 0.284 7.89 2.8 10.77
5/4/2014 9:30:00 PM 9.27 48.686 0.284 7.86 2.5 10.75
5/4/2014 9:35:00 PM 9.23 48.614 0.284 7.84 3.2 10.75
5/4/2014 9:40:00 PM 9.18 48.524 0.285 7.82 2.5 10.74
5/4/2014 9:45:00 PM 9.12 48.416 0.285 7.82 3.1 10.74
5/4/2014 9:50:00 PM 9.09 48.362 0.285 7.8 2.1 10.75
5/4/2014 9:55:00 PM 9.03 48.254 0.286 7.78 2.9 10.75
5/4/2014 10:00:00 PM 9.01 48.218 0.286 7.78 2.3 10.74
5/4/2014 10:05:00 PM 8.95 48.11 0.286 7.75 2.4 10.76
5/4/2014 10:10:00 PM 8.91 48.038 0.287 7.74 2.5 10.75
5/4/2014 10:15:00 PM 8.85 47.93 0.287 7.74 2.5 10.78
5/4/2014 10:20:00 PM 8.81 47.858 0.287 7.72 2.4 10.77
5/4/2014 10:25:00 PM 8.76 47.768 0.287 7.71 1.7 10.78
5/4/2014 10:30:00 PM 8.72 47.696 0.288 7.71 2.6 10.79
5/4/2014 10:35:00 PM 8.69 47.642 0.288 7.71 2.4 10.8
5/4/2014 10:40:00 PM 8.64 47.552 0.288 7.7 3.7 10.81
5/4/2014 10:45:00 PM 8.62 47.516 0.288 7.69 2.3 10.82
5/4/2014 10:50:00 PM 8.57 47.426 0.289 7.7 2.4 10.84
5/4/2014 10:55:00 PM 8.53 47.354 0.289 7.69 2.1 10.86
5/4/2014 11:00:00 PM 8.5 47.3 0.289 7.7 3.1 10.83
5/4/2014 11:05:00 PM 8.46 47.228 0.289 7.69 2.3 10.86
5/4/2014 11:10:00 PM 8.43 47.174 0.289 7.68 2.1 10.88
5/4/2014 11:15:00 PM 8.4 47.12 0.289 7.69 2.2 10.9
5/4/2014 11:20:00 PM 8.36 47.048 0.29 7.68 2.1 10.9
5/4/2014 11:25:00 PM 8.32 46.976 0.29 7.67 2 10.92
5/4/2014 11:30:00 PM 8.29 46.922 0.29 7.68 2.1 10.92
5/4/2014 11:35:00 PM 8.25 46.85 0.29 7.68 2.1 10.94
5/4/2014 11:40:00 PM 8.22 46.796 0.29 7.67 2.1 10.95
5/4/2014 11:45:00 PM 8.19 46.742 0.291 7.67 2.2 10.95
5/4/2014 11:50:00 PM 8.15 46.67 0.291 7.67 2.3 10.97
5/4/2014 11:55:00 PM 8.12 46.616 0.291 7.67 2.4 10.97
5/5/2014 12:00:00 AM 8.08 46.544 0.292 7.67 1.8 10.97
5/5/2014 12:05:00 AM 8.05 46.49 0.292 7.67 2.1 10.98
5/5/2014 12:10:00 AM 8.02 46.436 0.293 7.66 1.9 11.01
5/5/2014 12:15:00 AM 7.98 46.364 0.293 7.68 2.2 10.97
5/5/2014 12:20:00 AM 7.95 46.31 0.293 7.66 2.5 11.01
5/5/2014 12:25:00 AM 7.93 46.274 0.293 7.67 2 11.03
5/5/2014 12:30:00 AM 7.89 46.202 0.294 7.67 2.1 11.03
5/5/2014 12:35:00 AM 7.87 46.166 0.294 7.67 2 11.06
5/5/2014 12:40:00 AM 7.84 46.112 0.294 7.66 2.2 11.06
5/5/2014 12:45:00 AM 7.81 46.058 0.294 7.66 1.7 11.08
5/5/2014 12:50:00 AM 7.78 46.004 0.295 7.66 2.1 11.08
5/5/2014 12:55:00 AM 7.75 45.95 0.295 7.66 2.1 11.09
5/5/2014 1:00:00 AM 7.72 45.896 0.295 7.67 1.7 11.09
5/5/2014 1:05:00 AM 7.69 45.842 0.295 7.66 1.9 11.1
5/5/2014 1:10:00 AM 7.66 45.788 0.296 7.66 1.8 11.09
5/5/2014 1:15:00 AM 7.63 45.734 0.296 7.66 1.9 11.12
5/5/2014 1:20:00 AM 7.6 45.68 0.296 7.66 1.8 11.13
5/5/2014 1:25:00 AM 7.57 45.626 0.296 7.65 2.3 11.13
5/5/2014 1:30:00 AM 7.53 45.554 0.296 7.67 1.6 11.11
5/5/2014 1:35:00 AM 7.51 45.518 0.296 7.66 5 11.17
5/5/2014 1:40:00 AM 7.48 45.464 0.297 7.66 1.6 11.17
5/5/2014 1:45:00 AM 7.45 45.41 0.297 7.67 2.2 11.17
5/5/2014 1:50:00 AM 7.42 45.356 0.297 7.67 2.3 11.18
5/5/2014 1:55:00 AM 7.4 45.32 0.297 7.67 1.7 11.19
5/5/2014 2:00:00 AM 7.37 45.266 0.297 7.66 1.8 11.19
5/5/2014 2:05:00 AM 7.34 45.212 0.297 7.67 2.2 11.21
5/5/2014 2:10:00 AM 7.31 45.158 0.298 7.67 1.8 11.22
5/5/2014 2:15:00 AM 7.29 45.122 0.298 7.66 1.9 11.23
5/5/2014 2:20:00 AM 7.26 45.068 0.298 7.67 1.8 11.23
5/5/2014 2:25:00 AM 7.24 45.032 0.298 7.67 1.6 11.24
5/5/2014 2:30:00 AM 7.22 44.996 0.298 7.67 1.9 11.25
5/5/2014 2:35:00 AM 7.19 44.942 0.299 7.66 2.1 11.25
5/5/2014 2:40:00 AM 7.17 44.906 0.299 7.67 1.7 11.26
5/5/2014 2:45:00 AM 7.14 44.852 0.299 7.68 1.5 11.22
5/5/2014 2:50:00 AM 7.12 44.816 0.299 7.66 1.8 11.27
5/5/2014 2:55:00 AM 7.09 44.762 0.299 7.66 1.7 11.29
5/5/2014 3:00:00 AM 7.07 44.726 0.299 7.66 1.6 11.3
5/5/2014 3:05:00 AM 7.04 44.672 0.299 7.67 1.7 11.31
5/5/2014 3:10:00 AM 7.01 44.618 0.299 7.66 3.8 11.32
5/5/2014 3:15:00 AM 6.99 44.582 0.299 7.66 1.7 11.34
5/5/2014 3:20:00 AM 6.96 44.528 0.3 7.67 2 11.34
5/5/2014 3:25:00 AM 6.93 44.474 0.3 7.67 1.6 11.34
5/5/2014 3:30:00 AM 6.91 44.438 0.3 7.66 1.8 11.33
5/5/2014 3:35:00 AM 6.88 44.384 0.3 7.66 2 11.34
5/5/2014 3:40:00 AM 6.85 44.33 0.3 7.66 1.9 11.37
5/5/2014 3:45:00 AM 6.83 44.294 0.3 7.66 1.6 11.37
5/5/2014 3:50:00 AM 6.8 44.24 0.3 7.67 1.5 11.39
5/5/2014 3:55:00 AM 6.77 44.186 0.301 7.67 1.8 11.38
5/5/2014 4:00:00 AM 6.73 44.114 0.301 7.68 1.5 11.33
5/5/2014 4:05:00 AM 6.71 44.078 0.301 7.66 1.5 11.41
5/5/2014 4:10:00 AM 6.68 44.024 0.301 7.66 1.8 11.41
5/5/2014 4:15:00 AM 6.65 43.97 0.301 7.67 1.6 11.42
5/5/2014 4:20:00 AM 6.63 43.934 0.301 7.67 1.3 11.42
5/5/2014 4:25:00 AM 6.6 43.88 0.301 7.67 1.5 11.44
5/5/2014 4:30:00 AM 6.57 43.826 0.301 7.67 1.4 11.45
5/5/2014 4:35:00 AM 6.55 43.79 0.301 7.67 1.9 11.45
5/5/2014 4:40:00 AM 6.52 43.736 0.301 7.66 1.5 11.45
5/5/2014 4:45:00 AM 6.49 43.682 0.302 7.66 2.2 11.46
5/5/2014 4:50:00 AM 6.46 43.628 0.302 7.66 1.4 11.46
5/5/2014 4:55:00 AM 6.43 43.574 0.302 7.67 1.5 11.47
5/5/2014 5:00:00 AM 6.42 43.556 0.302 7.67 1.3 11.49
5/5/2014 5:05:00 AM 6.38 43.484 0.303 7.67 2 11.51
5/5/2014 5:10:00 AM 6.35 43.43 0.303 7.67 1.6 11.5
5/5/2014 5:15:00 AM 6.32 43.376 0.303 7.68 1.3 11.46
5/5/2014 5:20:00 AM 6.29 43.322 0.303 7.66 1.3 11.53
5/5/2014 5:25:00 AM 6.27 43.286 0.304 7.66 1.5 11.54
5/5/2014 5:30:00 AM 6.24 43.232 0.304 7.65 1.3 11.56
5/5/2014 5:35:00 AM 6.22 43.196 0.304 7.66 1.3 11.56
5/5/2014 5:40:00 AM 6.19 43.142 0.304 7.66 1.4 11.56
5/5/2014 5:45:00 AM 6.16 43.088 0.304 7.67 1.4 11.57
5/5/2014 5:50:00 AM 6.14 43.052 0.305 7.67 1.2 11.58
5/5/2014 5:55:00 AM 6.11 42.998 0.305 7.66 2.4 11.59
5/5/2014 6:00:00 AM 6.08 42.944 0.305 7.66 1.7 11.61
5/5/2014 6:05:00 AM 6.05 42.89 0.305 7.66 1.5 11.64
5/5/2014 6:10:00 AM 6.02 42.836 0.305 7.66 1.4 11.64
5/5/2014 6:15:00 AM 5.99 42.782 0.305 7.66 1.2 11.66
5/5/2014 6:20:00 AM 5.97 42.746 0.306 7.67 1.4 11.7
5/5/2014 6:25:00 AM 5.94 42.692 0.306 7.66 1.1 11.72
5/5/2014 6:30:00 AM 5.92 42.656 0.306 7.69 1.1 11.71
5/5/2014 6:35:00 AM 5.89 42.602 0.306 7.68 1.5 11.79
5/5/2014 6:40:00 AM 5.87 42.566 0.306 7.68 1 11.84
5/5/2014 6:45:00 AM 5.84 42.512 0.306 7.69 1.2 11.88
5/5/2014 6:50:00 AM 5.83 42.494 0.306 7.69 0.9 11.92
5/5/2014 6:55:00 AM 5.8 42.44 0.306 7.7 1.1 11.98
5/5/2014 7:00:00 AM 5.79 42.422 0.307 7.71 1.4 12.03
5/5/2014 7:05:00 AM 5.76 42.368 0.307 7.72 0.9 12.1
5/5/2014 7:10:00 AM 5.74 42.332 0.307 7.72 1.1 12.15
5/5/2014 7:15:00 AM 5.74 42.332 0.306 7.74 1.5 12.22
5/5/2014 7:20:00 AM 5.72 42.296 0.307 7.74 1.2 12.28
5/5/2014 7:25:00 AM 5.7 42.26 0.306 7.75 1.1 12.35
5/5/2014 7:30:00 AM 5.69 42.242 0.307 7.77 1.3 12.42
5/5/2014 7:35:00 AM 5.67 42.206 0.306 7.79 1 12.49
5/5/2014 7:40:00 AM 5.66 42.188 0.307 7.79 1 12.57
5/5/2014 7:45:00 AM 5.65 42.17 0.307 7.83 1 12.55
5/5/2014 7:50:00 AM 5.64 42.152 0.307 7.82 1 12.71
5/5/2014 7:55:00 AM 5.63 42.134 0.307 7.84 0.7 12.81
5/5/2014 8:00:00 AM 5.63 42.134 0.307 7.85 1.1 12.89
5/5/2014 8:05:00 AM 5.64 42.152 0.307 7.88 1 12.99
5/5/2014 8:10:00 AM 5.64 42.152 0.307 7.91 1 13.09
5/5/2014 8:15:00 AM 5.65 42.17 0.307 7.92 1 13.19
5/5/2014 8:20:00 AM 5.67 42.206 0.307 7.95 0.9 13.3
5/5/2014 8:25:00 AM 5.69 42.242 0.307 7.98 0.8 13.41
5/5/2014 8:30:00 AM 5.71 42.278 0.307 8 0.9 13.5
5/5/2014 8:35:00 AM 5.72 42.296 0.307 8.04 0.9 13.6
5/5/2014 8:40:00 AM 5.74 42.332 0.307 8.07 0.7 13.68
5/5/2014 8:45:00 AM 5.77 42.386 0.307 8.1 0.8 13.76
5/5/2014 8:50:00 AM 5.81 42.458 0.307 8.11 0.7 13.84
5/5/2014 8:55:00 AM 5.85 42.53 0.307 8.15 0.6 13.94
5/5/2014 9:00:00 AM 5.88 42.584 0.307 8.19 0.8 13.95
5/5/2014 9:05:00 AM 5.93 42.674 0.307 8.2 0.7 14.08
5/5/2014 9:10:00 AM 5.97 42.746 0.307 8.23 0.7 14.15
5/5/2014 9:15:00 AM 6.03 42.854 0.306 8.27 0.6 14.21
5/5/2014 9:20:00 AM 6.06 42.908 0.306 8.29 0.8 14.26
5/5/2014 9:25:00 AM 6.1 42.98 0.306 8.31 0.9 14.3
5/5/2014 9:30:00 AM 6.15 43.07 0.306 8.35 0.6 14.35
5/5/2014 9:35:00 AM 6.22 43.196 0.306 8.37 1 14.38
5/5/2014 9:40:00 AM 6.25 43.25 0.306 8.4 0.6 14.42
5/5/2014 9:45:00 AM 6.32 43.376 0.306 8.41 0.6 14.44
5/5/2014 9:50:00 AM 6.38 43.484 0.306 8.44 0.8 14.52
5/5/2014 9:55:00 AM 6.45 43.61 0.306 8.46 0.8 14.54
5/5/2014 10:00:00 AM 6.53 43.754 0.306 8.47 0.5 14.57
5/5/2014 10:05:00 AM 6.61 43.898 0.305 8.5 0.7 14.6
5/5/2014 10:10:00 AM 6.68 44.024 0.306 8.51 0.3 14.66
5/5/2014 10:15:00 AM 6.74 44.132 0.305 8.56 0.5 14.62
5/5/2014 10:20:00 AM 6.83 44.294 0.305 8.56 0.7 14.75
5/5/2014 10:25:00 AM 6.9 44.42 0.305 8.58 0.6 14.79
5/5/2014 10:30:00 AM 6.99 44.582 0.305 8.59 0.7 14.8
5/5/2014 10:35:00 AM 7.08 44.744 0.305 8.61 0.5 14.85
5/5/2014 10:40:00 AM 7.17 44.906 0.305 8.62 0.5 14.88
5/5/2014 10:45:00 AM 7.29 45.122 0.304 8.64 0.6 14.89
5/5/2014 10:50:00 AM 7.39 45.302 0.304 8.67 0.7 14.92
5/5/2014 10:55:00 AM 7.53 45.554 0.304 8.69 0.4 14.96
5/5/2014 11:00:00 AM 7.64 45.752 0.304 8.71 0.6 15
5/5/2014 11:05:00 AM 7.81 46.058 0.304 8.74 0.7 14.99
5/5/2014 11:10:00 AM 7.92 46.256 0.303 8.75 0.5 15.02
5/5/2014 11:15:00 AM 8.07 46.526 0.303 8.78 0.4 15.02
5/5/2014 11:20:00 AM 8.19 46.742 0.303 8.8 0.6 15.03
5/5/2014 11:25:00 AM 8.31 46.958 0.303 8.8 0.3 15.03
5/5/2014 11:30:00 AM 8.48 47.264 0.303 8.84 0.5 14.94
5/5/2014 11:35:00 AM 8.58 47.444 0.303 8.84 0.6 15.02
5/5/2014 11:40:00 AM 8.71 47.678 0.302 8.85 0.4 15.04
5/5/2014 11:45:00 AM 8.87 47.966 0.302 8.86 0.5 15.04
5/5/2014 11:50:00 AM 8.95 48.11 0.302 8.88 0.4 15.04
5/5/2014 11:55:00 AM 9.1 48.38 0.302 8.89 0.4 15.03
5/5/2014 12:00:00 PM 9.22 48.596 0.302 8.9 0.4 15.03
5/5/2014 12:05:00 PM 9.38 48.884 0.301 8.92 0.6 15.01
5/5/2014 12:10:00 PM 9.51 49.118 0.301 8.93 0.6 15.02
5/5/2014 12:15:00 PM 9.65 49.37 0.302 8.94 0.5 15.02
5/5/2014 12:20:00 PM 9.8 49.64 0.301 8.95 0.6 15.01
5/5/2014 12:25:00 PM 9.95 49.91 0.301 8.96 0.7 15.01
5/5/2014 12:30:00 PM 10.13 50.234 0.301 8.97 0.5 15
5/5/2014 12:35:00 PM 10.24 50.432 0.301 8.98 0.4 15.02
5/5/2014 12:40:00 PM 10.42 50.756 0.301 8.99 0.5 15.01
5/5/2014 12:45:00 PM 10.53 50.954 0.301 9.02 0.4 14.98
5/5/2014 12:50:00 PM 10.64 51.152 0.3 9.01 0.6 15
5/5/2014 12:55:00 PM 10.76 51.368 0.3 9.02 0.6 15.01
5/5/2014 1:00:00 PM 10.87 51.566 0.3 9.04 0.3 15
5/5/2014 1:05:00 PM 10.97 51.746 0.3 9.05 0.3 14.97
5/5/2014 1:10:00 PM 11.08 51.944 0.3 9.05 0.3 14.99
5/5/2014 1:15:00 PM 11.19 52.142 0.3 9.05 0.4 15
5/5/2014 1:20:00 PM 11.3 52.34 0.299 9.07 0.2 14.98
5/5/2014 1:25:00 PM 11.4 52.52 0.299 9.07 0.2 15
5/5/2014 1:30:00 PM 11.48 52.664 0.299 9.08 0.2 14.98
5/5/2014 1:35:00 PM 11.58 52.844 0.299 9.09 0.3 14.98
5/5/2014 1:40:00 PM 11.71 53.078 0.299 9.09 0.4 14.95
5/5/2014 1:45:00 PM 11.81 53.258 0.299 9.11 0.3 14.97
5/5/2014 1:50:00 PM 11.92 53.456 0.299 9.11 0.3 14.99
5/5/2014 1:55:00 PM 12.03 53.654 0.299 9.12 0.3 14.99
5/5/2014 2:00:00 PM 12.16 53.888 0.299 9.15 0.4 14.95
5/5/2014 2:05:00 PM 12.23 54.014 0.299 9.15 0.4 14.96
5/5/2014 2:10:00 PM 12.32 54.176 0.299 9.15 0.5 14.93
5/5/2014 2:15:00 PM 12.38 54.284 0.299 9.15 0.3 14.92
5/5/2014 2:20:00 PM 12.45 54.41 0.299 9.15 0.3 14.91
5/5/2014 2:25:00 PM 12.52 54.536 0.299 9.16 0.3 14.89
5/5/2014 2:30:00 PM 12.58 54.644 0.299 9.17 0.4 14.89
5/5/2014 2:35:00 PM 12.63 54.734 0.299 9.18 0.1 14.89
5/5/2014 2:40:00 PM 12.72 54.896 0.299 9.18 0.4 14.84
5/5/2014 2:45:00 PM 12.82 55.076 0.299 9.19 0.3 14.85
5/5/2014 2:50:00 PM 12.87 55.166 0.299 9.18 0.5 14.82
5/5/2014 2:55:00 PM 12.91 55.238 0.299 9.19 0.4 14.76
5/5/2014 3:00:00 PM 12.94 55.292 0.299 9.19 0.5 14.71
5/5/2014 3:05:00 PM 12.98 55.364 0.299 9.19 0.2 14.68
5/5/2014 3:10:00 PM 13.01 55.418 0.299 9.2 0.3 14.64
5/5/2014 3:15:00 PM 13.03 55.454 0.299 9.21 0.3 14.58
5/5/2014 3:20:00 PM 13.03 55.454 0.299 9.2 0.2 14.57
5/5/2014 3:25:00 PM 13.03 55.454 0.299 9.19 0.1 14.51
5/5/2014 3:30:00 PM 13.02 55.436 0.299 9.19 0.3 14.48
5/5/2014 3:35:00 PM 13.01 55.418 0.299 9.19 1.5 14.37
5/5/2014 3:40:00 PM 13.01 55.418 0.299 9.19 0.1 14.3
5/5/2014 3:45:00 PM 13 55.4 0.299 9.19 0.2 14.2
5/5/2014 3:50:00 PM 12.98 55.364 0.3 9.18 0.5 14.13
5/5/2014 3:55:00 PM 12.96 55.328 0.3 9.18 0.6 14.02
5/5/2014 4:00:00 PM 12.93 55.274 0.3 9.17 0.4 13.94
5/5/2014 4:05:00 PM 12.91 55.238 0.3 9.16 0.3 13.85
5/5/2014 4:10:00 PM 12.89 55.202 0.3 9.16 0.2 13.78
5/5/2014 4:15:00 PM 12.88 55.184 0.3 9.15 0.4 13.72
5/5/2014 4:20:00 PM 12.88 55.184 0.3 9.15 0.8 13.75
5/5/2014 4:25:00 PM 12.89 55.202 0.301 9.15 0.7 13.72
5/5/2014 4:30:00 PM 12.88 55.184 0.301 9.16 0.2 13.69
5/5/2014 4:35:00 PM 12.89 55.202 0.301 9.15 0.2 13.75
5/5/2014 4:40:00 PM 12.9 55.22 0.301 9.15 0.2 13.76
5/5/2014 4:45:00 PM 12.9 55.22 0.301 9.15 0.1 13.77
5/5/2014 4:50:00 PM 12.89 55.202 0.301 9.14 0.3 13.77
5/5/2014 4:55:00 PM 12.89 55.202 0.302 9.14 0.5 13.78
5/5/2014 5:00:00 PM 12.86 55.148 0.302 9.13 0.2 13.75
5/5/2014 5:05:00 PM 12.85 55.13 0.302 9.12 0.2 13.73
5/5/2014 5:10:00 PM 12.84 55.112 0.302 9.12 0.3 13.72
5/5/2014 5:15:00 PM 12.84 55.112 0.302 9.11 0.3 13.73
5/5/2014 5:20:00 PM 12.84 55.112 0.302 9.11 0.2 13.74
5/5/2014 5:25:00 PM 12.85 55.13 0.302 9.11 0.3 13.73
5/5/2014 5:30:00 PM 12.86 55.148 0.302 9.11 0.2 13.73
5/5/2014 5:35:00 PM 12.85 55.13 0.303 9.11 0.1 13.74
5/5/2014 5:40:00 PM 12.85 55.13 0.303 9.11 0.3 13.72
5/5/2014 5:45:00 PM 12.86 55.148 0.303 9.12 0.5 13.61
5/5/2014 5:50:00 PM 12.85 55.13 0.303 9.11 0.2 13.68
5/5/2014 5:55:00 PM 12.85 55.13 0.303 9.11 0.4 13.67
5/5/2014 6:00:00 PM 12.86 55.148 0.303 9.11 0.2 13.65
5/5/2014 6:05:00 PM 12.85 55.13 0.304 9.1 0.2 13.61
5/5/2014 6:10:00 PM 12.83 55.094 0.304 9.1 0.1 13.57
5/5/2014 6:15:00 PM 12.8 55.04 0.304 9.1 0.2 13.5
5/5/2014 6:20:00 PM 12.79 55.022 0.304 9.09 0.4 13.43
5/5/2014 6:25:00 PM 12.77 54.986 0.305 9.09 0.3 13.42
5/5/2014 6:30:00 PM 12.75 54.95 0.305 9.09 0.5 13.35
5/5/2014 6:35:00 PM 12.71 54.878 0.305 9.08 0.2 13.3
5/5/2014 6:40:00 PM 12.67 54.806 0.306 9.07 0.2 13.21
5/5/2014 6:45:00 PM 12.63 54.734 0.306 9.06 0.2 13.13
5/5/2014 6:50:00 PM 12.59 54.662 0.306 9.06 0.3 13.07
5/5/2014 6:55:00 PM 12.55 54.59 0.307 9.05 0.2 13
5/5/2014 7:00:00 PM 12.51 54.518 0.307 9.03 0.6 12.89
5/5/2014 7:05:00 PM 12.48 54.464 0.308 9.02 0.3 12.81
5/5/2014 7:10:00 PM 12.44 54.392 0.308 9.01 0.2 12.78
5/5/2014 7:15:00 PM 12.38 54.284 0.308 8.99 0.1 12.7
5/5/2014 7:20:00 PM 12.32 54.176 0.309 8.98 0 12.62
5/5/2014 7:25:00 PM 12.25 54.05 0.309 8.96 0.2 12.51
5/5/2014 7:30:00 PM 12.18 53.924 0.31 8.95 0.9 12.39
5/5/2014 7:35:00 PM 12.1 53.78 0.31 8.92 0.4 12.28
5/5/2014 7:40:00 PM 12.04 53.672 0.311 8.91 0.4 12.16
5/5/2014 7:45:00 PM 11.97 53.546 0.311 8.87 0.2 12.04
5/5/2014 7:50:00 PM 11.9 53.42 0.312 8.86 0.2 11.96
5/5/2014 7:55:00 PM 11.84 53.312 0.312 8.83 0.4 11.83
5/5/2014 8:00:00 PM 11.79 53.222 0.313 8.8 0.2 11.73
5/5/2014 8:05:00 PM 11.72 53.096 0.313 8.78 0.4 11.64
5/5/2014 8:10:00 PM 11.68 53.024 0.314 8.75 2.1 11.54
5/5/2014 8:15:00 PM 11.6 52.88 0.314 8.74 0.3 11.39
5/5/2014 8:20:00 PM 11.53 52.754 0.315 8.71 0.2 11.33
5/5/2014 8:25:00 PM 11.46 52.628 0.315 8.67 0.4 11.23
5/5/2014 8:30:00 PM 11.39 52.502 0.316 8.65 0.4 11.11
5/5/2014 8:35:00 PM 11.31 52.358 0.316 8.61 0.3 11.03
5/5/2014 8:40:00 PM 11.26 52.268 0.317 8.57 0.2 10.95
5/5/2014 8:45:00 PM 11.18 52.124 0.318 8.55 0.6 10.88
5/5/2014 8:50:00 PM 11.13 52.034 0.318 8.51 0.3 10.78
5/5/2014 8:55:00 PM 11.05 51.89 0.318 8.46 0.4 10.72
5/5/2014 9:00:00 PM 11 51.8 0.319 8.43 1 10.65
5/5/2014 9:05:00 PM 10.94 51.692 0.319 8.41 0.6 10.58
5/5/2014 9:10:00 PM 10.87 51.566 0.32 8.35 0.5 10.52
5/5/2014 9:15:00 PM 10.81 51.458 0.32 8.32 0.7 10.46
5/5/2014 9:20:00 PM 10.76 51.368 0.321 8.28 0.7 10.41
5/5/2014 9:25:00 PM 10.7 51.26 0.321 8.24 0.7 10.37
5/5/2014 9:30:00 PM 10.63 51.134 0.322 8.2 0.8 10.31
5/5/2014 9:35:00 PM 10.57 51.026 0.322 8.16 0.8 10.3
5/5/2014 9:40:00 PM 10.5 50.9 0.322 8.12 0.7 10.26
5/5/2014 9:45:00 PM 10.47 50.846 0.323 8.07 1.1 10.24
5/5/2014 9:50:00 PM 10.4 50.72 0.323 8.04 1.3 10.23
5/5/2014 9:55:00 PM 10.35 50.63 0.323 8.01 0.5 10.2
5/5/2014 10:00:00 PM 10.29 50.522 0.324 7.98 0.5 10.19
5/5/2014 10:05:00 PM 10.23 50.414 0.324 7.95 0.4 10.19
5/5/2014 10:10:00 PM 10.17 50.306 0.324 7.92 0.4 10.18
5/5/2014 10:15:00 PM 10.12 50.216 0.325 7.89 0.5 10.2
5/5/2014 10:20:00 PM 10.06 50.108 0.325 7.87 0.7 10.19
5/5/2014 10:25:00 PM 9.99 49.982 0.325 7.85 0.5 10.2
5/5/2014 10:30:00 PM 9.93 49.874 0.326 7.83 0.7 10.21
5/5/2014 10:35:00 PM 9.87 49.766 0.325 7.81 0.2 10.22
5/5/2014 10:40:00 PM 9.81 49.658 0.326 7.79 0.4 10.23
5/5/2014 10:45:00 PM 9.76 49.568 0.326 7.8 0.5 10.21
5/5/2014 10:50:00 PM 9.7 49.46 0.326 7.78 0.4 10.23
5/5/2014 10:55:00 PM 9.65 49.37 0.327 7.76 0.4 10.25
5/5/2014 11:00:00 PM 9.6 49.28 0.327 7.75 0.4 10.27
5/5/2014 11:05:00 PM 9.54 49.172 0.327 7.74 0.3 10.28
5/5/2014 11:10:00 PM 9.49 49.082 0.327 7.73 0.5 10.29
5/5/2014 11:15:00 PM 9.43 48.974 0.327 7.73 0.4 10.31
5/5/2014 11:20:00 PM 9.35 48.83 0.327 7.72 0.5 10.33
5/5/2014 11:25:00 PM 9.31 48.758 0.328 7.71 0.4 10.34
5/5/2014 11:30:00 PM 9.26 48.668 0.328 7.71 0.3 10.35
5/5/2014 11:35:00 PM 9.21 48.578 0.328 7.7 0.2 10.36
5/5/2014 11:40:00 PM 9.16 48.488 0.328 7.7 0.3 10.39
5/5/2014 11:45:00 PM 9.11 48.398 0.328 7.69 0.3 10.4
5/5/2014 11:50:00 PM 9.05 48.29 0.328 7.68 0.4 10.42
5/5/2014 11:55:00 PM 9 48.2 0.329 7.69 0.4 10.43
5/6/2014 12:00:00 AM 8.93 48.074 0.329 7.69 0.8 10.41
5/6/2014 12:05:00 AM 8.89 48.002 0.329 7.67 0.8 10.46
5/6/2014 12:10:00 AM 8.84 47.912 0.329 7.67 0.5 10.47
5/6/2014 12:15:00 AM 8.79 47.822 0.329 7.67 0.6 10.48
5/6/2014 12:20:00 AM 8.75 47.75 0.329 7.67 0.5 10.5
5/6/2014 12:25:00 AM 8.7 47.66 0.329 7.67 0.3 10.52
5/6/2014 12:30:00 AM 8.66 47.588 0.329 7.67 0.5 10.54
5/6/2014 12:35:00 AM 8.61 47.498 0.33 7.67 0.3 10.55
5/6/2014 12:40:00 AM 8.57 47.426 0.33 7.66 0.4 10.56
5/6/2014 12:45:00 AM 8.53 47.354 0.33 7.66 0.4 10.58
5/6/2014 12:50:00 AM 8.48 47.264 0.33 7.67 0.2 10.58
5/6/2014 12:55:00 AM 8.45 47.21 0.33 7.66 0.4 10.6
5/6/2014 1:00:00 AM 8.4 47.12 0.33 7.67 0.9 10.61
5/6/2014 1:05:00 AM 8.36 47.048 0.33 7.66 0.8 10.65
5/6/2014 1:10:00 AM 8.32 46.976 0.33 7.66 0.4 10.66
5/6/2014 1:15:00 AM 8.29 46.922 0.33 7.67 0.5 10.59
5/6/2014 1:20:00 AM 8.26 46.868 0.331 7.67 0.3 10.68
5/6/2014 1:25:00 AM 8.22 46.796 0.331 7.67 0.3 10.71
5/6/2014 1:30:00 AM 8.19 46.742 0.331 7.66 0.3 10.69
5/6/2014 1:35:00 AM 8.14 46.652 0.331 7.66 0.4 10.71
5/6/2014 1:40:00 AM 8.12 46.616 0.331 7.66 0.6 10.72
5/6/2014 1:45:00 AM 8.09 46.562 0.332 7.66 0.4 10.74
5/6/2014 1:50:00 AM 8.06 46.508 0.332 7.66 0.5 10.76
5/6/2014 1:55:00 AM 8.03 46.454 0.332 7.66 0.8 10.76
5/6/2014 2:00:00 AM 8 46.4 0.332 7.66 0.5 10.77
5/6/2014 2:05:00 AM 7.96 46.328 0.332 7.67 0.3 10.79
5/6/2014 2:10:00 AM 7.94 46.292 0.332 7.66 0.6 10.79
5/6/2014 2:15:00 AM 7.91 46.238 0.332 7.66 0.5 10.79
5/6/2014 2:20:00 AM 7.89 46.202 0.333 7.67 0.6 10.82
5/6/2014 2:25:00 AM 7.86 46.148 0.332 7.66 0.3 10.82
5/6/2014 2:30:00 AM 7.83 46.094 0.333 7.68 0.4 10.75
5/6/2014 2:35:00 AM 7.81 46.058 0.332 7.66 0.3 10.86
5/6/2014 2:40:00 AM 7.78 46.004 0.333 7.66 1.5 10.84
5/6/2014 2:45:00 AM 7.76 45.968 0.333 7.66 0.7 10.87
5/6/2014 2:50:00 AM 7.73 45.914 0.333 7.67 0.6 10.87
5/6/2014 2:55:00 AM 7.71 45.878 0.333 7.67 0.6 10.87
5/6/2014 3:00:00 AM 7.69 45.842 0.333 7.67 0.4 10.87
5/6/2014 3:05:00 AM 7.66 45.788 0.333 7.66 0.5 10.91
5/6/2014 3:10:00 AM 7.63 45.734 0.334 7.67 0.3 10.91
5/6/2014 3:15:00 AM 7.61 45.698 0.334 7.66 0.5 10.91
5/6/2014 3:20:00 AM 7.59 45.662 0.334 7.66 1.4 10.93
5/6/2014 3:25:00 AM 7.56 45.608 0.334 7.66 0.5 10.92
5/6/2014 3:30:00 AM 7.55 45.59 0.334 7.67 0.6 10.92
5/6/2014 3:35:00 AM 7.53 45.554 0.334 7.66 0.5 10.93
5/6/2014 3:40:00 AM 7.51 45.518 0.334 7.67 0.5 10.94
5/6/2014 3:45:00 AM 7.49 45.482 0.334 7.68 0.4 10.87
5/6/2014 3:50:00 AM 7.47 45.446 0.334 7.67 0.3 10.95
5/6/2014 3:55:00 AM 7.45 45.41 0.335 7.67 0.2 10.97
5/6/2014 4:00:00 AM 7.44 45.392 0.335 7.67 0.5 10.97
5/6/2014 4:05:00 AM 7.42 45.356 0.335 7.68 0.5 10.98
5/6/2014 4:10:00 AM 7.4 45.32 0.335 7.68 0.4 10.98
5/6/2014 4:15:00 AM 7.39 45.302 0.335 7.67 0.2 10.99
5/6/2014 4:20:00 AM 7.38 45.284 0.335 7.67 0.3 11
5/6/2014 4:25:00 AM 7.36 45.248 0.335 7.67 0.4 11
5/6/2014 4:30:00 AM 7.35 45.23 0.335 7.68 0.2 11.01
5/6/2014 4:35:00 AM 7.33 45.194 0.335 7.68 0.3 11.01
5/6/2014 4:40:00 AM 7.32 45.176 0.335 7.67 0.5 11
5/6/2014 4:45:00 AM 7.31 45.158 0.335 7.68 0.4 11.02
5/6/2014 4:50:00 AM 7.29 45.122 0.335 7.67 0.2 11.02
5/6/2014 4:55:00 AM 7.28 45.104 0.336 7.68 0.2 11.02
5/6/2014 5:00:00 AM 7.27 45.086 0.336 7.69 0.4 10.95
5/6/2014 5:05:00 AM 7.26 45.068 0.335 7.68 0.3 11.04
5/6/2014 5:10:00 AM 7.25 45.05 0.336 7.69 0.4 11.04
5/6/2014 5:15:00 AM 7.24 45.032 0.336 7.69 0.5 11.04
5/6/2014 5:20:00 AM 7.23 45.014 0.335 7.67 0.4 11.05
5/6/2014 5:25:00 AM 7.21 44.978 0.335 7.67 0.2 11.06
5/6/2014 5:30:00 AM 7.21 44.978 0.335 7.67 0.5 11.05
5/6/2014 5:35:00 AM 7.2 44.96 0.335 7.68 0.2 11.06
5/6/2014 5:40:00 AM 7.19 44.942 0.335 7.67 0.6 11.06
5/6/2014 5:45:00 AM 7.17 44.906 0.335 7.67 0.6 11.06
5/6/2014 5:50:00 AM 7.17 44.906 0.336 7.68 0.5 11.08
5/6/2014 5:55:00 AM 7.16 44.888 0.336 7.67 0.2 11.07
5/6/2014 6:00:00 AM 7.15 44.87 0.336 7.68 0.5 11.09
5/6/2014 6:05:00 AM 7.14 44.852 0.336 7.68 0.1 11.08
5/6/2014 6:10:00 AM 7.13 44.834 0.336 7.69 0.2 11.11
5/6/2014 6:15:00 AM 7.12 44.816 0.336 7.69 0.3 11.03
5/6/2014 6:20:00 AM 7.11 44.798 0.337 7.69 0.3 11.13
5/6/2014 6:25:00 AM 7.1 44.78 0.337 7.69 0.2 11.15
5/6/2014 6:30:00 AM 7.1 44.78 0.337 7.7 0.2 11.19
5/6/2014 6:35:00 AM 7.09 44.762 0.337 7.69 0.3 11.21
5/6/2014 6:40:00 AM 7.08 44.744 0.338 7.7 0.1 11.25
5/6/2014 6:45:00 AM 7.08 44.744 0.338 7.71 0.3 11.29
5/6/2014 6:50:00 AM 7.07 44.726 0.338 7.7 0 11.34
5/6/2014 6:55:00 AM 7.07 44.726 0.338 7.72 0 11.39
5/6/2014 7:00:00 AM 7.07 44.726 0.338 7.72 0.4 11.46
5/6/2014 7:05:00 AM 7.07 44.726 0.338 7.73 0.3 11.53
5/6/2014 7:10:00 AM 7.07 44.726 0.338 7.74 0.1 11.63
5/6/2014 7:15:00 AM 7.07 44.726 0.338 7.76 0.1 11.72
5/6/2014 7:20:00 AM 7.07 44.726 0.338 7.77 0.1 11.81
5/6/2014 7:25:00 AM 7.08 44.744 0.338 7.79 0.1 11.92
5/6/2014 7:30:00 AM 7.09 44.762 0.338 7.81 0.2 11.95
5/6/2014 7:35:00 AM 7.1 44.78 0.338 7.81 0 12.16
5/6/2014 7:40:00 AM 7.11 44.798 0.338 7.84 0 12.3
5/6/2014 7:45:00 AM 7.12 44.816 0.338 7.86 0.1 12.42
5/6/2014 7:50:00 AM 7.13 44.834 0.338 7.87 -0.1 12.56
5/6/2014 7:55:00 AM 7.14 44.852 0.337 7.9 0.1 12.7
5/6/2014 8:00:00 AM 7.16 44.888 0.337 7.92 0.1 12.86
5/6/2014 8:05:00 AM 7.17 44.906 0.337 7.95 0 12.94
5/6/2014 8:10:00 AM 7.19 44.942 0.337 7.97 0.1 13.12
5/6/2014 8:15:00 AM 7.21 44.978 0.336 8.01 0 13.24
5/6/2014 8:20:00 AM 7.23 45.014 0.336 8.04 0 13.37
5/6/2014 8:25:00 AM 7.25 45.05 0.335 8.07 0.1 13.47
5/6/2014 8:30:00 AM 7.27 45.086 0.335 8.1 0.1 13.61
5/6/2014 8:35:00 AM 7.29 45.122 0.335 8.14 0 13.73
5/6/2014 8:40:00 AM 7.31 45.158 0.334 8.17 0.2 13.86
5/6/2014 8:45:00 AM 7.34 45.212 0.334 8.22 0 13.83
5/6/2014 8:50:00 AM 7.35 45.23 0.334 8.24 -0.1 14.03
5/6/2014 8:55:00 AM 7.38 45.284 0.334 8.27 -0.1 14.13
5/6/2014 9:00:00 AM 7.4 45.32 0.333 8.29 -0.1 14.22
5/6/2014 9:05:00 AM 7.44 45.392 0.333 8.33 0.1 14.33
5/6/2014 9:10:00 AM 7.48 45.464 0.333 8.37 -0.1 14.43
5/6/2014 9:15:00 AM 7.52 45.536 0.332 8.39 -0.1 14.49
5/6/2014 9:20:00 AM 7.55 45.59 0.332 8.43 0 14.53
5/6/2014 9:25:00 AM 7.6 45.68 0.332 8.46 0.1 14.62
5/6/2014 9:30:00 AM 7.65 45.77 0.332 8.49 0.1 14.7
5/6/2014 9:35:00 AM 7.71 45.878 0.331 8.51 0 14.76
5/6/2014 9:40:00 AM 7.75 45.95 0.331 8.54 -0.1 14.81
5/6/2014 9:45:00 AM 7.83 46.094 0.331 8.57 0 14.86
5/6/2014 9:50:00 AM 7.89 46.202 0.331 8.58 -0.1 14.88
5/6/2014 9:55:00 AM 7.95 46.31 0.331 8.6 -0.1 14.92
5/6/2014 10:00:00 AM 8.03 46.454 0.33 8.65 -0.1 14.84
5/6/2014 10:05:00 AM 8.07 46.526 0.33 8.66 0 15.04
5/6/2014 10:10:00 AM 8.18 46.724 0.33 8.67 0.2 15.06
5/6/2014 10:15:00 AM 8.25 46.85 0.33 8.7 0 15.09
5/6/2014 10:20:00 AM 8.36 47.048 0.329 8.73 0 15.13
5/6/2014 10:25:00 AM 8.45 47.21 0.329 8.74 0 15.17
5/6/2014 10:30:00 AM 8.53 47.354 0.329 8.77 0 15.23
5/6/2014 10:35:00 AM 8.63 47.534 0.329 8.78 0 15.24
5/6/2014 10:40:00 AM 8.65 47.57 0.329 8.78 0 15.15
5/6/2014 10:45:00 AM 8.66 47.588 0.329 8.8 -0.2 15.11
5/6/2014 10:50:00 AM 8.72 47.696 0.328 8.81 -0.2 15.12
5/6/2014 10:55:00 AM 8.78 47.804 0.328 8.82 0 15.15
5/6/2014 11:00:00 AM 8.78 47.804 0.328 8.83 0 15.12
5/6/2014 11:05:00 AM 8.8 47.84 0.328 8.84 -0.2 15.08
5/6/2014 11:10:00 AM 8.83 47.894 0.328 8.85 0 15.08
5/6/2014 11:15:00 AM 8.92 48.056 0.327 8.88 0 15.05
5/6/2014 11:20:00 AM 9.02 48.236 0.327 8.87 -0.2 15.16
5/6/2014 11:25:00 AM 9.16 48.488 0.326 8.9 0 15.19
5/6/2014 11:30:00 AM 9.23 48.614 0.326 8.91 -0.1 15.25
5/6/2014 11:35:00 AM 9.28 48.704 0.326 8.92 -0.1 15.24
5/6/2014 11:40:00 AM 9.35 48.83 0.325 8.94 -0.2 15.29
5/6/2014 11:45:00 AM 9.47 49.046 0.325 8.94 0.2 15.29
5/6/2014 11:50:00 AM 9.54 49.172 0.325 8.96 -0.1 15.3
5/6/2014 11:55:00 AM 9.58 49.244 0.325 8.96 -0.1 15.3
5/6/2014 12:00:00 PM 9.61 49.298 0.325 8.97 -0.2 15.28
5/6/2014 12:05:00 PM 9.64 49.352 0.324 8.98 -0.2 15.26
5/6/2014 12:10:00 PM 9.7 49.46 0.324 8.99 -0.3 15.28
5/6/2014 12:15:00 PM 9.78 49.604 0.324 9 0.1 15.3
5/6/2014 12:20:00 PM 9.88 49.784 0.323 9.01 0.2 15.34
5/6/2014 12:25:00 PM 9.92 49.856 0.323 9.02 0.1 15.31
5/6/2014 12:30:00 PM 9.99 49.982 0.323 9.05 0.1 15.26
5/6/2014 12:35:00 PM 10.05 50.09 0.322 9.06 -0.2 15.34
5/6/2014 12:40:00 PM 10.1 50.18 0.322 9.07 0.1 15.32
5/6/2014 12:45:00 PM 10.18 50.324 0.322 9.06 0.1 15.32
5/6/2014 12:50:00 PM 10.25 50.45 0.322 9.07 0.1 15.31
5/6/2014 12:55:00 PM 10.37 50.666 0.321 9.08 -0.2 15.33
5/6/2014 1:00:00 PM 10.46 50.828 0.321 9.09 -0.2 15.38
5/6/2014 1:05:00 PM 10.58 51.044 0.321 9.1 0 15.38
5/6/2014 1:10:00 PM 10.64 51.152 0.321 9.1 -0.2 15.38
5/6/2014 1:15:00 PM 10.72 51.296 0.321 9.11 0 15.41
5/6/2014 1:20:00 PM 10.81 51.458 0.321 9.12 -0.2 15.42
5/6/2014 1:25:00 PM 10.93 51.674 0.32 9.12 0 15.49
5/6/2014 1:30:00 PM 11.05 51.89 0.32 9.13 0 15.5
5/6/2014 1:35:00 PM 11.21 52.178 0.32 9.14 0 15.49
5/6/2014 1:40:00 PM 11.28 52.304 0.32 9.16 0 15.52
5/6/2014 1:45:00 PM 11.37 52.466 0.32 9.17 -0.1 15.44
5/6/2014 1:50:00 PM 11.43 52.574 0.319 9.16 -0.2 15.43
5/6/2014 1:55:00 PM 11.55 52.79 0.319 9.17 -0.1 15.48
5/6/2014 2:00:00 PM 11.64 52.952 0.319 9.18 0 15.5
5/6/2014 2:05:00 PM 11.76 53.168 0.319 9.18 0.1 15.45
5/6/2014 2:10:00 PM 11.81 53.258 0.319 9.19 0 15.39
5/6/2014 2:15:00 PM 11.88 53.384 0.318 9.19 0 15.36
5/6/2014 2:20:00 PM 11.96 53.528 0.318 9.2 -0.1 15.34
5/6/2014 2:25:00 PM 12.09 53.762 0.318 9.21 0 15.35
5/6/2014 2:30:00 PM 12.14 53.852 0.318 9.21 0 15.3
5/6/2014 2:35:00 PM 12.29 54.122 0.318 9.21 0.5 15.27
5/6/2014 2:40:00 PM 12.35 54.23 0.318 9.22 -0.1 15.23
5/6/2014 2:45:00 PM 12.41 54.338 0.318 9.22 0 15.23
5/6/2014 2:50:00 PM 12.5 54.5 0.318 9.23 -0.1 15.22
5/6/2014 2:55:00 PM 12.58 54.644 0.317 9.24 0.1 15.18
5/6/2014 3:00:00 PM 12.66 54.788 0.317 9.24 -0.1 15.1
5/6/2014 3:05:00 PM 12.67 54.806 0.318 9.23 0 15.07
5/6/2014 3:10:00 PM 12.72 54.896 0.318 9.23 0.2 15.06
5/6/2014 3:15:00 PM 12.86 55.148 0.317 9.24 0 15.07
5/6/2014 3:20:00 PM 12.99 55.382 0.317 9.25 0.2 15.04
5/6/2014 3:25:00 PM 13.07 55.526 0.317 9.25 0 15.06
5/6/2014 3:30:00 PM 13.21 55.778 0.317 9.25 0 15.09
5/6/2014 3:35:00 PM 13.26 55.868 0.317 9.26 -0.1 15.02
5/6/2014 3:40:00 PM 13.4 56.12 0.317 9.26 0 14.98
5/6/2014 3:45:00 PM 13.49 56.282 0.317 9.26 -0.1 14.92
5/6/2014 3:50:00 PM 13.59 56.462 0.317 9.27 0.5 14.92
5/6/2014 3:55:00 PM 13.7 56.66 0.317 9.27 0.2 14.84
5/6/2014 4:00:00 PM 13.79 56.822 0.316 9.27 1.4 14.89
5/6/2014 4:05:00 PM 13.91 57.038 0.317 9.28 0.5 14.83
5/6/2014 4:10:00 PM 13.99 57.182 0.316 9.29 1.1 14.8
5/6/2014 4:15:00 PM 14.08 57.344 0.316 9.29 0 14.68
5/6/2014 4:20:00 PM 14.13 57.434 0.317 9.29 -0.2 14.73
5/6/2014 4:25:00 PM 14.15 57.47 0.316 9.29 -0.1 14.69
5/6/2014 4:30:00 PM 14.2 57.56 0.317 9.28 0.1 14.61
5/6/2014 4:35:00 PM 14.21 57.578 0.317 9.27 0.3 14.57
5/6/2014 4:40:00 PM 14.22 57.596 0.317 9.27 0.1 14.53
5/6/2014 4:45:00 PM 14.2 57.56 0.317 9.27 -0.1 14.44
5/6/2014 4:50:00 PM 14.21 57.578 0.317 9.26 -0.1 14.37
5/6/2014 4:55:00 PM 14.21 57.578 0.317 9.26 0 14.33
5/6/2014 5:00:00 PM 14.21 57.578 0.317 9.26 -0.1 14.31
5/6/2014 5:05:00 PM 14.21 57.578 0.317 9.25 0 14.23
5/6/2014 5:10:00 PM 14.21 57.578 0.317 9.24 0 14.17
5/6/2014 5:15:00 PM 14.19 57.542 0.318 9.23 -0.2 14.07
5/6/2014 5:20:00 PM 14.18 57.524 0.318 9.22 0 13.99
5/6/2014 5:25:00 PM 14.16 57.488 0.318 9.22 0 13.92
5/6/2014 5:30:00 PM 14.14 57.452 0.318 9.21 -0.1 13.85
5/6/2014 5:35:00 PM 14.13 57.434 0.318 9.2 -0.1 13.8
5/6/2014 5:40:00 PM 14.12 57.416 0.319 9.19 0 13.73
5/6/2014 5:45:00 PM 14.11 57.398 0.319 9.18 0.5 13.64
5/6/2014 5:50:00 PM 14.09 57.362 0.319 9.18 0 13.6
5/6/2014 5:55:00 PM 14.06 57.308 0.319 9.18 0 13.52
5/6/2014 6:00:00 PM 14.04 57.272 0.32 9.17 -0.1 13.45
5/6/2014 6:05:00 PM 14.02 57.236 0.32 9.17 0 13.39
5/6/2014 6:10:00 PM 13.99 57.182 0.32 9.15 0.1 13.32
5/6/2014 6:15:00 PM 13.97 57.146 0.32 9.14 0.2 13.23
5/6/2014 6:20:00 PM 13.94 57.092 0.321 9.14 0.4 13.18
5/6/2014 6:25:00 PM 13.92 57.056 0.321 9.14 0 13.07
5/6/2014 6:30:00 PM 13.89 57.002 0.321 9.12 -0.2 13.02
5/6/2014 6:35:00 PM 13.86 56.948 0.321 9.11 0 12.95
5/6/2014 6:40:00 PM 13.82 56.876 0.322 9.11 0 12.85
5/6/2014 6:45:00 PM 13.79 56.822 0.322 9.11 0.2 12.73
5/6/2014 6:50:00 PM 13.76 56.768 0.322 9.1 0.7 12.74
5/6/2014 6:55:00 PM 13.71 56.678 0.323 9.09 -0.2 12.65
5/6/2014 7:00:00 PM 13.64 56.552 0.323 9.07 0 12.53
5/6/2014 7:05:00 PM 13.58 56.444 0.324 9.06 -0.1 12.44
5/6/2014 7:10:00 PM 13.51 56.318 0.324 9.04 -0.2 12.35
5/6/2014 7:15:00 PM 13.45 56.21 0.324 9.02 -0.1 12.28
5/6/2014 7:20:00 PM 13.38 56.084 0.325 9.01 -0.1 12.17
5/6/2014 7:25:00 PM 13.3 55.94 0.325 8.99 0 12.06
5/6/2014 7:30:00 PM 13.25 55.85 0.325 8.97 0 11.98
5/6/2014 7:35:00 PM 13.2 55.76 0.326 8.97 -0.1 11.91
5/6/2014 7:40:00 PM 13.1 55.58 0.327 8.94 0 11.79
5/6/2014 7:45:00 PM 13.03 55.454 0.327 8.92 0.1 11.7
5/6/2014 7:50:00 PM 12.95 55.31 0.328 8.9 0 11.62
5/6/2014 7:55:00 PM 12.87 55.166 0.329 8.88 0.1 11.48
5/6/2014 8:00:00 PM 12.81 55.058 0.329 8.86 0.1 11.38
5/6/2014 8:05:00 PM 12.73 54.914 0.33 8.82 0 11.3
5/6/2014 8:10:00 PM 12.66 54.788 0.331 8.79 0.3 11.21
5/6/2014 8:15:00 PM 12.58 54.644 0.332 8.78 0.1 11.1
5/6/2014 8:20:00 PM 12.53 54.554 0.332 8.75 0.2 11.01
5/6/2014 8:25:00 PM 12.45 54.41 0.333 8.72 0.2 10.92
5/6/2014 8:30:00 PM 12.36 54.248 0.334 8.69 0.4 10.81
5/6/2014 8:35:00 PM 12.28 54.104 0.335 8.66 0.1 10.71
5/6/2014 8:40:00 PM 12.22 53.996 0.336 8.63 0 10.64
5/6/2014 8:45:00 PM 12.14 53.852 0.336 8.61 0.1 10.56
5/6/2014 8:50:00 PM 12.07 53.726 0.337 8.57 0.3 10.49
5/6/2014 8:55:00 PM 12.01 53.618 0.338 8.54 0.7 10.42
5/6/2014 9:00:00 PM 11.95 53.51 0.338 8.51 0.3 10.35
5/6/2014 9:05:00 PM 11.85 53.33 0.339 8.47 0.2 10.28
5/6/2014 9:10:00 PM 11.77 53.186 0.34 8.44 0.1 10.21
5/6/2014 9:15:00 PM 11.69 53.042 0.341 8.41 0.5 10.15
5/6/2014 9:20:00 PM 11.64 52.952 0.341 8.36 0.5 10.13
5/6/2014 9:25:00 PM 11.57 52.826 0.342 8.33 0.2 10.09
5/6/2014 9:30:00 PM 11.53 52.754 0.342 8.3 2.1 10.05
5/6/2014 9:35:00 PM 11.46 52.628 0.343 8.27 0.4 10.04
5/6/2014 9:40:00 PM 11.37 52.466 0.344 8.23 0.2 9.99
5/6/2014 9:45:00 PM 11.29 52.322 0.344 8.19 0.2 9.96
5/6/2014 9:50:00 PM 11.24 52.232 0.345 8.15 0.4 9.95
5/6/2014 9:55:00 PM 11.17 52.106 0.345 8.12 0.5 9.91
5/6/2014 10:00:00 PM 11.11 51.998 0.346 8.09 0.2 9.91
5/6/2014 10:05:00 PM 11.04 51.872 0.346 8.05 1.1 9.9
5/6/2014 10:10:00 PM 10.96 51.728 0.347 8.01 0 9.88
5/6/2014 10:15:00 PM 10.91 51.638 0.347 7.98 0.1 9.88
5/6/2014 10:20:00 PM 10.82 51.476 0.347 7.96 0.2 9.88
5/6/2014 10:25:00 PM 10.76 51.368 0.348 7.93 0.2 9.87
5/6/2014 10:30:00 PM 10.7 51.26 0.348 7.91 0.2 9.86
5/6/2014 10:35:00 PM 10.64 51.152 0.348 7.88 0.1 9.9
5/6/2014 10:40:00 PM 10.57 51.026 0.349 7.85 0 9.91
5/6/2014 10:45:00 PM 10.52 50.936 0.349 7.84 0.1 9.9
5/6/2014 10:50:00 PM 10.44 50.792 0.349 7.82 0.1 9.92
5/6/2014 10:55:00 PM 10.39 50.702 0.35 7.8 -0.1 9.93
5/6/2014 11:00:00 PM 10.33 50.594 0.35 7.8 0.1 9.94
5/6/2014 11:05:00 PM 10.26 50.468 0.35 7.78 -0.1 9.96
5/6/2014 11:10:00 PM 10.2 50.36 0.351 7.77 0.1 9.98
5/6/2014 11:15:00 PM 10.15 50.27 0.351 7.75 0.1 9.99
5/6/2014 11:20:00 PM 10.08 50.144 0.351 7.74 0 9.99
5/6/2014 11:25:00 PM 10.03 50.054 0.351 7.73 0.2 10.02
5/6/2014 11:30:00 PM 9.97 49.946 0.353 7.73 -0.1 10.03
5/6/2014 11:35:00 PM 9.91 49.838 0.352 7.72 0.2 10.05
5/6/2014 11:40:00 PM 9.84 49.712 0.352 7.71 0.6 10.07
5/6/2014 11:45:00 PM 9.79 49.622 0.352 7.72 0.2 10
5/6/2014 11:50:00 PM 9.72 49.496 0.353 7.71 0.7 10.1
5/6/2014 11:55:00 PM 9.67 49.406 0.353 7.7 0.4 10.12
5/7/2014 12:00:00 AM 9.61 49.298 0.353 7.7 0.6 10.15
5/7/2014 12:05:00 AM 9.56 49.208 0.353 7.7 0.3 10.14
5/7/2014 12:10:00 AM 9.5 49.1 0.354 7.68 0 10.16
5/7/2014 12:15:00 AM 9.44 48.992 0.354 7.68 0.5 10.18
5/7/2014 12:20:00 AM 9.37 48.866 0.354 7.68 0.3 10.21
5/7/2014 12:25:00 AM 9.31 48.758 0.354 7.67 0.2 10.23
5/7/2014 12:30:00 AM 9.26 48.668 0.354 7.67 0.5 10.25
5/7/2014 12:35:00 AM 9.21 48.578 0.354 7.67 0.5 10.27
5/7/2014 12:40:00 AM 9.18 48.524 0.354 7.67 0.4 10.27
5/7/2014 12:45:00 AM 9.1 48.38 0.355 7.66 0.5 10.3
5/7/2014 12:50:00 AM 9.05 48.29 0.355 7.66 0.2 10.31
5/7/2014 12:55:00 AM 8.99 48.182 0.355 7.67 0.5 10.35
5/7/2014 1:00:00 AM 8.94 48.092 0.355 7.68 0.1 10.29
5/7/2014 1:05:00 AM 8.89 48.002 0.355 7.67 0 10.38
5/7/2014 1:10:00 AM 8.84 47.912 0.356 7.67 0 10.38
5/7/2014 1:15:00 AM 8.78 47.804 0.356 7.66 0.2 10.4
5/7/2014 1:20:00 AM 8.75 47.75 0.356 7.67 0.2 10.43
5/7/2014 1:25:00 AM 8.7 47.66 0.355 7.67 0.4 10.43
5/7/2014 1:30:00 AM 8.66 47.588 0.356 7.66 0.1 10.45
5/7/2014 1:35:00 AM 8.6 47.48 0.356 7.66 0.1 10.47
5/7/2014 1:40:00 AM 8.54 47.372 0.355 7.66 -0.1 10.48
5/7/2014 1:45:00 AM 8.5 47.3 0.356 7.66 0.6 10.5
5/7/2014 1:50:00 AM 8.45 47.21 0.356 7.65 0.1 10.52
5/7/2014 1:55:00 AM 8.41 47.138 0.355 7.66 0 10.54
5/7/2014 2:00:00 AM 8.35 47.03 0.355 7.67 0.2 10.55
5/7/2014 2:05:00 AM 8.31 46.958 0.356 7.66 0.1 10.57
5/7/2014 2:10:00 AM 8.26 46.868 0.355 7.66 0.3 10.59
5/7/2014 2:15:00 AM 8.21 46.778 0.356 7.67 0.2 10.5
5/7/2014 2:20:00 AM 8.18 46.724 0.356 7.67 0 10.61
5/7/2014 2:25:00 AM 8.13 46.634 0.356 7.67 0.2 10.63
5/7/2014 2:30:00 AM 8.08 46.544 0.356 7.67 0.2 10.65
5/7/2014 2:35:00 AM 8.04 46.472 0.356 7.66 0 10.65
5/7/2014 2:40:00 AM 8 46.4 0.356 7.66 0 10.68
5/7/2014 2:45:00 AM 7.96 46.328 0.356 7.66 0.2 10.69
5/7/2014 2:50:00 AM 7.91 46.238 0.356 7.66 0.1 10.72
5/7/2014 2:55:00 AM 7.86 46.148 0.357 7.65 0 10.73
5/7/2014 3:00:00 AM 7.83 46.094 0.357 7.65 0.3 10.73
5/7/2014 3:05:00 AM 7.78 46.004 0.357 7.66 0.1 10.75
5/7/2014 3:10:00 AM 7.74 45.932 0.357 7.66 0.2 10.77
5/7/2014 3:15:00 AM 7.71 45.878 0.357 7.66 0 10.78
5/7/2014 3:20:00 AM 7.66 45.788 0.357 7.66 0.3 10.79
5/7/2014 3:25:00 AM 7.62 45.716 0.358 7.66 0.5 10.81
5/7/2014 3:30:00 AM 7.58 45.644 0.357 7.68 0.2 10.74
5/7/2014 3:35:00 AM 7.54 45.572 0.358 7.66 0.2 10.83
5/7/2014 3:40:00 AM 7.5 45.5 0.358 7.66 0.1 10.87
5/7/2014 3:45:00 AM 7.47 45.446 0.358 7.67 0.2 10.87
5/7/2014 3:50:00 AM 7.43 45.374 0.358 7.66 0.1 10.88
5/7/2014 3:55:00 AM 7.38 45.284 0.358 7.66 0.1 10.9
5/7/2014 4:00:00 AM 7.35 45.23 0.358 7.67 0 10.9
5/7/2014 4:05:00 AM 7.31 45.158 0.358 7.66 0.1 10.91
5/7/2014 4:10:00 AM 7.28 45.104 0.358 7.66 0.2 10.95
5/7/2014 4:15:00 AM 7.23 45.014 0.358 7.67 0 10.94
5/7/2014 4:20:00 AM 7.2 44.96 0.359 7.66 0.1 10.96
5/7/2014 4:25:00 AM 7.16 44.888 0.359 7.67 -0.1 10.97
5/7/2014 4:30:00 AM 7.13 44.834 0.359 7.67 0 10.99
5/7/2014 4:35:00 AM 7.11 44.798 0.359 7.67 0.3 10.99
5/7/2014 4:40:00 AM 7.07 44.726 0.359 7.66 0.2 11.02
5/7/2014 4:45:00 AM 7.03 44.654 0.359 7.68 0.1 10.92
5/7/2014 4:50:00 AM 7 44.6 0.359 7.67 0.3 11.02
5/7/2014 4:55:00 AM 6.97 44.546 0.359 7.67 0.2 11.04
5/7/2014 5:00:00 AM 6.94 44.492 0.36 7.68 0 11.04
5/7/2014 5:05:00 AM 6.9 44.42 0.36 7.68 -0.1 11.05
5/7/2014 5:10:00 AM 6.87 44.366 0.36 7.68 0 11.11
5/7/2014 5:15:00 AM 6.85 44.33 0.36 7.68 0 11.09
5/7/2014 5:20:00 AM 6.81 44.258 0.36 7.68 0.1 11.1
5/7/2014 5:25:00 AM 6.78 44.204 0.36 7.67 0 11.11
5/7/2014 5:30:00 AM 6.75 44.15 0.36 7.67 0 11.11
5/7/2014 5:35:00 AM 6.72 44.096 0.36 7.67 0.1 11.14
5/7/2014 5:40:00 AM 6.69 44.042 0.36 7.68 0.4 11.15
5/7/2014 5:45:00 AM 6.66 43.988 0.36 7.68 0.2 11.16
5/7/2014 5:50:00 AM 6.63 43.934 0.36 7.67 0 11.18
5/7/2014 5:55:00 AM 6.6 43.88 0.36 7.68 0.3 11.2
5/7/2014 6:00:00 AM 6.57 43.826 0.36 7.69 0.2 11.11
5/7/2014 6:05:00 AM 6.55 43.79 0.36 7.67 -0.1 11.22
5/7/2014 6:10:00 AM 6.52 43.736 0.36 7.67 0.2 11.25
5/7/2014 6:15:00 AM 6.49 43.682 0.36 7.68 0.2 11.28
5/7/2014 6:20:00 AM 6.47 43.646 0.36 7.68 0.1 11.3
5/7/2014 6:25:00 AM 6.44 43.592 0.36 7.69 0 11.36
5/7/2014 6:30:00 AM 6.42 43.556 0.359 7.69 -0.1 11.42
5/7/2014 6:35:00 AM 6.41 43.538 0.36 7.7 0.2 11.48
5/7/2014 6:40:00 AM 6.38 43.484 0.36 7.7 0 11.54
5/7/2014 6:45:00 AM 6.36 43.448 0.36 7.71 -0.1 11.6
5/7/2014 6:50:00 AM 6.34 43.412 0.36 7.72 -0.1 11.68
5/7/2014 6:55:00 AM 6.31 43.358 0.359 7.72 0 11.77
5/7/2014 7:00:00 AM 6.29 43.322 0.36 7.74 -0.1 11.88
5/7/2014 7:05:00 AM 6.28 43.304 0.36 7.75 0 11.97
5/7/2014 7:10:00 AM 6.26 43.268 0.36 7.77 0 12.09
5/7/2014 7:15:00 AM 6.25 43.25 0.36 7.79 -0.1 12.11
5/7/2014 7:20:00 AM 6.24 43.232 0.36 7.8 0 12.32
5/7/2014 7:25:00 AM 6.23 43.214 0.36 7.82 -0.1 12.45
5/7/2014 7:30:00 AM 6.22 43.196 0.36 7.82 -0.1 12.58
5/7/2014 7:35:00 AM 6.22 43.196 0.36 7.85 0.2 12.69
5/7/2014 7:40:00 AM 6.22 43.196 0.36 7.87 -0.1 12.85
5/7/2014 7:45:00 AM 6.23 43.214 0.36 7.89 -0.1 12.97
5/7/2014 7:50:00 AM 6.23 43.214 0.36 7.91 -0.2 13.1
5/7/2014 7:55:00 AM 6.23 43.214 0.359 7.95 -0.1 13.28
5/7/2014 8:00:00 AM 6.24 43.232 0.359 7.97 -0.3 13.41
5/7/2014 8:05:00 AM 6.25 43.25 0.359 8 -0.2 13.54
5/7/2014 8:10:00 AM 6.26 43.268 0.359 8.02 -0.2 13.66
5/7/2014 8:15:00 AM 6.27 43.286 0.359 8.05 0 13.78
5/7/2014 8:20:00 AM 6.28 43.304 0.358 8.08 -0.1 13.89
5/7/2014 8:25:00 AM 6.3 43.34 0.358 8.11 -0.2 14.03
5/7/2014 8:30:00 AM 6.34 43.412 0.357 8.16 -0.1 14.09
5/7/2014 8:35:00 AM 6.37 43.466 0.357 8.18 -0.2 14.36
5/7/2014 8:40:00 AM 6.39 43.502 0.357 8.2 -0.2 14.44
5/7/2014 8:45:00 AM 6.43 43.574 0.358 8.23 -0.1 14.6
5/7/2014 8:50:00 AM 6.45 43.61 0.357 8.27 0.5 14.68
5/7/2014 8:55:00 AM 6.47 43.646 0.356 8.3 0 14.8
5/7/2014 9:00:00 AM 6.51 43.718 0.356 8.33 -0.2 14.88
5/7/2014 9:05:00 AM 6.56 43.808 0.356 8.36 -0.1 15.01
5/7/2014 9:10:00 AM 6.59 43.862 0.355 8.4 -0.2 15.12
5/7/2014 9:15:00 AM 6.62 43.916 0.355 8.42 -0.1 15.2
5/7/2014 9:20:00 AM 6.67 44.006 0.354 8.45 -0.2 15.29
5/7/2014 9:25:00 AM 6.71 44.078 0.354 8.48 0 15.37
5/7/2014 9:30:00 AM 6.74 44.132 0.353 8.51 -0.2 15.39
5/7/2014 9:35:00 AM 6.77 44.186 0.353 8.53 -0.1 15.44
5/7/2014 9:40:00 AM 6.86 44.348 0.353 8.56 -0.2 15.61
5/7/2014 9:45:00 AM 6.97 44.546 0.352 8.61 0.1 15.62
5/7/2014 9:50:00 AM 7.02 44.636 0.351 8.62 -0.2 15.78
5/7/2014 9:55:00 AM 7.09 44.762 0.352 8.65 0 15.85
5/7/2014 10:00:00 AM 7.17 44.906 0.352 8.68 -0.2 15.9
5/7/2014 10:05:00 AM 7.27 45.086 0.351 8.71 -0.1 15.99
5/7/2014 10:10:00 AM 7.31 45.158 0.351 8.74 -0.1 16.03
5/7/2014 10:15:00 AM 7.37 45.266 0.351 8.75 -0.2 16.1
5/7/2014 10:20:00 AM 7.44 45.392 0.35 8.77 -0.1 16.12
5/7/2014 10:25:00 AM 7.47 45.446 0.35 8.79 -0.2 16.2
5/7/2014 10:30:00 AM 7.55 45.59 0.35 8.81 -0.2 16.23
5/7/2014 10:35:00 AM 7.6 45.68 0.349 8.83 -0.2 16.26
5/7/2014 10:40:00 AM 7.67 45.806 0.349 8.85 -0.2 16.26
5/7/2014 10:45:00 AM 7.74 45.932 0.349 8.86 -0.2 16.31
5/7/2014 10:50:00 AM 7.8 46.04 0.348 8.88 -0.1 16.34
5/7/2014 10:55:00 AM 7.86 46.148 0.348 8.9 -0.1 16.33
5/7/2014 11:00:00 AM 7.94 46.292 0.348 8.94 -0.2 16.23
5/7/2014 11:05:00 AM 7.99 46.382 0.347 8.93 -0.2 16.36
5/7/2014 11:10:00 AM 8.06 46.508 0.347 8.95 -0.2 16.35
5/7/2014 11:15:00 AM 8.11 46.598 0.347 8.96 -0.3 16.34
5/7/2014 11:20:00 AM 8.17 46.706 0.346 8.97 -0.2 16.29
5/7/2014 11:25:00 AM 8.22 46.796 0.346 8.98 -0.1 16.32
5/7/2014 11:30:00 AM 8.25 46.85 0.346 8.99 -0.2 16.26
5/7/2014 11:35:00 AM 8.31 46.958 0.346 9 -0.1 16.24
5/7/2014 11:40:00 AM 8.37 47.066 0.346 9 -0.1 16.23
5/7/2014 11:45:00 AM 8.43 47.174 0.345 9.03 -0.2 16.22
5/7/2014 11:50:00 AM 8.47 47.246 0.345 9.03 -0.3 16.24
5/7/2014 11:55:00 AM 8.55 47.39 0.345 9.04 -0.1 16.23
5/7/2014 12:00:00 PM 8.61 47.498 0.345 9.05 -0.2 16.23
5/7/2014 12:05:00 PM 8.69 47.642 0.344 9.07 -0.2 16.23
5/7/2014 12:10:00 PM 8.76 47.768 0.344 9.07 -0.1 16.26
5/7/2014 12:15:00 PM 8.84 47.912 0.344 9.09 -0.1 16.27
5/7/2014 12:20:00 PM 8.92 48.056 0.344 9.09 0 16.29
5/7/2014 12:25:00 PM 9.01 48.218 0.343 9.11 -0.3 16.33
5/7/2014 12:30:00 PM 9.07 48.326 0.343 9.12 -0.2 16.34
5/7/2014 12:35:00 PM 9.14 48.452 0.343 9.12 -0.1 16.35
5/7/2014 12:40:00 PM 9.2 48.56 0.342 9.12 0.2 16.36
5/7/2014 12:45:00 PM 9.26 48.668 0.343 9.14 -0.2 16.33
5/7/2014 12:50:00 PM 9.33 48.794 0.342 9.14 -0.2 16.34
5/7/2014 12:55:00 PM 9.41 48.938 0.342 9.15 0 16.37
5/7/2014 1:00:00 PM 9.49 49.082 0.341 9.17 0 16.38
5/7/2014 1:05:00 PM 9.57 49.226 0.341 9.17 -0.3 16.39
5/7/2014 1:10:00 PM 9.66 49.388 0.341 9.18 -0.1 16.42
5/7/2014 1:15:00 PM 9.77 49.586 0.341 9.18 -0.3 16.44
5/7/2014 1:20:00 PM 9.87 49.766 0.341 9.19 -0.3 16.45
5/7/2014 1:25:00 PM 9.97 49.946 0.341 9.2 -0.2 16.49
5/7/2014 1:30:00 PM 10 50 0.341 9.22 -0.1 16.54
5/7/2014 1:35:00 PM 10.11 50.198 0.34 9.21 -0.2 16.46
5/7/2014 1:40:00 PM 10.17 50.306 0.34 9.23 -0.1 16.48
5/7/2014 1:45:00 PM 10.23 50.414 0.34 9.23 0 16.48
5/7/2014 1:50:00 PM 10.3 50.54 0.339 9.23 -0.1 16.46
5/7/2014 1:55:00 PM 10.36 50.648 0.339 9.24 0 16.41
5/7/2014 2:00:00 PM 10.42 50.756 0.339 9.25 -0.2 16.39
5/7/2014 2:05:00 PM 10.46 50.828 0.339 9.25 -0.1 16.37
5/7/2014 2:10:00 PM 10.52 50.936 0.338 9.26 0 16.35
5/7/2014 2:15:00 PM 10.56 51.008 0.338 9.26 0.1 16.28
5/7/2014 2:20:00 PM 10.59 51.062 0.338 9.27 -0.1 16.29
5/7/2014 2:25:00 PM 10.64 51.152 0.337 9.27 -0.1 16.24
5/7/2014 2:30:00 PM 10.68 51.224 0.338 9.27 0.1 16.18
5/7/2014 2:35:00 PM 10.72 51.296 0.337 9.27 -0.1 16.16
5/7/2014 2:40:00 PM 10.75 51.35 0.337 9.27 0 16.09
5/7/2014 2:45:00 PM 10.8 51.44 0.337 9.29 0 15.98
5/7/2014 2:50:00 PM 10.82 51.476 0.337 9.28 0 16.01
5/7/2014 2:55:00 PM 10.86 51.548 0.336 9.28 0.2 15.96
5/7/2014 3:00:00 PM 10.89 51.602 0.336 9.28 -0.2 15.89
5/7/2014 3:05:00 PM 10.91 51.638 0.336 9.29 -0.1 15.89
5/7/2014 3:10:00 PM 10.93 51.674 0.336 9.29 -0.2 15.8
5/7/2014 3:15:00 PM 10.95 51.71 0.336 9.28 0 15.69
5/7/2014 3:20:00 PM 10.96 51.728 0.336 9.28 0 15.62
5/7/2014 3:25:00 PM 10.97 51.746 0.336 9.28 -0.2 15.58
5/7/2014 3:30:00 PM 10.98 51.764 0.336 9.28 -0.1 15.51
5/7/2014 3:35:00 PM 10.97 51.746 0.336 9.27 0 15.48
5/7/2014 3:40:00 PM 10.99 51.782 0.336 9.26 0 15.44
5/7/2014 3:45:00 PM 10.99 51.782 0.336 9.27 0 15.39
5/7/2014 3:50:00 PM 11 51.8 0.336 9.26 0.1 15.3
5/7/2014 3:55:00 PM 11.02 51.836 0.336 9.26 0.1 15.29
5/7/2014 4:00:00 PM 11.02 51.836 0.336 9.26 0.1 15.18
5/7/2014 4:05:00 PM 11.03 51.854 0.336 9.25 0 15.13
5/7/2014 4:10:00 PM 11.04 51.872 0.336 9.25 0.1 15.08
5/7/2014 4:15:00 PM 11.05 51.89 0.336 9.24 0 15.05
5/7/2014 4:20:00 PM 11.06 51.908 0.336 9.24 -0.1 15.02
5/7/2014 4:25:00 PM 11.06 51.908 0.336 9.24 0 14.97
5/7/2014 4:30:00 PM 11.06 51.908 0.335 9.23 -0.1 14.92
5/7/2014 4:35:00 PM 11.06 51.908 0.335 9.23 0 14.87
5/7/2014 4:40:00 PM 11.06 51.908 0.336 9.23 0.1 14.88
5/7/2014 4:45:00 PM 11.05 51.89 0.336 9.22 0.2 14.74
5/7/2014 4:50:00 PM 11.05 51.89 0.336 9.21 -0.1 14.7
5/7/2014 4:55:00 PM 11.03 51.854 0.336 9.2 0.2 14.63
5/7/2014 5:00:00 PM 11.03 51.854 0.336 9.2 0.6 14.53
5/7/2014 5:05:00 PM 11.02 51.836 0.337 9.19 0.3 14.46
5/7/2014 5:10:00 PM 11.02 51.836 0.337 9.19 0.1 14.38
5/7/2014 5:15:00 PM 11 51.8 0.337 9.19 0.2 14.24
5/7/2014 5:20:00 PM 10.99 51.782 0.338 9.18 -0.1 14.17
5/7/2014 5:25:00 PM 10.98 51.764 0.338 9.16 0.1 14.11
5/7/2014 5:30:00 PM 10.97 51.746 0.338 9.16 -0.1 14.07
5/7/2014 5:35:00 PM 10.97 51.746 0.338 9.15 0.1 13.99
5/7/2014 5:40:00 PM 10.96 51.728 0.338 9.14 -0.1 13.92
5/7/2014 5:45:00 PM 10.95 51.71 0.339 9.13 0 13.86
5/7/2014 5:50:00 PM 10.94 51.692 0.339 9.12 -0.2 13.76
5/7/2014 5:55:00 PM 10.93 51.674 0.339 9.12 0.1 13.7
5/7/2014 6:00:00 PM 10.93 51.674 0.339 9.11 0 13.64
5/7/2014 6:05:00 PM 10.92 51.656 0.339 9.11 -0.1 13.64
5/7/2014 6:10:00 PM 10.92 51.656 0.339 9.09 0 13.58
5/7/2014 6:15:00 PM 10.91 51.638 0.34 9.08 0 13.53
5/7/2014 6:20:00 PM 10.89 51.602 0.34 9.07 -0.2 13.46
5/7/2014 6:25:00 PM 10.88 51.584 0.341 9.06 0 13.39
5/7/2014 6:30:00 PM 10.87 51.566 0.341 9.06 0.1 13.27
5/7/2014 6:35:00 PM 10.85 51.53 0.341 9.05 -0.1 13.22
5/7/2014 6:40:00 PM 10.84 51.512 0.342 9.03 0.3 13.12
5/7/2014 6:45:00 PM 10.82 51.476 0.342 9.02 0.3 13.02
5/7/2014 6:50:00 PM 10.8 51.44 0.342 9.01 0 12.94
5/7/2014 6:55:00 PM 10.78 51.404 0.344 8.98 0 12.81
5/7/2014 7:00:00 PM 10.77 51.386 0.344 8.97 -0.1 12.72
5/7/2014 7:05:00 PM 10.76 51.368 0.345 8.96 0 12.65
5/7/2014 7:10:00 PM 10.74 51.332 0.345 8.95 0.1 12.56
5/7/2014 7:15:00 PM 10.72 51.296 0.346 8.93 0 12.45
5/7/2014 7:20:00 PM 10.7 51.26 0.347 8.91 0 12.33
5/7/2014 7:25:00 PM 10.69 51.242 0.347 8.9 0.2 12.26
5/7/2014 7:30:00 PM 10.68 51.224 0.348 8.87 0.1 12.18
5/7/2014 7:35:00 PM 10.66 51.188 0.348 8.86 0.6 12.11
5/7/2014 7:40:00 PM 10.64 51.152 0.348 8.84 0 12.04
5/7/2014 7:45:00 PM 10.62 51.116 0.349 8.83 0.3 11.93
5/7/2014 7:50:00 PM 10.61 51.098 0.35 8.81 0 11.9
5/7/2014 7:55:00 PM 10.59 51.062 0.351 8.79 0.4 11.82
5/7/2014 8:00:00 PM 10.57 51.026 0.351 8.76 0 11.73
5/7/2014 8:05:00 PM 10.54 50.972 0.352 8.75 0.3 11.62
5/7/2014 8:10:00 PM 10.52 50.936 0.353 8.72 -0.1 11.52
5/7/2014 8:15:00 PM 10.5 50.9 0.353 8.69 -0.1 11.44
5/7/2014 8:20:00 PM 10.48 50.864 0.354 8.66 0.1 11.35
5/7/2014 8:25:00 PM 10.45 50.81 0.354 8.64 0 11.27
5/7/2014 8:30:00 PM 10.44 50.792 0.355 8.61 0 11.17
5/7/2014 8:35:00 PM 10.42 50.756 0.356 8.59 0.2 11.12
5/7/2014 8:40:00 PM 10.39 50.702 0.356 8.56 -0.2 11.05
5/7/2014 8:45:00 PM 10.36 50.648 0.357 8.53 -0.2 10.97
5/7/2014 8:50:00 PM 10.34 50.612 0.358 8.5 -0.1 10.89
5/7/2014 8:55:00 PM 10.31 50.558 0.358 8.47 1.6 10.81
5/7/2014 9:00:00 PM 10.28 50.504 0.359 8.44 0.3 10.75
5/7/2014 9:05:00 PM 10.27 50.486 0.36 8.41 0.2 10.69
5/7/2014 9:10:00 PM 10.24 50.432 0.36 8.37 1.3 10.66
5/7/2014 9:15:00 PM 10.22 50.396 0.361 8.33 1.2 10.6
5/7/2014 9:20:00 PM 10.2 50.36 0.362 8.31 0.1 10.55
5/7/2014 9:25:00 PM 10.18 50.324 0.362 8.26 1.3 10.51
5/7/2014 9:30:00 PM 10.15 50.27 0.363 8.23 0.3 10.48
5/7/2014 9:35:00 PM 10.14 50.252 0.363 8.2 -0.2 10.42
5/7/2014 9:40:00 PM 10.11 50.198 0.363 8.16 0 10.39
5/7/2014 9:45:00 PM 10.1 50.18 0.364 8.15 0 10.36
5/7/2014 9:50:00 PM 10.07 50.126 0.364 8.11 0.2 10.32
5/7/2014 9:55:00 PM 10.04 50.072 0.365 8.07 -0.1 10.3
5/7/2014 10:00:00 PM 10.03 50.054 0.365 8.05 0.2 10.29
5/7/2014 10:05:00 PM 10.01 50.018 0.365 8.03 0.1 10.25
5/7/2014 10:10:00 PM 9.98 49.964 0.366 8 0.1 10.23
5/7/2014 10:15:00 PM 9.95 49.91 0.366 7.97 0.5 10.2
5/7/2014 10:20:00 PM 9.93 49.874 0.367 7.93 -0.1 10.2
5/7/2014 10:25:00 PM 9.91 49.838 0.367 7.91 -0.1 10.19
5/7/2014 10:30:00 PM 9.89 49.802 0.368 7.9 0 10.19
5/7/2014 10:35:00 PM 9.87 49.766 0.368 7.87 0 10.19
5/7/2014 10:40:00 PM 9.86 49.748 0.368 7.86 0 10.18
5/7/2014 10:45:00 PM 9.84 49.712 0.368 7.85 0.1 10.16
5/7/2014 10:50:00 PM 9.82 49.676 0.369 7.84 -0.1 10.16
5/7/2014 10:55:00 PM 9.8 49.64 0.369 7.81 0 10.17
5/7/2014 11:00:00 PM 9.78 49.604 0.369 7.81 -0.2 10.17
5/7/2014 11:05:00 PM 9.77 49.586 0.37 7.79 0.2 10.16
5/7/2014 11:10:00 PM 9.74 49.532 0.37 7.79 -0.1 10.16
5/7/2014 11:15:00 PM 9.73 49.514 0.37 7.77 0.2 10.15
5/7/2014 11:20:00 PM 9.71 49.478 0.371 7.76 -0.1 10.16
5/7/2014 11:25:00 PM 9.69 49.442 0.371 7.76 0 10.16
5/7/2014 11:30:00 PM 9.67 49.406 0.371 7.77 0.1 10.1
5/7/2014 11:35:00 PM 9.66 49.388 0.371 7.75 -0.1 10.16
5/7/2014 11:40:00 PM 9.64 49.352 0.371 7.74 0 10.16
5/7/2014 11:45:00 PM 9.62 49.316 0.372 7.73 0 10.16
5/7/2014 11:50:00 PM 9.6 49.28 0.372 7.72 0 10.17
5/7/2014 11:55:00 PM 9.59 49.262 0.372 7.72 -0.1 10.16
5/8/2014 12:00:00 AM 9.57 49.226 0.372 7.71 0 10.17
5/8/2014 12:05:00 AM 9.55 49.19 0.373 7.72 0.1 10.19
5/8/2014 12:10:00 AM 9.54 49.172 0.373 7.71 0 10.17
5/8/2014 12:15:00 AM 9.52 49.136 0.373 7.7 0.4 10.18
5/8/2014 12:20:00 AM 9.51 49.118 0.373 7.7 0.2 10.18
5/8/2014 12:25:00 AM 9.49 49.082 0.373 7.7 0.3 10.19
5/8/2014 12:30:00 AM 9.48 49.064 0.373 7.7 0 10.2
5/8/2014 12:35:00 AM 9.46 49.028 0.373 7.7 0.1 10.2
5/8/2014 12:40:00 AM 9.44 48.992 0.374 7.69 0 10.2
5/8/2014 12:45:00 AM 9.42 48.956 0.374 7.71 0 10.13
5/8/2014 12:50:00 AM 9.41 48.938 0.374 7.69 0 10.21
5/8/2014 12:55:00 AM 9.4 48.92 0.374 7.69 0 10.21
5/8/2014 1:00:00 AM 9.38 48.884 0.374 7.69 0.1 10.22
5/8/2014 1:05:00 AM 9.37 48.866 0.374 7.69 0 10.21
5/8/2014 1:10:00 AM 9.35 48.83 0.374 7.69 0.2 10.22
5/8/2014 1:15:00 AM 9.34 48.812 0.375 7.69 0.1 10.22
5/8/2014 1:20:00 AM 9.34 48.812 0.374 7.68 0 10.23
5/8/2014 1:25:00 AM 9.32 48.776 0.375 7.68 0 10.23
5/8/2014 1:30:00 AM 9.3 48.74 0.375 7.69 0.3 10.24
5/8/2014 1:35:00 AM 9.28 48.704 0.375 7.69 0.1 10.24
5/8/2014 1:40:00 AM 9.27 48.686 0.375 7.69 0.2 10.25
5/8/2014 1:45:00 AM 9.26 48.668 0.375 7.69 -0.1 10.25
5/8/2014 1:50:00 AM 9.26 48.668 0.375 7.69 0 10.25
5/8/2014 1:55:00 AM 9.23 48.614 0.375 7.68 0 10.25
5/8/2014 2:00:00 AM 9.22 48.596 0.375 7.69 0.1 10.17
5/8/2014 2:05:00 AM 9.2 48.56 0.375 7.68 0 10.25
5/8/2014 2:10:00 AM 9.19 48.542 0.375 7.67 0 10.27
5/8/2014 2:15:00 AM 9.18 48.524 0.375 7.68 0.1 10.27
5/8/2014 2:20:00 AM 9.17 48.506 0.375 7.68 0 10.28
5/8/2014 2:25:00 AM 9.15 48.47 0.375 7.67 0.1 10.27
5/8/2014 2:30:00 AM 9.14 48.452 0.375 7.67 0.6 10.28
5/8/2014 2:35:00 AM 9.13 48.434 0.375 7.68 0 10.27
5/8/2014 2:40:00 AM 9.13 48.434 0.375 7.67 -0.1 10.27
5/8/2014 2:45:00 AM 9.11 48.398 0.375 7.67 0.1 10.29
5/8/2014 2:50:00 AM 9.1 48.38 0.376 7.68 -0.2 10.28
5/8/2014 2:55:00 AM 9.09 48.362 0.376 7.68 0 10.27
5/8/2014 3:00:00 AM 9.08 48.344 0.376 7.68 0 10.28
5/8/2014 3:05:00 AM 9.06 48.308 0.376 7.68 1.8 10.31
5/8/2014 3:10:00 AM 9.05 48.29 0.376 7.67 0 10.29
5/8/2014 3:15:00 AM 9.04 48.272 0.376 7.69 0.2 10.2
5/8/2014 3:20:00 AM 9.03 48.254 0.376 7.67 0 10.31
5/8/2014 3:25:00 AM 9.02 48.236 0.376 7.67 0 10.31
5/8/2014 3:30:00 AM 9.01 48.218 0.376 7.67 -0.1 10.3
5/8/2014 3:35:00 AM 9 48.2 0.376 7.68 0.2 10.32
5/8/2014 3:40:00 AM 8.99 48.182 0.377 7.67 0.5 10.31
5/8/2014 3:45:00 AM 8.99 48.182 0.377 7.67 0.1 10.32
5/8/2014 3:50:00 AM 8.97 48.146 0.377 7.68 0 10.32
5/8/2014 3:55:00 AM 8.97 48.146 0.376 7.67 0.2 10.34
5/8/2014 4:00:00 AM 8.96 48.128 0.377 7.68 0 10.33
5/8/2014 4:05:00 AM 8.95 48.11 0.376 7.68 0 10.33
5/8/2014 4:10:00 AM 8.94 48.092 0.376 7.68 0.2 10.34
5/8/2014 4:15:00 AM 8.94 48.092 0.376 7.68 -0.1 10.34
5/8/2014 4:20:00 AM 8.93 48.074 0.376 7.68 0.2 10.35
5/8/2014 4:25:00 AM 8.92 48.056 0.376 7.68 0 10.33
5/8/2014 4:30:00 AM 8.91 48.038 0.376 7.68 0 10.26
5/8/2014 4:35:00 AM 8.9 48.02 0.376 7.66 0.1 10.33
5/8/2014 4:40:00 AM 8.89 48.002 0.375 7.67 0 10.34
5/8/2014 4:45:00 AM 8.88 47.984 0.375 7.66 -0.1 10.37
5/8/2014 4:50:00 AM 8.88 47.984 0.375 7.67 0.1 10.35
5/8/2014 4:55:00 AM 8.88 47.984 0.376 7.67 0.4 10.35
5/8/2014 5:00:00 AM 8.87 47.966 0.376 7.67 0.3 10.37
5/8/2014 5:05:00 AM 8.86 47.948 0.376 7.66 0 10.35
5/8/2014 5:10:00 AM 8.86 47.948 0.376 7.66 0.2 10.35
5/8/2014 5:15:00 AM 8.86 47.948 0.376 7.67 0.3 10.36
5/8/2014 5:20:00 AM 8.85 47.93 0.376 7.67 -0.1 10.35
5/8/2014 5:25:00 AM 8.84 47.912 0.376 7.67 0 10.35
5/8/2014 5:30:00 AM 8.84 47.912 0.376 7.68 0.2 10.37
5/8/2014 5:35:00 AM 8.84 47.912 0.375 7.67 0.9 10.37
5/8/2014 5:40:00 AM 8.83 47.894 0.376 7.67 0.2 10.35
5/8/2014 5:45:00 AM 8.83 47.894 0.375 7.68 0.4 10.36
5/8/2014 5:50:00 AM 8.82 47.876 0.375 7.67 -0.2 10.35
5/8/2014 5:55:00 AM 8.82 47.876 0.376 7.67 0.4 10.35
5/8/2014 6:00:00 AM 8.81 47.858 0.376 7.67 0 10.37
5/8/2014 6:05:00 AM 8.81 47.858 0.376 7.67 0 10.36
5/8/2014 6:10:00 AM 8.8 47.84 0.376 7.67 -0.1 10.38
5/8/2014 6:15:00 AM 8.8 47.84 0.376 7.68 0 10.38
5/8/2014 6:20:00 AM 8.8 47.84 0.377 7.67 0 10.38
5/8/2014 6:25:00 AM 8.8 47.84 0.377 7.68 0.7 10.38
5/8/2014 6:30:00 AM 8.79 47.822 0.377 7.67 -0.1 10.41
5/8/2014 6:35:00 AM 8.79 47.822 0.377 7.68 0 10.41
5/8/2014 6:40:00 AM 8.78 47.804 0.376 7.69 -0.1 10.43
5/8/2014 6:45:00 AM 8.78 47.804 0.376 7.69 0.1 10.45
5/8/2014 6:50:00 AM 8.78 47.804 0.376 7.69 0 10.49
5/8/2014 6:55:00 AM 8.78 47.804 0.376 7.69 0.5 10.51
5/8/2014 7:00:00 AM 8.78 47.804 0.376 7.71 0.4 10.45
5/8/2014 7:05:00 AM 8.77 47.786 0.375 7.71 0.1 10.62
5/8/2014 7:10:00 AM 8.77 47.786 0.375 7.71 0 10.71
5/8/2014 7:15:00 AM 8.77 47.786 0.375 7.73 -0.1 10.8
5/8/2014 7:20:00 AM 8.78 47.804 0.375 7.74 -0.1 10.88
5/8/2014 7:25:00 AM 8.78 47.804 0.375 7.75 -0.1 11
5/8/2014 7:30:00 AM 8.79 47.822 0.374 7.75 0.2 11.08
5/8/2014 7:35:00 AM 8.79 47.822 0.374 7.77 0 11.2
5/8/2014 7:40:00 AM 8.79 47.822 0.374 7.78 0 11.3
5/8/2014 7:45:00 AM 8.8 47.84 0.374 7.79 -0.1 11.35
5/8/2014 7:50:00 AM 8.8 47.84 0.374 7.8 0 11.52
5/8/2014 7:55:00 AM 8.81 47.858 0.374 7.83 -0.1 11.61
5/8/2014 8:00:00 AM 8.82 47.876 0.374 7.85 0 11.72
5/8/2014 8:05:00 AM 8.83 47.894 0.374 7.86 0.1 11.87
5/8/2014 8:10:00 AM 8.84 47.912 0.374 7.88 0 12
5/8/2014 8:15:00 AM 8.85 47.93 0.373 7.92 -0.1 12.03
5/8/2014 8:20:00 AM 8.86 47.948 0.373 7.93 -0.2 12.26
5/8/2014 8:25:00 AM 8.87 47.966 0.373 7.95 0 12.37
5/8/2014 8:30:00 AM 8.89 48.002 0.373 7.97 0.1 12.57
5/8/2014 8:35:00 AM 8.91 48.038 0.372 8.01 0.2 12.75
5/8/2014 8:40:00 AM 8.93 48.074 0.372 8.04 -0.1 12.92
5/8/2014 8:45:00 AM 8.96 48.128 0.371 8.07 -0.2 13.11
5/8/2014 8:50:00 AM 8.98 48.164 0.371 8.1 0 13.24
5/8/2014 8:55:00 AM 9.01 48.218 0.37 8.14 0 13.45
5/8/2014 9:00:00 AM 9.04 48.272 0.37 8.18 -0.1 13.56
5/8/2014 9:05:00 AM 9.07 48.326 0.369 8.21 -0.1 13.78
5/8/2014 9:10:00 AM 9.11 48.398 0.369 8.26 -0.2 13.96
5/8/2014 9:15:00 AM 9.13 48.434 0.368 8.3 -0.1 14.06
5/8/2014 9:20:00 AM 9.16 48.488 0.368 8.32 0.1 14.16
5/8/2014 9:25:00 AM 9.18 48.524 0.367 8.36 -0.1 14.25
5/8/2014 9:30:00 AM 9.21 48.578 0.366 8.41 0.1 14.2
5/8/2014 9:35:00 AM 9.24 48.632 0.366 8.43 0.2 14.45
5/8/2014 9:40:00 AM 9.28 48.704 0.365 8.46 0 14.6
5/8/2014 9:45:00 AM 9.33 48.794 0.364 8.49 0 14.75
5/8/2014 9:50:00 AM 9.39 48.902 0.363 8.52 -0.1 14.89
5/8/2014 9:55:00 AM 9.44 48.992 0.363 8.56 0 15.01
5/8/2014 10:00:00 AM 9.48 49.064 0.362 8.59 0 15.13
5/8/2014 10:05:00 AM 9.52 49.136 0.361 8.62 0.9 15.18
5/8/2014 10:10:00 AM 9.55 49.19 0.361 8.65 0 15.18
5/8/2014 10:15:00 AM 9.59 49.262 0.36 8.68 -0.1 15.26
5/8/2014 10:20:00 AM 9.64 49.352 0.36 8.7 0.1 15.34
5/8/2014 10:25:00 AM 9.73 49.514 0.359 8.73 0.2 15.47
5/8/2014 10:30:00 AM 9.82 49.676 0.358 8.76 0 15.58
5/8/2014 10:35:00 AM 9.84 49.712 0.358 8.78 -0.1 15.6
5/8/2014 10:40:00 AM 9.91 49.838 0.358 8.81 -0.2 15.69
5/8/2014 10:45:00 AM 9.98 49.964 0.357 8.85 -0.1 15.67
5/8/2014 10:50:00 AM 10.05 50.09 0.357 8.86 0 15.85
5/8/2014 10:55:00 AM 10.11 50.198 0.356 8.88 0 15.94
5/8/2014 11:00:00 AM 10.2 50.36 0.356 8.9 0 16
5/8/2014 11:05:00 AM 10.27 50.486 0.355 8.92 -0.1 16.1
5/8/2014 11:10:00 AM 10.36 50.648 0.354 8.95 -0.1 16.19
5/8/2014 11:15:00 AM 10.45 50.81 0.354 8.96 -0.1 16.23
5/8/2014 11:20:00 AM 10.54 50.972 0.353 8.98 0.1 16.26
5/8/2014 11:25:00 AM 10.63 51.134 0.353 9 -0.1 16.32
5/8/2014 11:30:00 AM 10.72 51.296 0.352 9.02 0 16.37
5/8/2014 11:35:00 AM 10.82 51.476 0.352 9.04 -0.1 16.4
5/8/2014 11:40:00 AM 10.91 51.638 0.351 9.05 0.1 16.46
5/8/2014 11:45:00 AM 11 51.8 0.351 9.07 -0.1 16.48
5/8/2014 11:50:00 AM 11.1 51.98 0.35 9.08 0.1 16.51
5/8/2014 11:55:00 AM 11.18 52.124 0.35 9.1 -0.1 16.5
5/8/2014 12:00:00 PM 11.27 52.286 0.349 9.13 0.1 16.55
5/8/2014 12:05:00 PM 11.36 52.448 0.348 9.14 -0.1 16.59
5/8/2014 12:10:00 PM 11.47 52.646 0.348 9.15 -0.1 16.65
5/8/2014 12:15:00 PM 11.55 52.79 0.347 9.16 0 16.61
5/8/2014 12:20:00 PM 11.64 52.952 0.347 9.17 0.2 16.65
5/8/2014 12:25:00 PM 11.78 53.204 0.346 9.18 0.5 16.64
5/8/2014 12:30:00 PM 11.93 53.474 0.345 9.2 -0.1 16.64
5/8/2014 12:35:00 PM 12.13 53.834 0.345 9.21 0.1 16.6
5/8/2014 12:40:00 PM 12.22 53.996 0.344 9.23 0.1 16.63
5/8/2014 12:45:00 PM 12.37 54.266 0.344 9.25 0 16.59
5/8/2014 12:50:00 PM 12.5 54.5 0.344 9.25 0.3 16.59
5/8/2014 12:55:00 PM 12.68 54.824 0.343 9.27 0 16.64
5/8/2014 1:00:00 PM 12.85 55.13 0.343 9.27 0.2 16.56
5/8/2014 1:05:00 PM 12.95 55.31 0.342 9.28 0.4 16.6
5/8/2014 1:10:00 PM 13.11 55.598 0.342 9.29 0.1 16.58
5/8/2014 1:15:00 PM 13.31 55.958 0.341 9.31 0.1 16.62
5/8/2014 1:20:00 PM 13.39 56.102 0.341 9.3 0 16.51
5/8/2014 1:25:00 PM 13.51 56.318 0.34 9.32 -0.1 16.48
5/8/2014 1:30:00 PM 13.63 56.534 0.34 9.32 0 16.48
5/8/2014 1:35:00 PM 13.72 56.696 0.34 9.32 0.1 16.32
5/8/2014 1:40:00 PM 13.82 56.876 0.339 9.33 0.2 16.31
5/8/2014 1:45:00 PM 13.89 57.002 0.339 9.33 0.1 16.24
5/8/2014 1:50:00 PM 13.99 57.182 0.338 9.34 -0.1 16.16
5/8/2014 1:55:00 PM 14.07 57.326 0.338 9.35 0.2 16.08
5/8/2014 2:00:00 PM 14.17 57.506 0.337 9.34 -0.1 15.98
5/8/2014 2:05:00 PM 14.26 57.668 0.337 9.36 0.1 15.93
5/8/2014 2:10:00 PM 14.37 57.866 0.336 9.35 0 15.9
5/8/2014 2:15:00 PM 14.44 57.992 0.336 9.36 0.1 15.82
5/8/2014 2:20:00 PM 14.52 58.136 0.336 9.36 1.3 15.75
5/8/2014 2:25:00 PM 14.61 58.298 0.335 9.36 0.7 15.64
5/8/2014 2:30:00 PM 14.71 58.478 0.335 9.38 0.1 15.58
5/8/2014 2:35:00 PM 14.82 58.676 0.334 9.37 0.4 15.6
5/8/2014 2:40:00 PM 14.91 58.838 0.334 9.38 0 15.57
5/8/2014 2:45:00 PM 15.06 59.108 0.334 9.38 0.3 15.55
5/8/2014 2:50:00 PM 15.19 59.342 0.333 9.38 0.2 15.51
5/8/2014 2:55:00 PM 15.27 59.486 0.333 9.39 0.2 15.51
5/8/2014 3:00:00 PM 15.4 59.72 0.333 9.39 0.3 15.54
5/8/2014 3:05:00 PM 15.51 59.918 0.332 9.39 0.2 15.52
5/8/2014 3:10:00 PM 15.61 60.098 0.332 9.4 0.1 15.49
5/8/2014 3:15:00 PM 15.72 60.296 0.332 9.4 0.1 15.53
5/8/2014 3:20:00 PM 15.85 60.53 0.331 9.41 0.5 15.52
5/8/2014 3:25:00 PM 15.96 60.728 0.331 9.4 0.2 15.47
5/8/2014 3:30:00 PM 16.06 60.908 0.331 9.41 0.2 15.49
5/8/2014 3:35:00 PM 16.18 61.124 0.331 9.41 0.2 15.47
5/8/2014 3:40:00 PM 16.29 61.322 0.331 9.41 0.4 15.39
5/8/2014 3:45:00 PM 16.4 61.52 0.33 9.42 0.2 15.3
5/8/2014 3:50:00 PM 16.49 61.682 0.33 9.42 1.8 15.35
5/8/2014 3:55:00 PM 16.59 61.862 0.33 9.42 0 15.28
5/8/2014 4:00:00 PM 16.68 62.024 0.33 9.42 0.1 15.21
5/8/2014 4:05:00 PM 16.79 62.222 0.33 9.42 0.7 15.18
5/8/2014 4:10:00 PM 16.88 62.384 0.33 9.42 0.2 15.13
5/8/2014 4:15:00 PM 16.98 62.564 0.33 9.42 0.4 15.07
5/8/2014 4:20:00 PM 17.06 62.708 0.329 9.42 0.4 15.04
5/8/2014 4:25:00 PM 17.13 62.834 0.329 9.41 0.2 14.91
5/8/2014 4:30:00 PM 17.21 62.978 0.329 9.42 0.2 14.85
5/8/2014 4:35:00 PM 17.24 63.032 0.329 9.41 0.3 14.71
5/8/2014 4:40:00 PM 17.33 63.194 0.329 9.41 0.4 14.63
5/8/2014 4:45:00 PM 17.36 63.248 0.329 9.41 0.6 14.55
5/8/2014 4:50:00 PM 17.39 63.302 0.329 9.41 0.2 14.47
5/8/2014 4:55:00 PM 17.44 63.392 0.329 9.39 0.3 14.38
5/8/2014 5:00:00 PM 17.46 63.428 0.329 9.4 0.3 14.21
5/8/2014 5:05:00 PM 17.47 63.446 0.329 9.39 0.6 14.19
5/8/2014 5:10:00 PM 17.46 63.428 0.329 9.38 0.7 14.12
5/8/2014 5:15:00 PM 17.47 63.446 0.329 9.37 0.2 14
5/8/2014 5:20:00 PM 17.48 63.464 0.329 9.36 0.3 13.98
5/8/2014 5:25:00 PM 17.51 63.518 0.329 9.35 0.3 13.89
5/8/2014 5:30:00 PM 17.51 63.518 0.329 9.34 0.3 13.81
5/8/2014 5:35:00 PM 17.5 63.5 0.329 9.34 0.2 13.75
5/8/2014 5:40:00 PM 17.5 63.5 0.329 9.33 0.2 13.66
5/8/2014 5:45:00 PM 17.5 63.5 0.329 9.32 0.2 13.61
5/8/2014 5:50:00 PM 17.48 63.464 0.33 9.32 0.1 13.53
5/8/2014 5:55:00 PM 17.47 63.446 0.33 9.31 0.5 13.42
5/8/2014 6:00:00 PM 17.44 63.392 0.33 9.31 0.3 13.31
5/8/2014 6:05:00 PM 17.45 63.41 0.33 9.29 0.3 13.28
5/8/2014 6:10:00 PM 17.45 63.41 0.33 9.29 0.2 13.2
5/8/2014 6:15:00 PM 17.43 63.374 0.331 9.28 0.6 13.04
5/8/2014 6:20:00 PM 17.4 63.32 0.331 9.27 0.3 13
5/8/2014 6:25:00 PM 17.38 63.284 0.331 9.26 0.2 12.88
5/8/2014 6:30:00 PM 17.36 63.248 0.331 9.24 0.2 12.81
5/8/2014 6:35:00 PM 17.35 63.23 0.331 9.23 0.4 12.74
5/8/2014 6:40:00 PM 17.32 63.176 0.332 9.22 0.8 12.65
5/8/2014 6:45:00 PM 17.29 63.122 0.332 9.22 0.4 12.54
5/8/2014 6:50:00 PM 17.26 63.068 0.332 9.2 0.6 12.44
5/8/2014 6:55:00 PM 17.24 63.032 0.332 9.19 0.3 12.38
5/8/2014 7:00:00 PM 17.2 62.96 0.333 9.18 0.5 12.3
5/8/2014 7:05:00 PM 17.15 62.87 0.333 9.17 0.3 12.19
5/8/2014 7:10:00 PM 17.11 62.798 0.334 9.16 0.3 12.12
5/8/2014 7:15:00 PM 17.05 62.69 0.334 9.14 0.4 12
5/8/2014 7:20:00 PM 17 62.6 0.335 9.12 0.3 11.9
5/8/2014 7:25:00 PM 16.96 62.528 0.335 9.1 0.2 11.77
5/8/2014 7:30:00 PM 16.88 62.384 0.336 9.09 0.4 11.57
5/8/2014 7:35:00 PM 16.83 62.294 0.336 9.07 0.6 11.53
5/8/2014 7:40:00 PM 16.77 62.186 0.337 9.05 0.8 11.42
5/8/2014 7:45:00 PM 16.7 62.06 0.338 9.04 0.3 11.24
5/8/2014 7:50:00 PM 16.64 61.952 0.338 9.01 0.7 11.12
5/8/2014 7:55:00 PM 16.58 61.844 0.339 8.99 0.4 10.99
5/8/2014 8:00:00 PM 16.52 61.736 0.34 8.97 0.7 10.85
5/8/2014 8:05:00 PM 16.47 61.646 0.34 8.95 0.4 10.73
5/8/2014 8:10:00 PM 16.42 61.556 0.341 8.93 0.6 10.59
5/8/2014 8:15:00 PM 16.35 61.43 0.342 8.9 0.5 10.45
5/8/2014 8:20:00 PM 16.32 61.376 0.342 8.89 0.6 10.36
5/8/2014 8:25:00 PM 16.26 61.268 0.343 8.87 0.4 10.22
5/8/2014 8:30:00 PM 16.18 61.124 0.344 8.83 0.3 10.06
5/8/2014 8:35:00 PM 16.12 61.016 0.345 8.81 0.2 9.95
5/8/2014 8:40:00 PM 16.05 60.89 0.346 8.79 0.2 9.8
5/8/2014 8:45:00 PM 15.98 60.764 0.347 8.77 0.2 9.68
5/8/2014 8:50:00 PM 15.93 60.674 0.348 8.73 0.2 9.58
5/8/2014 8:55:00 PM 15.88 60.584 0.349 8.7 0.1 9.49
5/8/2014 9:00:00 PM 15.83 60.494 0.35 8.68 0.2 9.4
5/8/2014 9:05:00 PM 15.76 60.368 0.351 8.64 0.1 9.27
5/8/2014 9:10:00 PM 15.73 60.314 0.352 8.61 0.2 9.22
5/8/2014 9:15:00 PM 15.65 60.17 0.353 8.58 0.1 9.1
5/8/2014 9:20:00 PM 15.61 60.098 0.354 8.55 0.2 9.03
5/8/2014 9:25:00 PM 15.54 59.972 0.355 8.5 0.2 8.95
5/8/2014 9:30:00 PM 15.5 59.9 0.356 8.47 0.3 8.89
5/8/2014 9:35:00 PM 15.45 59.81 0.357 8.43 0.5 8.85
5/8/2014 9:40:00 PM 15.38 59.684 0.358 8.4 0.7 8.78
5/8/2014 9:45:00 PM 15.33 59.594 0.359 8.36 0.6 8.73
5/8/2014 9:50:00 PM 15.26 59.468 0.36 8.31 0.4 8.69
5/8/2014 9:55:00 PM 15.22 59.396 0.361 8.28 0.4 8.65
5/8/2014 10:00:00 PM 15.18 59.324 0.362 8.24 0.3 8.58
5/8/2014 10:05:00 PM 15.11 59.198 0.363 8.2 0.4 8.6
5/8/2014 10:10:00 PM 15.06 59.108 0.364 8.16 0.1 8.59
5/8/2014 10:15:00 PM 15.02 59.036 0.365 8.11 0.1 8.54
5/8/2014 10:20:00 PM 14.96 58.928 0.366 8.07 0.2 8.55
5/8/2014 10:25:00 PM 14.9 58.82 0.367 8.04 0.3 8.51
5/8/2014 10:30:00 PM 14.84 58.712 0.367 8 0.4 8.53
5/8/2014 10:35:00 PM 14.8 58.64 0.367 7.96 0.1 8.52
5/8/2014 10:40:00 PM 14.76 58.568 0.367 7.93 0.3 8.51
5/8/2014 10:45:00 PM 14.71 58.478 0.368 7.9 0.4 8.5
5/8/2014 10:50:00 PM 14.66 58.388 0.369 7.88 0.2 8.51
5/8/2014 10:55:00 PM 14.61 58.298 0.369 7.85 0.2 8.5
5/8/2014 11:00:00 PM 14.58 58.244 0.369 7.84 0.1 8.52
5/8/2014 11:05:00 PM 14.53 58.154 0.369 7.81 0.2 8.51
5/8/2014 11:10:00 PM 14.46 58.028 0.37 7.79 0.1 8.52
5/8/2014 11:15:00 PM 14.42 57.956 0.37 7.79 0.2 8.41
5/8/2014 11:20:00 PM 14.37 57.866 0.37 7.76 0.2 8.52
5/8/2014 11:25:00 PM 14.31 57.758 0.37 7.74 0.1 8.54
5/8/2014 11:30:00 PM 14.26 57.668 0.371 7.73 0.2 8.55
5/8/2014 11:35:00 PM 14.21 57.578 0.371 7.71 0.1 8.55
5/8/2014 11:40:00 PM 14.17 57.506 0.372 7.71 0.1 8.56
5/8/2014 11:45:00 PM 14.13 57.434 0.372 7.7 0.3 8.57
5/8/2014 11:50:00 PM 14.08 57.344 0.371 7.69 0.4 8.58
5/8/2014 11:55:00 PM 14.02 57.236 0.371 7.68 0.2 8.59
5/9/2014 12:00:00 AM 13.99 57.182 0.371 7.68 0.3 8.61
5/9/2014 12:05:00 AM 13.96 57.128 0.372 7.67 0.3 8.62
5/9/2014 12:10:00 AM 13.89 57.002 0.372 7.66 0.3 8.63
5/9/2014 12:15:00 AM 13.85 56.93 0.372 7.66 0.2 8.64
5/9/2014 12:20:00 AM 13.81 56.858 0.373 7.65 0.3 8.65
5/9/2014 12:25:00 AM 13.76 56.768 0.373 7.65 0 8.66
5/9/2014 12:30:00 AM 13.76 56.768 0.373 7.65 0.6 8.51
5/9/2014 12:35:00 AM 13.71 56.678 0.374 7.64 0.4 8.66
5/9/2014 12:40:00 AM 13.64 56.552 0.374 7.64 0.4 8.68
5/9/2014 12:45:00 AM 13.6 56.48 0.374 7.63 0.4 8.71
5/9/2014 12:50:00 AM 13.56 56.408 0.374 7.62 0.3 8.7
5/9/2014 12:55:00 AM 13.51 56.318 0.374 7.62 0.2 8.71
5/9/2014 1:00:00 AM 13.47 56.246 0.375 7.63 0.8 8.74
5/9/2014 1:05:00 AM 13.43 56.174 0.375 7.62 0.9 8.73
5/9/2014 1:10:00 AM 13.38 56.084 0.375 7.62 0.5 8.78
5/9/2014 1:15:00 AM 13.35 56.03 0.375 7.62 0.9 8.75
5/9/2014 1:20:00 AM 13.31 55.958 0.375 7.61 0.7 8.79
5/9/2014 1:25:00 AM 13.26 55.868 0.375 7.61 1.2 8.8
5/9/2014 1:30:00 AM 13.23 55.814 0.376 7.61 0.9 8.79
5/9/2014 1:35:00 AM 13.2 55.76 0.375 7.61 0.5 8.82
5/9/2014 1:40:00 AM 13.15 55.67 0.376 7.61 1.2 8.82
5/9/2014 1:45:00 AM 13.11 55.598 0.376 7.62 0.6 8.69
5/9/2014 1:50:00 AM 13.07 55.526 0.376 7.61 0.1 8.87
5/9/2014 1:55:00 AM 13.04 55.472 0.376 7.61 0.6 8.85
5/9/2014 2:00:00 AM 13 55.4 0.376 7.61 0.4 8.86
5/9/2014 2:05:00 AM 12.96 55.328 0.376 7.6 0.3 8.86
5/9/2014 2:10:00 AM 12.92 55.256 0.376 7.6 0.6 8.9
5/9/2014 2:15:00 AM 12.88 55.184 0.376 7.6 0.7 8.9
5/9/2014 2:20:00 AM 12.85 55.13 0.376 7.6 0.9 8.91
5/9/2014 2:25:00 AM 12.81 55.058 0.376 7.6 1 8.92
5/9/2014 2:30:00 AM 12.77 54.986 0.376 7.61 0.2 8.92
5/9/2014 2:35:00 AM 12.74 54.932 0.376 7.61 0.3 8.94
5/9/2014 2:40:00 AM 12.69 54.842 0.377 7.6 0.4 8.96
5/9/2014 2:45:00 AM 12.66 54.788 0.376 7.6 1 8.97
5/9/2014 2:50:00 AM 12.62 54.716 0.377 7.6 0.5 8.98
5/9/2014 2:55:00 AM 12.58 54.644 0.377 7.6 0.4 8.98
5/9/2014 3:00:00 AM 12.56 54.608 0.377 7.62 0.4 8.81
5/9/2014 3:05:00 AM 12.52 54.536 0.377 7.61 0.5 9
5/9/2014 3:10:00 AM 12.48 54.464 0.377 7.6 0.4 9
5/9/2014 3:15:00 AM 12.45 54.41 0.378 7.6 0.6 9.03
5/9/2014 3:20:00 AM 12.42 54.356 0.378 7.6 0.2 9.05
5/9/2014 3:25:00 AM 12.37 54.266 0.378 7.6 0.9 9.06
5/9/2014 3:30:00 AM 12.35 54.23 0.378 7.6 0.4 9.07
5/9/2014 3:35:00 AM 12.32 54.176 0.378 7.61 0.1 9.1
5/9/2014 3:40:00 AM 12.3 54.14 0.378 7.6 0.4 9.09
5/9/2014 3:45:00 AM 12.26 54.068 0.378 7.6 0.4 9.09
5/9/2014 3:50:00 AM 12.21 53.978 0.379 7.6 0.3 9.11
5/9/2014 3:55:00 AM 12.18 53.924 0.379 7.6 0.7 9.11
5/9/2014 4:00:00 AM 12.15 53.87 0.379 7.61 0.5 9.14
5/9/2014 4:05:00 AM 12.13 53.834 0.379 7.6 0.2 9.14
5/9/2014 4:10:00 AM 12.09 53.762 0.38 7.61 0.5 9.14
5/9/2014 4:15:00 AM 12.06 53.708 0.38 7.62 0.4 9.02
5/9/2014 4:20:00 AM 12.03 53.654 0.38 7.61 0.2 9.17
5/9/2014 4:25:00 AM 12 53.6 0.38 7.61 0.3 9.18
5/9/2014 4:30:00 AM 11.99 53.582 0.38 7.61 0.5 9.19
5/9/2014 4:35:00 AM 11.95 53.51 0.38 7.6 0.2 9.18
5/9/2014 4:40:00 AM 11.91 53.438 0.38 7.61 0.4 9.2
5/9/2014 4:45:00 AM 11.88 53.384 0.38 7.61 0.6 9.23
5/9/2014 4:50:00 AM 11.86 53.348 0.38 7.61 0.4 9.24
5/9/2014 4:55:00 AM 11.83 53.294 0.38 7.61 0.7 9.26
5/9/2014 5:00:00 AM 11.81 53.258 0.38 7.61 0.4 9.24
5/9/2014 5:05:00 AM 11.78 53.204 0.38 7.61 0.4 9.24
5/9/2014 5:10:00 AM 11.74 53.132 0.381 7.61 0.2 9.28
5/9/2014 5:15:00 AM 11.72 53.096 0.38 7.61 0.7 9.28
5/9/2014 5:20:00 AM 11.69 53.042 0.381 7.62 0.5 9.29
5/9/2014 5:25:00 AM 11.66 52.988 0.381 7.61 0.5 9.3
5/9/2014 5:30:00 AM 11.63 52.934 0.381 7.62 0.5 9.16
5/9/2014 5:35:00 AM 11.6 52.88 0.381 7.6 0.5 9.31
5/9/2014 5:40:00 AM 11.59 52.862 0.381 7.61 0.4 9.31
5/9/2014 5:45:00 AM 11.56 52.808 0.381 7.62 0.7 9.32
5/9/2014 5:50:00 AM 11.53 52.754 0.381 7.61 0.2 9.34
5/9/2014 5:55:00 AM 11.5 52.7 0.381 7.6 0.4 9.35
5/9/2014 6:00:00 AM 11.48 52.664 0.381 7.61 0.3 9.35
5/9/2014 6:05:00 AM 11.45 52.61 0.381 7.6 0.1 9.37
5/9/2014 6:10:00 AM 11.42 52.556 0.381 7.61 0.3 9.39
5/9/2014 6:15:00 AM 11.41 52.538 0.381 7.62 -0.1 9.41
5/9/2014 6:20:00 AM 11.38 52.484 0.382 7.61 0.3 9.46
5/9/2014 6:25:00 AM 11.36 52.448 0.382 7.61 0.1 9.5
5/9/2014 6:30:00 AM 11.34 52.412 0.382 7.62 0.6 9.57
5/9/2014 6:35:00 AM 11.32 52.376 0.382 7.62 0.1 9.64
5/9/2014 6:40:00 AM 11.3 52.34 0.382 7.63 0.2 9.71
5/9/2014 6:45:00 AM 11.29 52.322 0.382 7.65 0.6 9.68
5/9/2014 6:50:00 AM 11.27 52.286 0.382 7.64 0.2 9.92
5/9/2014 6:55:00 AM 11.26 52.268 0.382 7.65 0.1 10.01
5/9/2014 7:00:00 AM 11.25 52.25 0.382 7.67 0 10.08
5/9/2014 7:05:00 AM 11.23 52.214 0.382 7.68 0.3 10.21
5/9/2014 7:10:00 AM 11.22 52.196 0.382 7.69 0.6 10.34
5/9/2014 7:15:00 AM 11.21 52.178 0.382 7.71 0 10.44
5/9/2014 7:20:00 AM 11.2 52.16 0.382 7.72 0.8 10.53
5/9/2014 7:25:00 AM 11.19 52.142 0.382 7.73 0.3 10.61
5/9/2014 7:30:00 AM 11.18 52.124 0.382 7.75 0.1 10.76
5/9/2014 7:35:00 AM 11.18 52.124 0.382 7.77 0.2 10.86
5/9/2014 7:40:00 AM 11.17 52.106 0.382 7.78 0.3 11.01
5/9/2014 7:45:00 AM 11.17 52.106 0.382 7.8 -0.1 11.15
5/9/2014 7:50:00 AM 11.17 52.106 0.382 7.83 0.1 11.34
5/9/2014 7:55:00 AM 11.18 52.124 0.382 7.85 0.1 11.54
5/9/2014 8:00:00 AM 11.19 52.142 0.381 7.89 0.3 11.54
5/9/2014 8:05:00 AM 11.2 52.16 0.381 7.9 0.1 11.97
5/9/2014 8:10:00 AM 11.22 52.196 0.381 7.94 0.3 12.12
5/9/2014 8:15:00 AM 11.23 52.214 0.381 7.96 0.2 12.33
5/9/2014 8:20:00 AM 11.25 52.25 0.38 8 0 12.53
5/9/2014 8:25:00 AM 11.26 52.268 0.38 8.03 0.1 12.64
5/9/2014 8:30:00 AM 11.29 52.322 0.379 8.07 0 12.87
5/9/2014 8:35:00 AM 11.32 52.376 0.379 8.1 0 13.07
5/9/2014 8:40:00 AM 11.34 52.412 0.378 8.14 0.3 13.25
5/9/2014 8:45:00 AM 11.36 52.448 0.378 8.18 0 13.37
5/9/2014 8:50:00 AM 11.38 52.484 0.377 8.22 0.1 13.51
5/9/2014 8:55:00 AM 11.4 52.52 0.377 8.25 0.1 13.64
5/9/2014 9:00:00 AM 11.42 52.556 0.377 8.28 0.4 13.7
5/9/2014 9:05:00 AM 11.44 52.592 0.376 8.31 0.4 13.83
5/9/2014 9:10:00 AM 11.48 52.664 0.375 8.34 0.5 13.97
5/9/2014 9:15:00 AM 11.52 52.736 0.375 8.39 0.1 13.91
5/9/2014 9:20:00 AM 11.55 52.79 0.374 8.4 0.1 14.17
5/9/2014 9:25:00 AM 11.6 52.88 0.374 8.44 0.1 14.3
5/9/2014 9:30:00 AM 11.64 52.952 0.373 8.47 0.2 14.4
5/9/2014 9:35:00 AM 11.69 53.042 0.373 8.5 0.1 14.48
5/9/2014 9:40:00 AM 11.76 53.168 0.372 8.54 0.1 14.59
5/9/2014 9:45:00 AM 11.81 53.258 0.372 8.56 0 14.66
5/9/2014 9:50:00 AM 11.88 53.384 0.371 8.6 0.3 14.74
5/9/2014 9:55:00 AM 11.95 53.51 0.37 8.62 0.1 14.82
5/9/2014 10:00:00 AM 12.03 53.654 0.369 8.66 0.2 14.91
5/9/2014 10:05:00 AM 12.12 53.816 0.368 8.69 0.1 15.01
5/9/2014 10:10:00 AM 12.21 53.978 0.368 8.73 0.2 15.1
5/9/2014 10:15:00 AM 12.3 54.14 0.367 8.75 0.2 15.18
5/9/2014 10:20:00 AM 12.37 54.266 0.366 8.78 0.6 15.23
5/9/2014 10:25:00 AM 12.46 54.428 0.365 8.81 0.2 15.31
5/9/2014 10:30:00 AM 12.56 54.608 0.365 8.85 0.3 15.15
5/9/2014 10:35:00 AM 12.66 54.788 0.364 8.86 0.2 15.44
5/9/2014 10:40:00 AM 12.76 54.968 0.363 8.87 0 15.48
5/9/2014 10:45:00 AM 12.84 55.112 0.363 8.89 0.3 15.53
5/9/2014 10:50:00 AM 12.92 55.256 0.363 8.92 0.2 15.59
5/9/2014 10:55:00 AM 13.02 55.436 0.362 8.93 0.2 15.6
5/9/2014 11:00:00 AM 13.14 55.652 0.362 8.95 0.2 15.67
5/9/2014 11:05:00 AM 13.24 55.832 0.361 8.96 0.2 15.73
5/9/2014 11:10:00 AM 13.39 56.102 0.361 8.98 0.9 15.75
5/9/2014 11:15:00 AM 13.5 56.3 0.36 9 0.5 15.84
5/9/2014 11:20:00 AM 13.62 56.516 0.36 9.01 0.1 15.81
5/9/2014 11:25:00 AM 13.74 56.732 0.359 9.04 0.1 15.85
5/9/2014 11:30:00 AM 13.9 57.02 0.359 9.05 0 15.9
5/9/2014 11:35:00 AM 14.05 57.29 0.358 9.07 0.1 15.91
5/9/2014 11:40:00 AM 14.17 57.506 0.358 9.08 0.3 15.9
5/9/2014 11:45:00 AM 14.35 57.83 0.357 9.11 0.4 15.82
5/9/2014 11:50:00 AM 14.48 58.064 0.357 9.11 0.3 16
5/9/2014 11:55:00 AM 14.63 58.334 0.357 9.13 0.4 16.01
5/9/2014 12:00:00 PM 14.79 58.622 0.356 9.15 0.3 16.07
5/9/2014 12:05:00 PM 14.9 58.82 0.356 9.16 0.3 16.03
5/9/2014 12:10:00 PM 15 59 0.356 9.17 0.5 16.04
5/9/2014 12:15:00 PM 15.12 59.216 0.355 9.18 0.5 16.04
5/9/2014 12:20:00 PM 15.3 59.54 0.354 9.19 0.7 16.06
5/9/2014 12:25:00 PM 15.46 59.828 0.354 9.21 0.6 15.98
5/9/2014 12:30:00 PM 15.62 60.116 0.354 9.22 0.9 15.98
5/9/2014 12:35:00 PM 15.77 60.386 0.353 9.24 0.5 16
5/9/2014 12:40:00 PM 15.93 60.674 0.353 9.25 0.9 15.96
5/9/2014 12:45:00 PM 16.09 60.962 0.352 9.25 1.2 15.98
5/9/2014 12:50:00 PM 16.25 61.25 0.352 9.26 0.9 15.99
5/9/2014 12:55:00 PM 16.43 61.574 0.352 9.28 1.2 15.95
5/9/2014 1:00:00 PM 16.56 61.808 0.352 9.29 0.6 15.96
5/9/2014 1:05:00 PM 16.61 61.898 0.351 9.3 0.7 15.9
5/9/2014 1:10:00 PM 16.75 62.15 0.351 9.3 0.7 15.88
5/9/2014 1:15:00 PM 16.88 62.384 0.35 9.3 0.8 15.84
5/9/2014 1:20:00 PM 16.97 62.546 0.35 9.31 1 15.82
5/9/2014 1:25:00 PM 17.09 62.762 0.35 9.32 0.9 15.83
5/9/2014 1:30:00 PM 17.19 62.942 0.349 9.33 1.7 15.84
5/9/2014 1:35:00 PM 17.32 63.176 0.349 9.33 0.9 15.82
5/9/2014 1:40:00 PM 17.43 63.374 0.349 9.34 1.4 15.76
5/9/2014 1:45:00 PM 17.56 63.608 0.348 9.35 1.1 15.75
5/9/2014 1:50:00 PM 17.66 63.788 0.348 9.35 1.8 15.73
5/9/2014 1:55:00 PM 17.74 63.932 0.348 9.36 1.3 15.68
5/9/2014 2:00:00 PM 17.83 64.094 0.347 9.36 1.6 15.63
5/9/2014 2:05:00 PM 17.88 64.184 0.347 9.36 1.7 15.52
5/9/2014 2:10:00 PM 17.92 64.256 0.347 9.37 1.7 15.46
5/9/2014 2:15:00 PM 17.99 64.382 0.347 9.38 1.8 15.36
5/9/2014 2:20:00 PM 18.02 64.436 0.347 9.37 2 15.35
5/9/2014 2:25:00 PM 18.09 64.562 0.346 9.38 2.3 15.31
5/9/2014 2:30:00 PM 18.14 64.652 0.346 9.37 2.4 15.21
5/9/2014 2:35:00 PM 18.16 64.688 0.346 9.38 2.6 15.16
5/9/2014 2:40:00 PM 18.2 64.76 0.346 9.38 2.5 15.1
5/9/2014 2:45:00 PM 18.25 64.85 0.346 9.38 2.7 15.06
5/9/2014 2:50:00 PM 18.3 64.94 0.346 9.38 3 15.04
5/9/2014 2:55:00 PM 18.35 65.03 0.346 9.38 2.8 15.03
5/9/2014 3:00:00 PM 18.38 65.084 0.346 9.38 2.5 14.98
5/9/2014 3:05:00 PM 18.41 65.138 0.346 9.39 3.1 14.95
5/9/2014 3:10:00 PM 18.44 65.192 0.346 9.38 3.3 14.91
5/9/2014 3:15:00 PM 18.44 65.192 0.346 9.38 3.4 14.82
5/9/2014 3:20:00 PM 18.46 65.228 0.346 9.39 3.8 14.76
5/9/2014 3:25:00 PM 18.47 65.246 0.346 9.38 3.8 14.7
5/9/2014 3:30:00 PM 18.48 65.264 0.346 9.38 4.1 14.52
5/9/2014 3:35:00 PM 18.47 65.246 0.346 9.38 4.5 14.52
5/9/2014 3:40:00 PM 18.47 65.246 0.346 9.38 4.